<?xml version="1.0" encoding="UTF-8" standalone="no" ?>
<gpx xmlns="http://www.topografix.com/GPX/1/1" xmlns:xsi="http://www.w3.org/2001/XMLSchema-instance" xsi:schemaLocation="http://www.topografix.com/GPX/1/1 http://www.topografix.com/GPX/1/1/gpx.xsd" version="1.1" creator="VisuGPX - https://www.visugpx.com">
  <metadata>
    <name>Balade (pas principalement)</name>
    <desc><![CDATA[C\'était vraiment un pas \"tranquille\" puis.... l%u2019excitation est montée ! on a donc entamé un long trot !!]]></desc>
  </metadata>
  <trk>
    <name><![CDATA[Untitled]]></name>
    <trkseg>
      <trkpt lat="48.70442" lon="1.76289">
        <ele>173</ele>
        <time>2012-03-02T10:35:17.000Z</time>
      </trkpt>
      <trkpt lat="48.70451" lon="1.76282">
        <ele>172.60000610352</ele>
        <time>2012-03-02T10:35:19.000Z</time>
      </trkpt>
      <trkpt lat="48.70448" lon="1.76283">
        <ele>172.60000610352</ele>
        <time>2012-03-02T10:35:22.000Z</time>
      </trkpt>
      <trkpt lat="48.70448" lon="1.76286">
        <ele>172.60000610352</ele>
        <time>2012-03-02T10:35:26.000Z</time>
      </trkpt>
      <trkpt lat="48.70448" lon="1.76287">
        <ele>172.60000610352</ele>
        <time>2012-03-02T10:35:27.000Z</time>
      </trkpt>
      <trkpt lat="48.70448" lon="1.76292">
        <ele>172.60000610352</ele>
        <time>2012-03-02T10:35:33.000Z</time>
      </trkpt>
      <trkpt lat="48.70449" lon="1.76299">
        <ele>172.60000610352</ele>
        <time>2012-03-02T10:35:38.000Z</time>
      </trkpt>
      <trkpt lat="48.70448" lon="1.76303">
        <ele>172.80000305176</ele>
        <time>2012-03-02T10:35:42.000Z</time>
      </trkpt>
      <trkpt lat="48.69849" lon="1.76729">
        <ele>185.19999694824</ele>
        <time>2012-03-08T10:09:33.000Z</time>
      </trkpt>
      <trkpt lat="48.69849" lon="1.7673">
        <ele>185.19999694824</ele>
        <time>2012-03-08T10:09:34.000Z</time>
      </trkpt>
      <trkpt lat="48.69845" lon="1.76714">
        <ele>185</ele>
        <time>2012-03-08T10:09:41.000Z</time>
      </trkpt>
      <trkpt lat="48.69841" lon="1.7671">
        <ele>185</ele>
        <time>2012-03-08T10:09:45.000Z</time>
      </trkpt>
      <trkpt lat="48.69835" lon="1.76699">
        <ele>184.80000305176</ele>
        <time>2012-03-08T10:09:52.000Z</time>
      </trkpt>
      <trkpt lat="48.69829" lon="1.76693">
        <ele>184.60000610352</ele>
        <time>2012-03-08T10:09:57.000Z</time>
      </trkpt>
      <trkpt lat="48.69821" lon="1.76686">
        <ele>184.19999694824</ele>
        <time>2012-03-08T10:10:03.000Z</time>
      </trkpt>
      <trkpt lat="48.69814" lon="1.76677">
        <ele>184</ele>
        <time>2012-03-08T10:10:10.000Z</time>
      </trkpt>
      <trkpt lat="48.69805" lon="1.76669">
        <ele>183.60000610352</ele>
        <time>2012-03-08T10:10:17.000Z</time>
      </trkpt>
      <trkpt lat="48.69794" lon="1.76658">
        <ele>183.60000610352</ele>
        <time>2012-03-08T10:10:25.000Z</time>
      </trkpt>
      <trkpt lat="48.69785" lon="1.76652">
        <ele>183.60000610352</ele>
        <time>2012-03-08T10:10:33.000Z</time>
      </trkpt>
      <trkpt lat="48.69778" lon="1.76647">
        <ele>183.39999389648</ele>
        <time>2012-03-08T10:10:38.000Z</time>
      </trkpt>
      <trkpt lat="48.69767" lon="1.76632">
        <ele>183.60000610352</ele>
        <time>2012-03-08T10:10:47.000Z</time>
      </trkpt>
      <trkpt lat="48.6976" lon="1.76626">
        <ele>183.60000610352</ele>
        <time>2012-03-08T10:10:52.000Z</time>
      </trkpt>
      <trkpt lat="48.69753" lon="1.76617">
        <ele>183.60000610352</ele>
        <time>2012-03-08T10:10:59.000Z</time>
      </trkpt>
      <trkpt lat="48.69746" lon="1.76606">
        <ele>183.39999389648</ele>
        <time>2012-03-08T10:11:06.000Z</time>
      </trkpt>
      <trkpt lat="48.69745" lon="1.76602">
        <ele>183.39999389648</ele>
        <time>2012-03-08T10:11:09.000Z</time>
      </trkpt>
      <trkpt lat="48.69739" lon="1.76593">
        <ele>183.19999694824</ele>
        <time>2012-03-08T10:11:14.000Z</time>
      </trkpt>
      <trkpt lat="48.69739" lon="1.76581">
        <ele>183.39999389648</ele>
        <time>2012-03-08T10:11:18.000Z</time>
      </trkpt>
      <trkpt lat="48.69739" lon="1.76573">
        <ele>183.60000610352</ele>
        <time>2012-03-08T10:11:20.000Z</time>
      </trkpt>
      <trkpt lat="48.69733" lon="1.76556">
        <ele>183.39999389648</ele>
        <time>2012-03-08T10:11:25.000Z</time>
      </trkpt>
      <trkpt lat="48.69731" lon="1.76546">
        <ele>183.39999389648</ele>
        <time>2012-03-08T10:11:29.000Z</time>
      </trkpt>
      <trkpt lat="48.69732" lon="1.7653">
        <ele>183.60000610352</ele>
        <time>2012-03-08T10:11:36.000Z</time>
      </trkpt>
      <trkpt lat="48.69731" lon="1.76528">
        <ele>183.80000305176</ele>
        <time>2012-03-08T10:11:37.000Z</time>
      </trkpt>
      <trkpt lat="48.69733" lon="1.76511">
        <ele>184</ele>
        <time>2012-03-08T10:11:45.000Z</time>
      </trkpt>
      <trkpt lat="48.69733" lon="1.76502">
        <ele>184.19999694824</ele>
        <time>2012-03-08T10:11:49.000Z</time>
      </trkpt>
      <trkpt lat="48.69732" lon="1.76493">
        <ele>184</ele>
        <time>2012-03-08T10:11:53.000Z</time>
      </trkpt>
      <trkpt lat="48.69729" lon="1.76474">
        <ele>183.80000305176</ele>
        <time>2012-03-08T10:12:02.000Z</time>
      </trkpt>
      <trkpt lat="48.69728" lon="1.76471">
        <ele>183.80000305176</ele>
        <time>2012-03-08T10:12:04.000Z</time>
      </trkpt>
      <trkpt lat="48.69728" lon="1.76456">
        <ele>183.60000610352</ele>
        <time>2012-03-08T10:12:11.000Z</time>
      </trkpt>
      <trkpt lat="48.69727" lon="1.76448">
        <ele>183.60000610352</ele>
        <time>2012-03-08T10:12:15.000Z</time>
      </trkpt>
      <trkpt lat="48.69723" lon="1.76432">
        <ele>183.39999389648</ele>
        <time>2012-03-08T10:12:22.000Z</time>
      </trkpt>
      <trkpt lat="48.69722" lon="1.76424">
        <ele>183.39999389648</ele>
        <time>2012-03-08T10:12:26.000Z</time>
      </trkpt>
      <trkpt lat="48.69722" lon="1.76414">
        <ele>183.39999389648</ele>
        <time>2012-03-08T10:12:32.000Z</time>
      </trkpt>
      <trkpt lat="48.6972" lon="1.76399">
        <ele>183.39999389648</ele>
        <time>2012-03-08T10:12:38.000Z</time>
      </trkpt>
      <trkpt lat="48.69718" lon="1.76388">
        <ele>183.60000610352</ele>
        <time>2012-03-08T10:12:44.000Z</time>
      </trkpt>
      <trkpt lat="48.69714" lon="1.76378">
        <ele>183.60000610352</ele>
        <time>2012-03-08T10:12:50.000Z</time>
      </trkpt>
      <trkpt lat="48.69714" lon="1.76364">
        <ele>183.80000305176</ele>
        <time>2012-03-08T10:12:56.000Z</time>
      </trkpt>
      <trkpt lat="48.69715" lon="1.76362">
        <ele>183.80000305176</ele>
        <time>2012-03-08T10:13:00.000Z</time>
      </trkpt>
      <trkpt lat="48.69715" lon="1.7636">
        <ele>183.80000305176</ele>
        <time>2012-03-08T10:13:03.000Z</time>
      </trkpt>
      <trkpt lat="48.69715" lon="1.76356">
        <ele>183.80000305176</ele>
        <time>2012-03-08T10:13:04.000Z</time>
      </trkpt>
      <trkpt lat="48.69712" lon="1.76347">
        <ele>184</ele>
        <time>2012-03-08T10:13:08.000Z</time>
      </trkpt>
      <trkpt lat="48.69711" lon="1.76337">
        <ele>184</ele>
        <time>2012-03-08T10:13:13.000Z</time>
      </trkpt>
      <trkpt lat="48.69709" lon="1.76326">
        <ele>184</ele>
        <time>2012-03-08T10:13:18.000Z</time>
      </trkpt>
      <trkpt lat="48.69709" lon="1.76321">
        <ele>184</ele>
        <time>2012-03-08T10:13:21.000Z</time>
      </trkpt>
      <trkpt lat="48.69707" lon="1.76304">
        <ele>184</ele>
        <time>2012-03-08T10:13:30.000Z</time>
      </trkpt>
      <trkpt lat="48.69706" lon="1.76301">
        <ele>184</ele>
        <time>2012-03-08T10:13:32.000Z</time>
      </trkpt>
      <trkpt lat="48.69705" lon="1.76294">
        <ele>184</ele>
        <time>2012-03-08T10:13:36.000Z</time>
      </trkpt>
      <trkpt lat="48.69704" lon="1.76279">
        <ele>184</ele>
        <time>2012-03-08T10:13:42.000Z</time>
      </trkpt>
      <trkpt lat="48.69701" lon="1.76267">
        <ele>184</ele>
        <time>2012-03-08T10:13:48.000Z</time>
      </trkpt>
      <trkpt lat="48.69698" lon="1.76255">
        <ele>184</ele>
        <time>2012-03-08T10:13:54.000Z</time>
      </trkpt>
      <trkpt lat="48.69697" lon="1.76241">
        <ele>184</ele>
        <time>2012-03-08T10:14:00.000Z</time>
      </trkpt>
      <trkpt lat="48.69695" lon="1.76224">
        <ele>184</ele>
        <time>2012-03-08T10:14:07.000Z</time>
      </trkpt>
      <trkpt lat="48.69696" lon="1.76208">
        <ele>184</ele>
        <time>2012-03-08T10:14:14.000Z</time>
      </trkpt>
      <trkpt lat="48.69695" lon="1.76197">
        <ele>184</ele>
        <time>2012-03-08T10:14:20.000Z</time>
      </trkpt>
      <trkpt lat="48.69693" lon="1.76184">
        <ele>184</ele>
        <time>2012-03-08T10:14:26.000Z</time>
      </trkpt>
      <trkpt lat="48.69691" lon="1.76167">
        <ele>184</ele>
        <time>2012-03-08T10:14:33.000Z</time>
      </trkpt>
      <trkpt lat="48.6969" lon="1.76155">
        <ele>183.60000610352</ele>
        <time>2012-03-08T10:14:39.000Z</time>
      </trkpt>
      <trkpt lat="48.69689" lon="1.76153">
        <ele>183.39999389648</ele>
        <time>2012-03-08T10:14:40.000Z</time>
      </trkpt>
      <trkpt lat="48.69688" lon="1.76139">
        <ele>183</ele>
        <time>2012-03-08T10:14:46.000Z</time>
      </trkpt>
      <trkpt lat="48.69687" lon="1.76124">
        <ele>182.39999389648</ele>
        <time>2012-03-08T10:14:53.000Z</time>
      </trkpt>
      <trkpt lat="48.69684" lon="1.76104">
        <ele>181.60000610352</ele>
        <time>2012-03-08T10:15:01.000Z</time>
      </trkpt>
      <trkpt lat="48.6968" lon="1.76087">
        <ele>181</ele>
        <time>2012-03-08T10:15:09.000Z</time>
      </trkpt>
      <trkpt lat="48.69678" lon="1.76072">
        <ele>179.80000305176</ele>
        <time>2012-03-08T10:15:16.000Z</time>
      </trkpt>
      <trkpt lat="48.69678" lon="1.7606">
        <ele>178.80000305176</ele>
        <time>2012-03-08T10:15:22.000Z</time>
      </trkpt>
      <trkpt lat="48.69675" lon="1.76046">
        <ele>177.60000610352</ele>
        <time>2012-03-08T10:15:29.000Z</time>
      </trkpt>
      <trkpt lat="48.69675" lon="1.76044">
        <ele>177.39999389648</ele>
        <time>2012-03-08T10:15:30.000Z</time>
      </trkpt>
      <trkpt lat="48.69673" lon="1.7604">
        <ele>177.19999694824</ele>
        <time>2012-03-08T10:15:32.000Z</time>
      </trkpt>
      <trkpt lat="48.69672" lon="1.76024">
        <ele>175.80000305176</ele>
        <time>2012-03-08T10:15:39.000Z</time>
      </trkpt>
      <trkpt lat="48.69669" lon="1.76011">
        <ele>174.80000305176</ele>
        <time>2012-03-08T10:15:45.000Z</time>
      </trkpt>
      <trkpt lat="48.69667" lon="1.75999">
        <ele>173.80000305176</ele>
        <time>2012-03-08T10:15:51.000Z</time>
      </trkpt>
      <trkpt lat="48.69664" lon="1.75989">
        <ele>173.19999694824</ele>
        <time>2012-03-08T10:15:56.000Z</time>
      </trkpt>
      <trkpt lat="48.69663" lon="1.75972">
        <ele>171.60000610352</ele>
        <time>2012-03-08T10:16:05.000Z</time>
      </trkpt>
      <trkpt lat="48.69662" lon="1.75954">
        <ele>170.19999694824</ele>
        <time>2012-03-08T10:16:12.000Z</time>
      </trkpt>
      <trkpt lat="48.6966" lon="1.7594">
        <ele>169</ele>
        <time>2012-03-08T10:16:18.000Z</time>
      </trkpt>
      <trkpt lat="48.69658" lon="1.75921">
        <ele>167.60000610352</ele>
        <time>2012-03-08T10:16:26.000Z</time>
      </trkpt>
      <trkpt lat="48.69656" lon="1.75905">
        <ele>166.39999389648</ele>
        <time>2012-03-08T10:16:33.000Z</time>
      </trkpt>
      <trkpt lat="48.69656" lon="1.75892">
        <ele>165.60000610352</ele>
        <time>2012-03-08T10:16:39.000Z</time>
      </trkpt>
      <trkpt lat="48.69653" lon="1.75879">
        <ele>164.80000305176</ele>
        <time>2012-03-08T10:16:46.000Z</time>
      </trkpt>
      <trkpt lat="48.69652" lon="1.75876">
        <ele>164.60000610352</ele>
        <time>2012-03-08T10:16:48.000Z</time>
      </trkpt>
      <trkpt lat="48.69652" lon="1.75872">
        <ele>164.39999389648</ele>
        <time>2012-03-08T10:16:53.000Z</time>
      </trkpt>
      <trkpt lat="48.69649" lon="1.75873">
        <ele>164.60000610352</ele>
        <time>2012-03-08T10:16:58.000Z</time>
      </trkpt>
      <trkpt lat="48.69648" lon="1.75874">
        <ele>164.80000305176</ele>
        <time>2012-03-08T10:16:59.000Z</time>
      </trkpt>
      <trkpt lat="48.69637" lon="1.75873">
        <ele>165.19999694824</ele>
        <time>2012-03-08T10:17:06.000Z</time>
      </trkpt>
      <trkpt lat="48.69627" lon="1.75867">
        <ele>165.19999694824</ele>
        <time>2012-03-08T10:17:13.000Z</time>
      </trkpt>
      <trkpt lat="48.69618" lon="1.75864">
        <ele>165.39999389648</ele>
        <time>2012-03-08T10:17:20.000Z</time>
      </trkpt>
      <trkpt lat="48.69607" lon="1.75859">
        <ele>165.80000305176</ele>
        <time>2012-03-08T10:17:28.000Z</time>
      </trkpt>
      <trkpt lat="48.69598" lon="1.75857">
        <ele>166.19999694824</ele>
        <time>2012-03-08T10:17:35.000Z</time>
      </trkpt>
      <trkpt lat="48.69586" lon="1.75853">
        <ele>166.60000610352</ele>
        <time>2012-03-08T10:17:43.000Z</time>
      </trkpt>
      <trkpt lat="48.69576" lon="1.75852">
        <ele>166.60000610352</ele>
        <time>2012-03-08T10:17:50.000Z</time>
      </trkpt>
      <trkpt lat="48.69573" lon="1.75854">
        <ele>166.60000610352</ele>
        <time>2012-03-08T10:17:52.000Z</time>
      </trkpt>
      <trkpt lat="48.69561" lon="1.75857">
        <ele>166.60000610352</ele>
        <time>2012-03-08T10:17:59.000Z</time>
      </trkpt>
      <trkpt lat="48.69551" lon="1.75862">
        <ele>166.80000305176</ele>
        <time>2012-03-08T10:18:06.000Z</time>
      </trkpt>
      <trkpt lat="48.69543" lon="1.75861">
        <ele>166.60000610352</ele>
        <time>2012-03-08T10:18:12.000Z</time>
      </trkpt>
      <trkpt lat="48.69542" lon="1.7586">
        <ele>166.60000610352</ele>
        <time>2012-03-08T10:18:15.000Z</time>
      </trkpt>
      <trkpt lat="48.69535" lon="1.75858">
        <ele>166.39999389648</ele>
        <time>2012-03-08T10:18:21.000Z</time>
      </trkpt>
      <trkpt lat="48.69531" lon="1.75858">
        <ele>166.39999389648</ele>
        <time>2012-03-08T10:18:26.000Z</time>
      </trkpt>
      <trkpt lat="48.6952" lon="1.75856">
        <ele>166.19999694824</ele>
        <time>2012-03-08T10:18:34.000Z</time>
      </trkpt>
      <trkpt lat="48.69512" lon="1.75854">
        <ele>165.80000305176</ele>
        <time>2012-03-08T10:18:41.000Z</time>
      </trkpt>
      <trkpt lat="48.69501" lon="1.75853">
        <ele>165.60000610352</ele>
        <time>2012-03-08T10:18:50.000Z</time>
      </trkpt>
      <trkpt lat="48.69491" lon="1.75852">
        <ele>165.60000610352</ele>
        <time>2012-03-08T10:18:59.000Z</time>
      </trkpt>
      <trkpt lat="48.69487" lon="1.75853">
        <ele>165.80000305176</ele>
        <time>2012-03-08T10:19:02.000Z</time>
      </trkpt>
      <trkpt lat="48.69476" lon="1.75855">
        <ele>166</ele>
        <time>2012-03-08T10:19:11.000Z</time>
      </trkpt>
      <trkpt lat="48.69465" lon="1.75855">
        <ele>166.19999694824</ele>
        <time>2012-03-08T10:19:20.000Z</time>
      </trkpt>
      <trkpt lat="48.69456" lon="1.75856">
        <ele>166.39999389648</ele>
        <time>2012-03-08T10:19:27.000Z</time>
      </trkpt>
      <trkpt lat="48.69448" lon="1.75855">
        <ele>166.39999389648</ele>
        <time>2012-03-08T10:19:35.000Z</time>
      </trkpt>
      <trkpt lat="48.69438" lon="1.75855">
        <ele>166.60000610352</ele>
        <time>2012-03-08T10:19:42.000Z</time>
      </trkpt>
      <trkpt lat="48.6943" lon="1.75854">
        <ele>166.60000610352</ele>
        <time>2012-03-08T10:19:49.000Z</time>
      </trkpt>
      <trkpt lat="48.6942" lon="1.7585">
        <ele>166.60000610352</ele>
        <time>2012-03-08T10:19:57.000Z</time>
      </trkpt>
      <trkpt lat="48.69411" lon="1.75845">
        <ele>166.39999389648</ele>
        <time>2012-03-08T10:20:04.000Z</time>
      </trkpt>
      <trkpt lat="48.69405" lon="1.7584">
        <ele>166</ele>
        <time>2012-03-08T10:20:10.000Z</time>
      </trkpt>
      <trkpt lat="48.69402" lon="1.75839">
        <ele>166</ele>
        <time>2012-03-08T10:20:12.000Z</time>
      </trkpt>
      <trkpt lat="48.69392" lon="1.75838">
        <ele>165.80000305176</ele>
        <time>2012-03-08T10:20:19.000Z</time>
      </trkpt>
      <trkpt lat="48.69388" lon="1.75839">
        <ele>165.80000305176</ele>
        <time>2012-03-08T10:20:22.000Z</time>
      </trkpt>
      <trkpt lat="48.69381" lon="1.75838">
        <ele>165.80000305176</ele>
        <time>2012-03-08T10:20:30.000Z</time>
      </trkpt>
      <trkpt lat="48.69381" lon="1.75838">
        <ele>165.80000305176</ele>
        <time>2012-03-08T10:20:31.000Z</time>
      </trkpt>
      <trkpt lat="48.69377" lon="1.75839">
        <ele>165.80000305176</ele>
        <time>2012-03-08T10:20:36.000Z</time>
      </trkpt>
      <trkpt lat="48.69374" lon="1.75838">
        <ele>165.60000610352</ele>
        <time>2012-03-08T10:20:37.000Z</time>
      </trkpt>
      <trkpt lat="48.69368" lon="1.75836">
        <ele>165.60000610352</ele>
        <time>2012-03-08T10:20:42.000Z</time>
      </trkpt>
      <trkpt lat="48.69364" lon="1.75835">
        <ele>165.39999389648</ele>
        <time>2012-03-08T10:20:45.000Z</time>
      </trkpt>
      <trkpt lat="48.69357" lon="1.75832">
        <ele>165.19999694824</ele>
        <time>2012-03-08T10:20:52.000Z</time>
      </trkpt>
      <trkpt lat="48.69349" lon="1.75831">
        <ele>165.19999694824</ele>
        <time>2012-03-08T10:20:57.000Z</time>
      </trkpt>
      <trkpt lat="48.69344" lon="1.7583">
        <ele>165</ele>
        <time>2012-03-08T10:21:01.000Z</time>
      </trkpt>
      <trkpt lat="48.69333" lon="1.75826">
        <ele>165</ele>
        <time>2012-03-08T10:21:09.000Z</time>
      </trkpt>
      <trkpt lat="48.69321" lon="1.75823">
        <ele>164.60000610352</ele>
        <time>2012-03-08T10:21:18.000Z</time>
      </trkpt>
      <trkpt lat="48.69311" lon="1.7582">
        <ele>164.39999389648</ele>
        <time>2012-03-08T10:21:26.000Z</time>
      </trkpt>
      <trkpt lat="48.693" lon="1.7582">
        <ele>164.39999389648</ele>
        <time>2012-03-08T10:21:34.000Z</time>
      </trkpt>
      <trkpt lat="48.69291" lon="1.75822">
        <ele>164.19999694824</ele>
        <time>2012-03-08T10:21:41.000Z</time>
      </trkpt>
      <trkpt lat="48.69283" lon="1.75828">
        <ele>164.19999694824</ele>
        <time>2012-03-08T10:21:47.000Z</time>
      </trkpt>
      <trkpt lat="48.69276" lon="1.75837">
        <ele>164.60000610352</ele>
        <time>2012-03-08T10:21:53.000Z</time>
      </trkpt>
      <trkpt lat="48.69274" lon="1.75838">
        <ele>164.60000610352</ele>
        <time>2012-03-08T10:21:54.000Z</time>
      </trkpt>
      <trkpt lat="48.69266" lon="1.75847">
        <ele>165</ele>
        <time>2012-03-08T10:22:01.000Z</time>
      </trkpt>
      <trkpt lat="48.69263" lon="1.75849">
        <ele>165</ele>
        <time>2012-03-08T10:22:03.000Z</time>
      </trkpt>
      <trkpt lat="48.69262" lon="1.7585">
        <ele>165</ele>
        <time>2012-03-08T10:22:06.000Z</time>
      </trkpt>
      <trkpt lat="48.6926" lon="1.75851">
        <ele>165.19999694824</ele>
        <time>2012-03-08T10:22:07.000Z</time>
      </trkpt>
      <trkpt lat="48.69255" lon="1.75862">
        <ele>165.80000305176</ele>
        <time>2012-03-08T10:22:12.000Z</time>
      </trkpt>
      <trkpt lat="48.6925" lon="1.75873">
        <ele>166.39999389648</ele>
        <time>2012-03-08T10:22:19.000Z</time>
      </trkpt>
      <trkpt lat="48.69248" lon="1.75876">
        <ele>166.60000610352</ele>
        <time>2012-03-08T10:22:22.000Z</time>
      </trkpt>
      <trkpt lat="48.69243" lon="1.75881">
        <ele>166.80000305176</ele>
        <time>2012-03-08T10:22:28.000Z</time>
      </trkpt>
      <trkpt lat="48.69242" lon="1.75889">
        <ele>167.39999389648</ele>
        <time>2012-03-08T10:22:32.000Z</time>
      </trkpt>
      <trkpt lat="48.69243" lon="1.75891">
        <ele>167.39999389648</ele>
        <time>2012-03-08T10:22:33.000Z</time>
      </trkpt>
      <trkpt lat="48.69245" lon="1.75897">
        <ele>167.80000305176</ele>
        <time>2012-03-08T10:22:36.000Z</time>
      </trkpt>
      <trkpt lat="48.69248" lon="1.75907">
        <ele>168.39999389648</ele>
        <time>2012-03-08T10:22:41.000Z</time>
      </trkpt>
      <trkpt lat="48.69248" lon="1.75916">
        <ele>169</ele>
        <time>2012-03-08T10:22:45.000Z</time>
      </trkpt>
      <trkpt lat="48.6924" lon="1.75931">
        <ele>169.80000305176</ele>
        <time>2012-03-08T10:22:52.000Z</time>
      </trkpt>
      <trkpt lat="48.69238" lon="1.75935">
        <ele>170</ele>
        <time>2012-03-08T10:22:54.000Z</time>
      </trkpt>
      <trkpt lat="48.69237" lon="1.75941">
        <ele>170.19999694824</ele>
        <time>2012-03-08T10:22:59.000Z</time>
      </trkpt>
      <trkpt lat="48.69235" lon="1.75951">
        <ele>170.80000305176</ele>
        <time>2012-03-08T10:23:04.000Z</time>
      </trkpt>
      <trkpt lat="48.69236" lon="1.7596">
        <ele>171.39999389648</ele>
        <time>2012-03-08T10:23:08.000Z</time>
      </trkpt>
      <trkpt lat="48.69239" lon="1.75965">
        <ele>171.80000305176</ele>
        <time>2012-03-08T10:23:12.000Z</time>
      </trkpt>
      <trkpt lat="48.69242" lon="1.7597">
        <ele>172</ele>
        <time>2012-03-08T10:23:15.000Z</time>
      </trkpt>
      <trkpt lat="48.69241" lon="1.75978">
        <ele>172.60000610352</ele>
        <time>2012-03-08T10:23:19.000Z</time>
      </trkpt>
      <trkpt lat="48.69241" lon="1.75987">
        <ele>173</ele>
        <time>2012-03-08T10:23:24.000Z</time>
      </trkpt>
      <trkpt lat="48.69239" lon="1.75999">
        <ele>173.60000610352</ele>
        <time>2012-03-08T10:23:31.000Z</time>
      </trkpt>
      <trkpt lat="48.69235" lon="1.76013">
        <ele>174.39999389648</ele>
        <time>2012-03-08T10:23:38.000Z</time>
      </trkpt>
      <trkpt lat="48.69235" lon="1.7602">
        <ele>174.80000305176</ele>
        <time>2012-03-08T10:23:41.000Z</time>
      </trkpt>
      <trkpt lat="48.69238" lon="1.76032">
        <ele>175.60000610352</ele>
        <time>2012-03-08T10:23:46.000Z</time>
      </trkpt>
      <trkpt lat="48.69239" lon="1.7604">
        <ele>176.19999694824</ele>
        <time>2012-03-08T10:23:51.000Z</time>
      </trkpt>
      <trkpt lat="48.69239" lon="1.76043">
        <ele>176.19999694824</ele>
        <time>2012-03-08T10:23:52.000Z</time>
      </trkpt>
      <trkpt lat="48.69238" lon="1.76048">
        <ele>176.39999389648</ele>
        <time>2012-03-08T10:23:54.000Z</time>
      </trkpt>
      <trkpt lat="48.69237" lon="1.76061">
        <ele>177.19999694824</ele>
        <time>2012-03-08T10:24:00.000Z</time>
      </trkpt>
      <trkpt lat="48.69235" lon="1.76075">
        <ele>178</ele>
        <time>2012-03-08T10:24:06.000Z</time>
      </trkpt>
      <trkpt lat="48.69234" lon="1.76084">
        <ele>178.39999389648</ele>
        <time>2012-03-08T10:24:11.000Z</time>
      </trkpt>
      <trkpt lat="48.69232" lon="1.76092">
        <ele>178.60000610352</ele>
        <time>2012-03-08T10:24:16.000Z</time>
      </trkpt>
      <trkpt lat="48.69229" lon="1.76099">
        <ele>178.80000305176</ele>
        <time>2012-03-08T10:24:20.000Z</time>
      </trkpt>
      <trkpt lat="48.69227" lon="1.76109">
        <ele>179.19999694824</ele>
        <time>2012-03-08T10:24:27.000Z</time>
      </trkpt>
      <trkpt lat="48.69223" lon="1.76123">
        <ele>179.60000610352</ele>
        <time>2012-03-08T10:24:33.000Z</time>
      </trkpt>
      <trkpt lat="48.69224" lon="1.76128">
        <ele>179.80000305176</ele>
        <time>2012-03-08T10:24:36.000Z</time>
      </trkpt>
      <trkpt lat="48.69222" lon="1.76142">
        <ele>180.39999389648</ele>
        <time>2012-03-08T10:24:43.000Z</time>
      </trkpt>
      <trkpt lat="48.69222" lon="1.76144">
        <ele>180.39999389648</ele>
        <time>2012-03-08T10:24:44.000Z</time>
      </trkpt>
      <trkpt lat="48.69222" lon="1.76158">
        <ele>181</ele>
        <time>2012-03-08T10:24:50.000Z</time>
      </trkpt>
      <trkpt lat="48.6922" lon="1.76165">
        <ele>181.19999694824</ele>
        <time>2012-03-08T10:24:53.000Z</time>
      </trkpt>
      <trkpt lat="48.69217" lon="1.76182">
        <ele>181.39999389648</ele>
        <time>2012-03-08T10:25:01.000Z</time>
      </trkpt>
      <trkpt lat="48.69216" lon="1.76187">
        <ele>181.39999389648</ele>
        <time>2012-03-08T10:25:04.000Z</time>
      </trkpt>
      <trkpt lat="48.69211" lon="1.76198">
        <ele>181.60000610352</ele>
        <time>2012-03-08T10:25:09.000Z</time>
      </trkpt>
      <trkpt lat="48.69209" lon="1.76209">
        <ele>181.80000305176</ele>
        <time>2012-03-08T10:25:14.000Z</time>
      </trkpt>
      <trkpt lat="48.69207" lon="1.76216">
        <ele>181.80000305176</ele>
        <time>2012-03-08T10:25:18.000Z</time>
      </trkpt>
      <trkpt lat="48.69203" lon="1.76231">
        <ele>182.19999694824</ele>
        <time>2012-03-08T10:25:25.000Z</time>
      </trkpt>
      <trkpt lat="48.69202" lon="1.76246">
        <ele>182.39999389648</ele>
        <time>2012-03-08T10:25:33.000Z</time>
      </trkpt>
      <trkpt lat="48.69201" lon="1.76254">
        <ele>182.60000610352</ele>
        <time>2012-03-08T10:25:38.000Z</time>
      </trkpt>
      <trkpt lat="48.69197" lon="1.76267">
        <ele>182.39999389648</ele>
        <time>2012-03-08T10:25:44.000Z</time>
      </trkpt>
      <trkpt lat="48.6919" lon="1.76269">
        <ele>182.39999389648</ele>
        <time>2012-03-08T10:25:50.000Z</time>
      </trkpt>
      <trkpt lat="48.69186" lon="1.76268">
        <ele>182.60000610352</ele>
        <time>2012-03-08T10:25:53.000Z</time>
      </trkpt>
      <trkpt lat="48.69175" lon="1.76263">
        <ele>182.80000305176</ele>
        <time>2012-03-08T10:26:01.000Z</time>
      </trkpt>
      <trkpt lat="48.69163" lon="1.76256">
        <ele>183</ele>
        <time>2012-03-08T10:26:10.000Z</time>
      </trkpt>
      <trkpt lat="48.69152" lon="1.76248">
        <ele>183.19999694824</ele>
        <time>2012-03-08T10:26:18.000Z</time>
      </trkpt>
      <trkpt lat="48.69142" lon="1.76245">
        <ele>183.19999694824</ele>
        <time>2012-03-08T10:26:25.000Z</time>
      </trkpt>
      <trkpt lat="48.69128" lon="1.76236">
        <ele>183</ele>
        <time>2012-03-08T10:26:34.000Z</time>
      </trkpt>
      <trkpt lat="48.6912" lon="1.76229">
        <ele>183</ele>
        <time>2012-03-08T10:26:40.000Z</time>
      </trkpt>
      <trkpt lat="48.69117" lon="1.76228">
        <ele>183</ele>
        <time>2012-03-08T10:26:42.000Z</time>
      </trkpt>
      <trkpt lat="48.69108" lon="1.76222">
        <ele>183</ele>
        <time>2012-03-08T10:26:50.000Z</time>
      </trkpt>
      <trkpt lat="48.69098" lon="1.76214">
        <ele>183</ele>
        <time>2012-03-08T10:26:58.000Z</time>
      </trkpt>
      <trkpt lat="48.69091" lon="1.7621">
        <ele>183</ele>
        <time>2012-03-08T10:27:03.000Z</time>
      </trkpt>
      <trkpt lat="48.6908" lon="1.76204">
        <ele>183</ele>
        <time>2012-03-08T10:27:12.000Z</time>
      </trkpt>
      <trkpt lat="48.69067" lon="1.76198">
        <ele>182.80000305176</ele>
        <time>2012-03-08T10:27:21.000Z</time>
      </trkpt>
      <trkpt lat="48.6906" lon="1.76195">
        <ele>182.80000305176</ele>
        <time>2012-03-08T10:27:27.000Z</time>
      </trkpt>
      <trkpt lat="48.6905" lon="1.76188">
        <ele>182.80000305176</ele>
        <time>2012-03-08T10:27:34.000Z</time>
      </trkpt>
      <trkpt lat="48.69042" lon="1.76185">
        <ele>182.80000305176</ele>
        <time>2012-03-08T10:27:40.000Z</time>
      </trkpt>
      <trkpt lat="48.69034" lon="1.76179">
        <ele>182.80000305176</ele>
        <time>2012-03-08T10:27:46.000Z</time>
      </trkpt>
      <trkpt lat="48.6903" lon="1.76176">
        <ele>182.80000305176</ele>
        <time>2012-03-08T10:27:50.000Z</time>
      </trkpt>
      <trkpt lat="48.69024" lon="1.76172">
        <ele>182.80000305176</ele>
        <time>2012-03-08T10:27:54.000Z</time>
      </trkpt>
      <trkpt lat="48.69014" lon="1.76167">
        <ele>182.80000305176</ele>
        <time>2012-03-08T10:28:01.000Z</time>
      </trkpt>
      <trkpt lat="48.69009" lon="1.76165">
        <ele>182.80000305176</ele>
        <time>2012-03-08T10:28:04.000Z</time>
      </trkpt>
      <trkpt lat="48.69005" lon="1.76165">
        <ele>183</ele>
        <time>2012-03-08T10:28:08.000Z</time>
      </trkpt>
      <trkpt lat="48.68999" lon="1.76161">
        <ele>182.80000305176</ele>
        <time>2012-03-08T10:28:14.000Z</time>
      </trkpt>
      <trkpt lat="48.68993" lon="1.76159">
        <ele>182.19999694824</ele>
        <time>2012-03-08T10:28:18.000Z</time>
      </trkpt>
      <trkpt lat="48.68985" lon="1.76156">
        <ele>181.39999389648</ele>
        <time>2012-03-08T10:28:23.000Z</time>
      </trkpt>
      <trkpt lat="48.68979" lon="1.76154">
        <ele>181</ele>
        <time>2012-03-08T10:28:29.000Z</time>
      </trkpt>
      <trkpt lat="48.68977" lon="1.76152">
        <ele>180.60000610352</ele>
        <time>2012-03-08T10:28:31.000Z</time>
      </trkpt>
      <trkpt lat="48.6897" lon="1.76148">
        <ele>179.80000305176</ele>
        <time>2012-03-08T10:28:36.000Z</time>
      </trkpt>
      <trkpt lat="48.68966" lon="1.76144">
        <ele>179.39999389648</ele>
        <time>2012-03-08T10:28:40.000Z</time>
      </trkpt>
      <trkpt lat="48.68962" lon="1.76138">
        <ele>178.80000305176</ele>
        <time>2012-03-08T10:28:44.000Z</time>
      </trkpt>
      <trkpt lat="48.68961" lon="1.76136">
        <ele>178.80000305176</ele>
        <time>2012-03-08T10:28:46.000Z</time>
      </trkpt>
      <trkpt lat="48.68956" lon="1.76134">
        <ele>178.19999694824</ele>
        <time>2012-03-08T10:28:50.000Z</time>
      </trkpt>
      <trkpt lat="48.68952" lon="1.76131">
        <ele>177.60000610352</ele>
        <time>2012-03-08T10:28:55.000Z</time>
      </trkpt>
      <trkpt lat="48.68951" lon="1.7613">
        <ele>177.39999389648</ele>
        <time>2012-03-08T10:28:57.000Z</time>
      </trkpt>
      <trkpt lat="48.68944" lon="1.7613">
        <ele>176.80000305176</ele>
        <time>2012-03-08T10:29:04.000Z</time>
      </trkpt>
      <trkpt lat="48.68942" lon="1.76129">
        <ele>176.39999389648</ele>
        <time>2012-03-08T10:29:06.000Z</time>
      </trkpt>
      <trkpt lat="48.68932" lon="1.76126">
        <ele>175.39999389648</ele>
        <time>2012-03-08T10:29:11.000Z</time>
      </trkpt>
      <trkpt lat="48.68926" lon="1.76129">
        <ele>174.60000610352</ele>
        <time>2012-03-08T10:29:16.000Z</time>
      </trkpt>
      <trkpt lat="48.68922" lon="1.76128">
        <ele>174.19999694824</ele>
        <time>2012-03-08T10:29:18.000Z</time>
      </trkpt>
      <trkpt lat="48.68912" lon="1.76125">
        <ele>173.19999694824</ele>
        <time>2012-03-08T10:29:25.000Z</time>
      </trkpt>
      <trkpt lat="48.68904" lon="1.76123">
        <ele>172.60000610352</ele>
        <time>2012-03-08T10:29:31.000Z</time>
      </trkpt>
      <trkpt lat="48.689" lon="1.76121">
        <ele>172.39999389648</ele>
        <time>2012-03-08T10:29:34.000Z</time>
      </trkpt>
      <trkpt lat="48.68893" lon="1.76117">
        <ele>171.80000305176</ele>
        <time>2012-03-08T10:29:42.000Z</time>
      </trkpt>
      <trkpt lat="48.68892" lon="1.76111">
        <ele>171.39999389648</ele>
        <time>2012-03-08T10:29:52.000Z</time>
      </trkpt>
      <trkpt lat="48.68887" lon="1.76107">
        <ele>171</ele>
        <time>2012-03-08T10:30:01.000Z</time>
      </trkpt>
      <trkpt lat="48.68878" lon="1.76111">
        <ele>170.60000610352</ele>
        <time>2012-03-08T10:30:06.000Z</time>
      </trkpt>
      <trkpt lat="48.6887" lon="1.76111">
        <ele>170.19999694824</ele>
        <time>2012-03-08T10:30:12.000Z</time>
      </trkpt>
      <trkpt lat="48.68863" lon="1.7611">
        <ele>169.80000305176</ele>
        <time>2012-03-08T10:30:18.000Z</time>
      </trkpt>
      <trkpt lat="48.68852" lon="1.76105">
        <ele>169</ele>
        <time>2012-03-08T10:30:26.000Z</time>
      </trkpt>
      <trkpt lat="48.68842" lon="1.76101">
        <ele>168.19999694824</ele>
        <time>2012-03-08T10:30:34.000Z</time>
      </trkpt>
      <trkpt lat="48.68833" lon="1.76098">
        <ele>167.60000610352</ele>
        <time>2012-03-08T10:30:41.000Z</time>
      </trkpt>
      <trkpt lat="48.68824" lon="1.76094">
        <ele>167</ele>
        <time>2012-03-08T10:30:48.000Z</time>
      </trkpt>
      <trkpt lat="48.68814" lon="1.76089">
        <ele>166.39999389648</ele>
        <time>2012-03-08T10:30:56.000Z</time>
      </trkpt>
      <trkpt lat="48.68805" lon="1.76081">
        <ele>166</ele>
        <time>2012-03-08T10:31:04.000Z</time>
      </trkpt>
      <trkpt lat="48.68797" lon="1.76079">
        <ele>165.60000610352</ele>
        <time>2012-03-08T10:31:10.000Z</time>
      </trkpt>
      <trkpt lat="48.68796" lon="1.76078">
        <ele>165.60000610352</ele>
        <time>2012-03-08T10:31:11.000Z</time>
      </trkpt>
      <trkpt lat="48.68784" lon="1.7608">
        <ele>165.19999694824</ele>
        <time>2012-03-08T10:31:18.000Z</time>
      </trkpt>
      <trkpt lat="48.6878" lon="1.76078">
        <ele>165</ele>
        <time>2012-03-08T10:31:21.000Z</time>
      </trkpt>
      <trkpt lat="48.68773" lon="1.76072">
        <ele>164.60000610352</ele>
        <time>2012-03-08T10:31:27.000Z</time>
      </trkpt>
      <trkpt lat="48.6877" lon="1.7607">
        <ele>164.60000610352</ele>
        <time>2012-03-08T10:31:30.000Z</time>
      </trkpt>
      <trkpt lat="48.68762" lon="1.76067">
        <ele>164.19999694824</ele>
        <time>2012-03-08T10:31:37.000Z</time>
      </trkpt>
      <trkpt lat="48.68754" lon="1.76064">
        <ele>164</ele>
        <time>2012-03-08T10:31:42.000Z</time>
      </trkpt>
      <trkpt lat="48.68746" lon="1.76059">
        <ele>163.39999389648</ele>
        <time>2012-03-08T10:31:49.000Z</time>
      </trkpt>
      <trkpt lat="48.68735" lon="1.76057">
        <ele>162.80000305176</ele>
        <time>2012-03-08T10:31:57.000Z</time>
      </trkpt>
      <trkpt lat="48.68725" lon="1.76055">
        <ele>162.19999694824</ele>
        <time>2012-03-08T10:32:04.000Z</time>
      </trkpt>
      <trkpt lat="48.68714" lon="1.76051">
        <ele>161.60000610352</ele>
        <time>2012-03-08T10:32:12.000Z</time>
      </trkpt>
      <trkpt lat="48.68705" lon="1.76046">
        <ele>161</ele>
        <time>2012-03-08T10:32:19.000Z</time>
      </trkpt>
      <trkpt lat="48.68695" lon="1.76045">
        <ele>160.60000610352</ele>
        <time>2012-03-08T10:32:25.000Z</time>
      </trkpt>
      <trkpt lat="48.68686" lon="1.76042">
        <ele>160</ele>
        <time>2012-03-08T10:32:31.000Z</time>
      </trkpt>
      <trkpt lat="48.68679" lon="1.76038">
        <ele>159.80000305176</ele>
        <time>2012-03-08T10:32:36.000Z</time>
      </trkpt>
      <trkpt lat="48.68674" lon="1.76035">
        <ele>159.60000610352</ele>
        <time>2012-03-08T10:32:40.000Z</time>
      </trkpt>
      <trkpt lat="48.68666" lon="1.76032">
        <ele>159.19999694824</ele>
        <time>2012-03-08T10:32:46.000Z</time>
      </trkpt>
      <trkpt lat="48.68664" lon="1.76033">
        <ele>159</ele>
        <time>2012-03-08T10:32:50.000Z</time>
      </trkpt>
      <trkpt lat="48.68662" lon="1.7603">
        <ele>159</ele>
        <time>2012-03-08T10:32:55.000Z</time>
      </trkpt>
      <trkpt lat="48.68653" lon="1.76027">
        <ele>158.39999389648</ele>
        <time>2012-03-08T10:33:02.000Z</time>
      </trkpt>
      <trkpt lat="48.68641" lon="1.76028">
        <ele>157.39999389648</ele>
        <time>2012-03-08T10:33:10.000Z</time>
      </trkpt>
      <trkpt lat="48.68632" lon="1.76023">
        <ele>156.80000305176</ele>
        <time>2012-03-08T10:33:16.000Z</time>
      </trkpt>
      <trkpt lat="48.68624" lon="1.76019">
        <ele>156.19999694824</ele>
        <time>2012-03-08T10:33:22.000Z</time>
      </trkpt>
      <trkpt lat="48.68615" lon="1.76015">
        <ele>155.60000610352</ele>
        <time>2012-03-08T10:33:29.000Z</time>
      </trkpt>
      <trkpt lat="48.68605" lon="1.76011">
        <ele>154.80000305176</ele>
        <time>2012-03-08T10:33:37.000Z</time>
      </trkpt>
      <trkpt lat="48.68591" lon="1.76006">
        <ele>153.60000610352</ele>
        <time>2012-03-08T10:33:47.000Z</time>
      </trkpt>
      <trkpt lat="48.68588" lon="1.76006">
        <ele>153.39999389648</ele>
        <time>2012-03-08T10:33:49.000Z</time>
      </trkpt>
      <trkpt lat="48.68577" lon="1.76003">
        <ele>152.80000305176</ele>
        <time>2012-03-08T10:33:56.000Z</time>
      </trkpt>
      <trkpt lat="48.68576" lon="1.76003">
        <ele>152.80000305176</ele>
        <time>2012-03-08T10:33:57.000Z</time>
      </trkpt>
      <trkpt lat="48.68572" lon="1.76001">
        <ele>152.60000610352</ele>
        <time>2012-03-08T10:34:02.000Z</time>
      </trkpt>
      <trkpt lat="48.68568" lon="1.75986">
        <ele>152.39999389648</ele>
        <time>2012-03-08T10:34:21.000Z</time>
      </trkpt>
      <trkpt lat="48.68567" lon="1.7598">
        <ele>152.39999389648</ele>
        <time>2012-03-08T10:34:23.000Z</time>
      </trkpt>
      <trkpt lat="48.68565" lon="1.75962">
        <ele>152.19999694824</ele>
        <time>2012-03-08T10:34:31.000Z</time>
      </trkpt>
      <trkpt lat="48.68565" lon="1.7596">
        <ele>152.19999694824</ele>
        <time>2012-03-08T10:34:32.000Z</time>
      </trkpt>
      <trkpt lat="48.68563" lon="1.75949">
        <ele>152.19999694824</ele>
        <time>2012-03-08T10:34:38.000Z</time>
      </trkpt>
      <trkpt lat="48.68563" lon="1.75947">
        <ele>152.19999694824</ele>
        <time>2012-03-08T10:34:39.000Z</time>
      </trkpt>
      <trkpt lat="48.68561" lon="1.75936">
        <ele>152</ele>
        <time>2012-03-08T10:34:45.000Z</time>
      </trkpt>
      <trkpt lat="48.68561" lon="1.75926">
        <ele>152</ele>
        <time>2012-03-08T10:34:50.000Z</time>
      </trkpt>
      <trkpt lat="48.6856" lon="1.75923">
        <ele>151.80000305176</ele>
        <time>2012-03-08T10:34:52.000Z</time>
      </trkpt>
      <trkpt lat="48.6856" lon="1.75921">
        <ele>151.80000305176</ele>
        <time>2012-03-08T10:34:55.000Z</time>
      </trkpt>
      <trkpt lat="48.68557" lon="1.75895">
        <ele>152.19999694824</ele>
        <time>2012-03-08T10:36:57.000Z</time>
      </trkpt>
      <trkpt lat="48.68555" lon="1.75882">
        <ele>152.39999389648</ele>
        <time>2012-03-08T10:37:03.000Z</time>
      </trkpt>
      <trkpt lat="48.68554" lon="1.75871">
        <ele>152.60000610352</ele>
        <time>2012-03-08T10:37:09.000Z</time>
      </trkpt>
      <trkpt lat="48.68553" lon="1.75869">
        <ele>152.60000610352</ele>
        <time>2012-03-08T10:37:10.000Z</time>
      </trkpt>
      <trkpt lat="48.68551" lon="1.75853">
        <ele>152.80000305176</ele>
        <time>2012-03-08T10:37:18.000Z</time>
      </trkpt>
      <trkpt lat="48.68551" lon="1.75849">
        <ele>152.80000305176</ele>
        <time>2012-03-08T10:37:20.000Z</time>
      </trkpt>
      <trkpt lat="48.68549" lon="1.75836">
        <ele>153.19999694824</ele>
        <time>2012-03-08T10:37:27.000Z</time>
      </trkpt>
      <trkpt lat="48.6855" lon="1.75829">
        <ele>153.19999694824</ele>
        <time>2012-03-08T10:37:31.000Z</time>
      </trkpt>
      <trkpt lat="48.6855" lon="1.75816">
        <ele>153.60000610352</ele>
        <time>2012-03-08T10:37:37.000Z</time>
      </trkpt>
      <trkpt lat="48.68546" lon="1.75799">
        <ele>153.80000305176</ele>
        <time>2012-03-08T10:37:43.000Z</time>
      </trkpt>
      <trkpt lat="48.68542" lon="1.75782">
        <ele>154</ele>
        <time>2012-03-08T10:37:50.000Z</time>
      </trkpt>
      <trkpt lat="48.6854" lon="1.75768">
        <ele>154.19999694824</ele>
        <time>2012-03-08T10:37:57.000Z</time>
      </trkpt>
      <trkpt lat="48.68539" lon="1.75753">
        <ele>154.39999389648</ele>
        <time>2012-03-08T10:38:04.000Z</time>
      </trkpt>
      <trkpt lat="48.68538" lon="1.75741">
        <ele>154.60000610352</ele>
        <time>2012-03-08T10:38:10.000Z</time>
      </trkpt>
      <trkpt lat="48.68538" lon="1.75734">
        <ele>154.80000305176</ele>
        <time>2012-03-08T10:38:13.000Z</time>
      </trkpt>
      <trkpt lat="48.68537" lon="1.75729">
        <ele>154.80000305176</ele>
        <time>2012-03-08T10:38:18.000Z</time>
      </trkpt>
      <trkpt lat="48.68537" lon="1.75729">
        <ele>154.80000305176</ele>
        <time>2012-03-08T10:38:21.000Z</time>
      </trkpt>
      <trkpt lat="48.68536" lon="1.75721">
        <ele>155</ele>
        <time>2012-03-08T10:38:28.000Z</time>
      </trkpt>
      <trkpt lat="48.68533" lon="1.7571">
        <ele>155.19999694824</ele>
        <time>2012-03-08T10:38:33.000Z</time>
      </trkpt>
      <trkpt lat="48.68533" lon="1.75706">
        <ele>155.19999694824</ele>
        <time>2012-03-08T10:38:35.000Z</time>
      </trkpt>
      <trkpt lat="48.68532" lon="1.75691">
        <ele>155.60000610352</ele>
        <time>2012-03-08T10:38:42.000Z</time>
      </trkpt>
      <trkpt lat="48.68532" lon="1.75689">
        <ele>155.60000610352</ele>
        <time>2012-03-08T10:38:43.000Z</time>
      </trkpt>
      <trkpt lat="48.68531" lon="1.75687">
        <ele>155.60000610352</ele>
        <time>2012-03-08T10:38:46.000Z</time>
      </trkpt>
      <trkpt lat="48.68529" lon="1.75678">
        <ele>155.80000305176</ele>
        <time>2012-03-08T10:38:51.000Z</time>
      </trkpt>
      <trkpt lat="48.68528" lon="1.75675">
        <ele>155.80000305176</ele>
        <time>2012-03-08T10:38:53.000Z</time>
      </trkpt>
      <trkpt lat="48.68526" lon="1.75669">
        <ele>155.80000305176</ele>
        <time>2012-03-08T10:38:56.000Z</time>
      </trkpt>
      <trkpt lat="48.68527" lon="1.75657">
        <ele>156</ele>
        <time>2012-03-08T10:39:03.000Z</time>
      </trkpt>
      <trkpt lat="48.68525" lon="1.75652">
        <ele>156</ele>
        <time>2012-03-08T10:39:06.000Z</time>
      </trkpt>
      <trkpt lat="48.68521" lon="1.75638">
        <ele>155.80000305176</ele>
        <time>2012-03-08T10:39:13.000Z</time>
      </trkpt>
      <trkpt lat="48.68519" lon="1.75628">
        <ele>155.80000305176</ele>
        <time>2012-03-08T10:39:18.000Z</time>
      </trkpt>
      <trkpt lat="48.68518" lon="1.75615">
        <ele>155.80000305176</ele>
        <time>2012-03-08T10:39:24.000Z</time>
      </trkpt>
      <trkpt lat="48.68516" lon="1.75602">
        <ele>155.80000305176</ele>
        <time>2012-03-08T10:39:30.000Z</time>
      </trkpt>
      <trkpt lat="48.68515" lon="1.75589">
        <ele>155.60000610352</ele>
        <time>2012-03-08T10:39:36.000Z</time>
      </trkpt>
      <trkpt lat="48.68512" lon="1.75577">
        <ele>155.80000305176</ele>
        <time>2012-03-08T10:39:41.000Z</time>
      </trkpt>
      <trkpt lat="48.68511" lon="1.75568">
        <ele>156.19999694824</ele>
        <time>2012-03-08T10:39:45.000Z</time>
      </trkpt>
      <trkpt lat="48.68511" lon="1.75554">
        <ele>156.80000305176</ele>
        <time>2012-03-08T10:39:52.000Z</time>
      </trkpt>
      <trkpt lat="48.68509" lon="1.75543">
        <ele>157.19999694824</ele>
        <time>2012-03-08T10:39:58.000Z</time>
      </trkpt>
      <trkpt lat="48.68508" lon="1.75535">
        <ele>157.39999389648</ele>
        <time>2012-03-08T10:40:03.000Z</time>
      </trkpt>
      <trkpt lat="48.68509" lon="1.75522">
        <ele>158</ele>
        <time>2012-03-08T10:40:10.000Z</time>
      </trkpt>
      <trkpt lat="48.68504" lon="1.75509">
        <ele>158.60000610352</ele>
        <time>2012-03-08T10:40:16.000Z</time>
      </trkpt>
      <trkpt lat="48.68503" lon="1.75499">
        <ele>159</ele>
        <time>2012-03-08T10:40:20.000Z</time>
      </trkpt>
      <trkpt lat="48.68501" lon="1.75483">
        <ele>160</ele>
        <time>2012-03-08T10:40:27.000Z</time>
      </trkpt>
      <trkpt lat="48.68498" lon="1.75468">
        <ele>161</ele>
        <time>2012-03-08T10:40:35.000Z</time>
      </trkpt>
      <trkpt lat="48.68496" lon="1.75455">
        <ele>161.80000305176</ele>
        <time>2012-03-08T10:40:42.000Z</time>
      </trkpt>
      <trkpt lat="48.68495" lon="1.75444">
        <ele>162.39999389648</ele>
        <time>2012-03-08T10:40:49.000Z</time>
      </trkpt>
      <trkpt lat="48.68496" lon="1.75432">
        <ele>163.19999694824</ele>
        <time>2012-03-08T10:40:56.000Z</time>
      </trkpt>
      <trkpt lat="48.68495" lon="1.75423">
        <ele>163.60000610352</ele>
        <time>2012-03-08T10:41:01.000Z</time>
      </trkpt>
      <trkpt lat="48.68492" lon="1.75414">
        <ele>164.19999694824</ele>
        <time>2012-03-08T10:41:08.000Z</time>
      </trkpt>
      <trkpt lat="48.68492" lon="1.75412">
        <ele>164.19999694824</ele>
        <time>2012-03-08T10:41:09.000Z</time>
      </trkpt>
      <trkpt lat="48.68488" lon="1.754">
        <ele>165</ele>
        <time>2012-03-08T10:41:17.000Z</time>
      </trkpt>
      <trkpt lat="48.68488" lon="1.75396">
        <ele>165.19999694824</ele>
        <time>2012-03-08T10:41:19.000Z</time>
      </trkpt>
      <trkpt lat="48.68487" lon="1.75382">
        <ele>165.80000305176</ele>
        <time>2012-03-08T10:41:26.000Z</time>
      </trkpt>
      <trkpt lat="48.68486" lon="1.75366">
        <ele>166.60000610352</ele>
        <time>2012-03-08T10:41:34.000Z</time>
      </trkpt>
      <trkpt lat="48.68485" lon="1.75355">
        <ele>167.19999694824</ele>
        <time>2012-03-08T10:41:40.000Z</time>
      </trkpt>
      <trkpt lat="48.68486" lon="1.75342">
        <ele>167.80000305176</ele>
        <time>2012-03-08T10:41:48.000Z</time>
      </trkpt>
      <trkpt lat="48.68486" lon="1.7534">
        <ele>167.80000305176</ele>
        <time>2012-03-08T10:41:49.000Z</time>
      </trkpt>
      <trkpt lat="48.68486" lon="1.7533">
        <ele>168.19999694824</ele>
        <time>2012-03-08T10:41:56.000Z</time>
      </trkpt>
      <trkpt lat="48.68483" lon="1.7532">
        <ele>168.39999389648</ele>
        <time>2012-03-08T10:42:02.000Z</time>
      </trkpt>
      <trkpt lat="48.6848" lon="1.75308">
        <ele>168.60000610352</ele>
        <time>2012-03-08T10:42:09.000Z</time>
      </trkpt>
      <trkpt lat="48.68479" lon="1.75297">
        <ele>168.60000610352</ele>
        <time>2012-03-08T10:42:15.000Z</time>
      </trkpt>
      <trkpt lat="48.68478" lon="1.75286">
        <ele>168.80000305176</ele>
        <time>2012-03-08T10:42:22.000Z</time>
      </trkpt>
      <trkpt lat="48.68477" lon="1.7527">
        <ele>169</ele>
        <time>2012-03-08T10:42:30.000Z</time>
      </trkpt>
      <trkpt lat="48.68477" lon="1.75266">
        <ele>169</ele>
        <time>2012-03-08T10:42:33.000Z</time>
      </trkpt>
      <trkpt lat="48.68479" lon="1.7526">
        <ele>169.19999694824</ele>
        <time>2012-03-08T10:42:39.000Z</time>
      </trkpt>
      <trkpt lat="48.68479" lon="1.75259">
        <ele>169.19999694824</ele>
        <time>2012-03-08T10:42:42.000Z</time>
      </trkpt>
      <trkpt lat="48.68485" lon="1.75255">
        <ele>169.19999694824</ele>
        <time>2012-03-08T10:42:52.000Z</time>
      </trkpt>
      <trkpt lat="48.68491" lon="1.75255">
        <ele>169</ele>
        <time>2012-03-08T10:42:56.000Z</time>
      </trkpt>
      <trkpt lat="48.68502" lon="1.75259">
        <ele>168.80000305176</ele>
        <time>2012-03-08T10:43:04.000Z</time>
      </trkpt>
      <trkpt lat="48.6851" lon="1.75269">
        <ele>167.80000305176</ele>
        <time>2012-03-08T10:43:11.000Z</time>
      </trkpt>
      <trkpt lat="48.68521" lon="1.75274">
        <ele>166.80000305176</ele>
        <time>2012-03-08T10:43:18.000Z</time>
      </trkpt>
      <trkpt lat="48.68531" lon="1.75276">
        <ele>165.80000305176</ele>
        <time>2012-03-08T10:43:24.000Z</time>
      </trkpt>
      <trkpt lat="48.68545" lon="1.75274">
        <ele>164.60000610352</ele>
        <time>2012-03-08T10:43:33.000Z</time>
      </trkpt>
      <trkpt lat="48.68548" lon="1.75274">
        <ele>164.19999694824</ele>
        <time>2012-03-08T10:43:35.000Z</time>
      </trkpt>
      <trkpt lat="48.68555" lon="1.75269">
        <ele>163.60000610352</ele>
        <time>2012-03-08T10:43:41.000Z</time>
      </trkpt>
      <trkpt lat="48.68561" lon="1.75261">
        <ele>163.19999694824</ele>
        <time>2012-03-08T10:43:48.000Z</time>
      </trkpt>
      <trkpt lat="48.6857" lon="1.7525">
        <ele>162.39999389648</ele>
        <time>2012-03-08T10:43:55.000Z</time>
      </trkpt>
      <trkpt lat="48.68579" lon="1.75249">
        <ele>161.39999389648</ele>
        <time>2012-03-08T10:44:00.000Z</time>
      </trkpt>
      <trkpt lat="48.6859" lon="1.75241">
        <ele>161</ele>
        <time>2012-03-08T10:44:08.000Z</time>
      </trkpt>
      <trkpt lat="48.68598" lon="1.75227">
        <ele>161.19999694824</ele>
        <time>2012-03-08T10:44:16.000Z</time>
      </trkpt>
      <trkpt lat="48.68603" lon="1.75212">
        <ele>161.39999389648</ele>
        <time>2012-03-08T10:44:24.000Z</time>
      </trkpt>
      <trkpt lat="48.68604" lon="1.75196">
        <ele>161.60000610352</ele>
        <time>2012-03-08T10:44:31.000Z</time>
      </trkpt>
      <trkpt lat="48.68608" lon="1.75183">
        <ele>161.80000305176</ele>
        <time>2012-03-08T10:44:38.000Z</time>
      </trkpt>
      <trkpt lat="48.68613" lon="1.75172">
        <ele>161.80000305176</ele>
        <time>2012-03-08T10:44:45.000Z</time>
      </trkpt>
      <trkpt lat="48.68622" lon="1.75157">
        <ele>161.60000610352</ele>
        <time>2012-03-08T10:44:54.000Z</time>
      </trkpt>
      <trkpt lat="48.68631" lon="1.75147">
        <ele>161.19999694824</ele>
        <time>2012-03-08T10:45:02.000Z</time>
      </trkpt>
      <trkpt lat="48.68638" lon="1.75136">
        <ele>161</ele>
        <time>2012-03-08T10:45:09.000Z</time>
      </trkpt>
      <trkpt lat="48.68647" lon="1.75125">
        <ele>160.80000305176</ele>
        <time>2012-03-08T10:45:16.000Z</time>
      </trkpt>
      <trkpt lat="48.68653" lon="1.75117">
        <ele>160.39999389648</ele>
        <time>2012-03-08T10:45:22.000Z</time>
      </trkpt>
      <trkpt lat="48.68654" lon="1.75104">
        <ele>160.39999389648</ele>
        <time>2012-03-08T10:45:29.000Z</time>
      </trkpt>
      <trkpt lat="48.68656" lon="1.75089">
        <ele>160.39999389648</ele>
        <time>2012-03-08T10:45:36.000Z</time>
      </trkpt>
      <trkpt lat="48.68658" lon="1.75072">
        <ele>160.39999389648</ele>
        <time>2012-03-08T10:45:44.000Z</time>
      </trkpt>
      <trkpt lat="48.68659" lon="1.75069">
        <ele>160.39999389648</ele>
        <time>2012-03-08T10:45:46.000Z</time>
      </trkpt>
      <trkpt lat="48.6866" lon="1.75066">
        <ele>160.39999389648</ele>
        <time>2012-03-08T10:45:49.000Z</time>
      </trkpt>
      <trkpt lat="48.68664" lon="1.75061">
        <ele>160.39999389648</ele>
        <time>2012-03-08T10:45:53.000Z</time>
      </trkpt>
      <trkpt lat="48.68669" lon="1.75052">
        <ele>160.19999694824</ele>
        <time>2012-03-08T10:45:59.000Z</time>
      </trkpt>
      <trkpt lat="48.68679" lon="1.75038">
        <ele>159.80000305176</ele>
        <time>2012-03-08T10:46:08.000Z</time>
      </trkpt>
      <trkpt lat="48.68679" lon="1.75036">
        <ele>159.80000305176</ele>
        <time>2012-03-08T10:46:09.000Z</time>
      </trkpt>
      <trkpt lat="48.6868" lon="1.75025">
        <ele>160</ele>
        <time>2012-03-08T10:46:15.000Z</time>
      </trkpt>
      <trkpt lat="48.68679" lon="1.75024">
        <ele>160</ele>
        <time>2012-03-08T10:46:18.000Z</time>
      </trkpt>
      <trkpt lat="48.68682" lon="1.75015">
        <ele>160</ele>
        <time>2012-03-08T10:46:27.000Z</time>
      </trkpt>
      <trkpt lat="48.68687" lon="1.75001">
        <ele>159.80000305176</ele>
        <time>2012-03-08T10:46:32.000Z</time>
      </trkpt>
      <trkpt lat="48.68693" lon="1.74994">
        <ele>159.60000610352</ele>
        <time>2012-03-08T10:46:37.000Z</time>
      </trkpt>
      <trkpt lat="48.68694" lon="1.74994">
        <ele>159.60000610352</ele>
        <time>2012-03-08T10:46:38.000Z</time>
      </trkpt>
      <trkpt lat="48.68705" lon="1.74991">
        <ele>159</ele>
        <time>2012-03-08T10:46:45.000Z</time>
      </trkpt>
      <trkpt lat="48.6871" lon="1.74988">
        <ele>158.80000305176</ele>
        <time>2012-03-08T10:46:49.000Z</time>
      </trkpt>
      <trkpt lat="48.68716" lon="1.74979">
        <ele>158.39999389648</ele>
        <time>2012-03-08T10:46:55.000Z</time>
      </trkpt>
      <trkpt lat="48.68717" lon="1.74977">
        <ele>158.39999389648</ele>
        <time>2012-03-08T10:46:56.000Z</time>
      </trkpt>
      <trkpt lat="48.68721" lon="1.74968">
        <ele>158.39999389648</ele>
        <time>2012-03-08T10:47:00.000Z</time>
      </trkpt>
      <trkpt lat="48.68728" lon="1.74959">
        <ele>158</ele>
        <time>2012-03-08T10:47:07.000Z</time>
      </trkpt>
      <trkpt lat="48.68737" lon="1.74958">
        <ele>157.39999389648</ele>
        <time>2012-03-08T10:47:13.000Z</time>
      </trkpt>
      <trkpt lat="48.68745" lon="1.74963">
        <ele>156.80000305176</ele>
        <time>2012-03-08T10:47:19.000Z</time>
      </trkpt>
      <trkpt lat="48.68746" lon="1.74963">
        <ele>156.80000305176</ele>
        <time>2012-03-08T10:47:20.000Z</time>
      </trkpt>
      <trkpt lat="48.68758" lon="1.74965">
        <ele>156.39999389648</ele>
        <time>2012-03-08T10:47:28.000Z</time>
      </trkpt>
      <trkpt lat="48.68768" lon="1.74963">
        <ele>156.19999694824</ele>
        <time>2012-03-08T10:47:33.000Z</time>
      </trkpt>
      <trkpt lat="48.68774" lon="1.74953">
        <ele>156.19999694824</ele>
        <time>2012-03-08T10:47:39.000Z</time>
      </trkpt>
      <trkpt lat="48.68782" lon="1.74943">
        <ele>156.19999694824</ele>
        <time>2012-03-08T10:47:45.000Z</time>
      </trkpt>
      <trkpt lat="48.68784" lon="1.74943">
        <ele>156.19999694824</ele>
        <time>2012-03-08T10:47:46.000Z</time>
      </trkpt>
      <trkpt lat="48.68786" lon="1.74941">
        <ele>156.19999694824</ele>
        <time>2012-03-08T10:47:48.000Z</time>
      </trkpt>
      <trkpt lat="48.68784" lon="1.74933">
        <ele>156.39999389648</ele>
        <time>2012-03-08T10:47:54.000Z</time>
      </trkpt>
      <trkpt lat="48.68778" lon="1.74927">
        <ele>156.60000610352</ele>
        <time>2012-03-08T10:48:00.000Z</time>
      </trkpt>
      <trkpt lat="48.68775" lon="1.74919">
        <ele>156.60000610352</ele>
        <time>2012-03-08T10:48:05.000Z</time>
      </trkpt>
      <trkpt lat="48.68769" lon="1.74905">
        <ele>157</ele>
        <time>2012-03-08T10:48:13.000Z</time>
      </trkpt>
      <trkpt lat="48.68761" lon="1.74897">
        <ele>157.19999694824</ele>
        <time>2012-03-08T10:48:20.000Z</time>
      </trkpt>
      <trkpt lat="48.68758" lon="1.74892">
        <ele>157.39999389648</ele>
        <time>2012-03-08T10:48:23.000Z</time>
      </trkpt>
      <trkpt lat="48.68755" lon="1.74885">
        <ele>157.60000610352</ele>
        <time>2012-03-08T10:48:29.000Z</time>
      </trkpt>
      <trkpt lat="48.68755" lon="1.74884">
        <ele>157.60000610352</ele>
        <time>2012-03-08T10:48:30.000Z</time>
      </trkpt>
      <trkpt lat="48.68753" lon="1.74876">
        <ele>158</ele>
        <time>2012-03-08T10:48:37.000Z</time>
      </trkpt>
      <trkpt lat="48.68749" lon="1.74871">
        <ele>158.19999694824</ele>
        <time>2012-03-08T10:48:42.000Z</time>
      </trkpt>
      <trkpt lat="48.68748" lon="1.74866">
        <ele>158.39999389648</ele>
        <time>2012-03-08T10:48:45.000Z</time>
      </trkpt>
      <trkpt lat="48.68745" lon="1.74853">
        <ele>159</ele>
        <time>2012-03-08T10:48:51.000Z</time>
      </trkpt>
      <trkpt lat="48.68743" lon="1.74847">
        <ele>159.19999694824</ele>
        <time>2012-03-08T10:48:55.000Z</time>
      </trkpt>
      <trkpt lat="48.68738" lon="1.74842">
        <ele>159.80000305176</ele>
        <time>2012-03-08T10:49:00.000Z</time>
      </trkpt>
      <trkpt lat="48.68731" lon="1.74834">
        <ele>160.60000610352</ele>
        <time>2012-03-08T10:49:07.000Z</time>
      </trkpt>
      <trkpt lat="48.68724" lon="1.74821">
        <ele>161.60000610352</ele>
        <time>2012-03-08T10:49:15.000Z</time>
      </trkpt>
      <trkpt lat="48.68719" lon="1.74806">
        <ele>162.80000305176</ele>
        <time>2012-03-08T10:49:24.000Z</time>
      </trkpt>
      <trkpt lat="48.68716" lon="1.74793">
        <ele>163.60000610352</ele>
        <time>2012-03-08T10:49:31.000Z</time>
      </trkpt>
      <trkpt lat="48.68716" lon="1.74791">
        <ele>163.60000610352</ele>
        <time>2012-03-08T10:49:32.000Z</time>
      </trkpt>
      <trkpt lat="48.6871" lon="1.7478">
        <ele>164.60000610352</ele>
        <time>2012-03-08T10:49:40.000Z</time>
      </trkpt>
      <trkpt lat="48.68706" lon="1.74769">
        <ele>165.39999389648</ele>
        <time>2012-03-08T10:49:47.000Z</time>
      </trkpt>
      <trkpt lat="48.68701" lon="1.74759">
        <ele>166.19999694824</ele>
        <time>2012-03-08T10:49:55.000Z</time>
      </trkpt>
      <trkpt lat="48.68695" lon="1.7475">
        <ele>167.39999389648</ele>
        <time>2012-03-08T10:50:01.000Z</time>
      </trkpt>
      <trkpt lat="48.68692" lon="1.74745">
        <ele>167.60000610352</ele>
        <time>2012-03-08T10:50:04.000Z</time>
      </trkpt>
      <trkpt lat="48.68686" lon="1.74737">
        <ele>168.39999389648</ele>
        <time>2012-03-08T10:50:10.000Z</time>
      </trkpt>
      <trkpt lat="48.68681" lon="1.74731">
        <ele>168.80000305176</ele>
        <time>2012-03-08T10:50:14.000Z</time>
      </trkpt>
      <trkpt lat="48.6868" lon="1.74729">
        <ele>168.80000305176</ele>
        <time>2012-03-08T10:50:15.000Z</time>
      </trkpt>
      <trkpt lat="48.68675" lon="1.7472">
        <ele>169.39999389648</ele>
        <time>2012-03-08T10:50:21.000Z</time>
      </trkpt>
      <trkpt lat="48.68671" lon="1.74714">
        <ele>169.60000610352</ele>
        <time>2012-03-08T10:50:25.000Z</time>
      </trkpt>
      <trkpt lat="48.6867" lon="1.74708">
        <ele>169.80000305176</ele>
        <time>2012-03-08T10:50:28.000Z</time>
      </trkpt>
      <trkpt lat="48.68666" lon="1.74695">
        <ele>170</ele>
        <time>2012-03-08T10:50:35.000Z</time>
      </trkpt>
      <trkpt lat="48.68666" lon="1.74694">
        <ele>170</ele>
        <time>2012-03-08T10:50:36.000Z</time>
      </trkpt>
      <trkpt lat="48.68659" lon="1.74681">
        <ele>170</ele>
        <time>2012-03-08T10:50:44.000Z</time>
      </trkpt>
      <trkpt lat="48.68656" lon="1.74673">
        <ele>169.80000305176</ele>
        <time>2012-03-08T10:50:49.000Z</time>
      </trkpt>
      <trkpt lat="48.68651" lon="1.74661">
        <ele>169.80000305176</ele>
        <time>2012-03-08T10:50:56.000Z</time>
      </trkpt>
      <trkpt lat="48.68645" lon="1.74645">
        <ele>169.60000610352</ele>
        <time>2012-03-08T10:51:05.000Z</time>
      </trkpt>
      <trkpt lat="48.68641" lon="1.7464">
        <ele>169.39999389648</ele>
        <time>2012-03-08T10:51:09.000Z</time>
      </trkpt>
      <trkpt lat="48.68633" lon="1.74626">
        <ele>169.19999694824</ele>
        <time>2012-03-08T10:51:17.000Z</time>
      </trkpt>
      <trkpt lat="48.68631" lon="1.74622">
        <ele>169.19999694824</ele>
        <time>2012-03-08T10:51:19.000Z</time>
      </trkpt>
      <trkpt lat="48.68622" lon="1.74604">
        <ele>168.60000610352</ele>
        <time>2012-03-08T10:51:30.000Z</time>
      </trkpt>
      <trkpt lat="48.68615" lon="1.74588">
        <ele>168.19999694824</ele>
        <time>2012-03-08T10:51:39.000Z</time>
      </trkpt>
      <trkpt lat="48.6861" lon="1.74577">
        <ele>167.60000610352</ele>
        <time>2012-03-08T10:51:45.000Z</time>
      </trkpt>
      <trkpt lat="48.686" lon="1.74558">
        <ele>166.19999694824</ele>
        <time>2012-03-08T10:51:56.000Z</time>
      </trkpt>
      <trkpt lat="48.68593" lon="1.74542">
        <ele>165</ele>
        <time>2012-03-08T10:52:05.000Z</time>
      </trkpt>
      <trkpt lat="48.68585" lon="1.74528">
        <ele>163.80000305176</ele>
        <time>2012-03-08T10:52:13.000Z</time>
      </trkpt>
      <trkpt lat="48.68579" lon="1.74516">
        <ele>162.60000610352</ele>
        <time>2012-03-08T10:52:20.000Z</time>
      </trkpt>
      <trkpt lat="48.68573" lon="1.74502">
        <ele>161.19999694824</ele>
        <time>2012-03-08T10:52:27.000Z</time>
      </trkpt>
      <trkpt lat="48.6857" lon="1.74494">
        <ele>160.39999389648</ele>
        <time>2012-03-08T10:52:31.000Z</time>
      </trkpt>
      <trkpt lat="48.68565" lon="1.74484">
        <ele>159.19999694824</ele>
        <time>2012-03-08T10:52:37.000Z</time>
      </trkpt>
      <trkpt lat="48.68557" lon="1.74479">
        <ele>158.19999694824</ele>
        <time>2012-03-08T10:52:43.000Z</time>
      </trkpt>
      <trkpt lat="48.68556" lon="1.74479">
        <ele>158.19999694824</ele>
        <time>2012-03-08T10:52:44.000Z</time>
      </trkpt>
      <trkpt lat="48.68548" lon="1.7448">
        <ele>157.60000610352</ele>
        <time>2012-03-08T10:52:49.000Z</time>
      </trkpt>
      <trkpt lat="48.68543" lon="1.74485">
        <ele>157.39999389648</ele>
        <time>2012-03-08T10:52:54.000Z</time>
      </trkpt>
      <trkpt lat="48.68533" lon="1.74494">
        <ele>157.39999389648</ele>
        <time>2012-03-08T10:53:02.000Z</time>
      </trkpt>
      <trkpt lat="48.68525" lon="1.74501">
        <ele>157.19999694824</ele>
        <time>2012-03-08T10:53:09.000Z</time>
      </trkpt>
      <trkpt lat="48.68513" lon="1.74513">
        <ele>157.19999694824</ele>
        <time>2012-03-08T10:53:18.000Z</time>
      </trkpt>
      <trkpt lat="48.68506" lon="1.74522">
        <ele>157.60000610352</ele>
        <time>2012-03-08T10:53:25.000Z</time>
      </trkpt>
      <trkpt lat="48.68494" lon="1.74536">
        <ele>158</ele>
        <time>2012-03-08T10:53:34.000Z</time>
      </trkpt>
      <trkpt lat="48.68485" lon="1.74543">
        <ele>158</ele>
        <time>2012-03-08T10:53:42.000Z</time>
      </trkpt>
      <trkpt lat="48.68476" lon="1.74551">
        <ele>157.80000305176</ele>
        <time>2012-03-08T10:53:50.000Z</time>
      </trkpt>
      <trkpt lat="48.68468" lon="1.74555">
        <ele>157.39999389648</ele>
        <time>2012-03-08T10:53:56.000Z</time>
      </trkpt>
      <trkpt lat="48.68461" lon="1.74563">
        <ele>157.39999389648</ele>
        <time>2012-03-08T10:54:03.000Z</time>
      </trkpt>
      <trkpt lat="48.68452" lon="1.74571">
        <ele>157</ele>
        <time>2012-03-08T10:54:11.000Z</time>
      </trkpt>
      <trkpt lat="48.68445" lon="1.74579">
        <ele>156.80000305176</ele>
        <time>2012-03-08T10:54:17.000Z</time>
      </trkpt>
      <trkpt lat="48.68441" lon="1.74587">
        <ele>156.80000305176</ele>
        <time>2012-03-08T10:54:22.000Z</time>
      </trkpt>
      <trkpt lat="48.6844" lon="1.74593">
        <ele>157</ele>
        <time>2012-03-08T10:54:25.000Z</time>
      </trkpt>
      <trkpt lat="48.68433" lon="1.74599">
        <ele>156.60000610352</ele>
        <time>2012-03-08T10:54:31.000Z</time>
      </trkpt>
      <trkpt lat="48.68427" lon="1.74607">
        <ele>156.39999389648</ele>
        <time>2012-03-08T10:54:38.000Z</time>
      </trkpt>
      <trkpt lat="48.68423" lon="1.74608">
        <ele>156</ele>
        <time>2012-03-08T10:54:42.000Z</time>
      </trkpt>
      <trkpt lat="48.68418" lon="1.74608">
        <ele>155.60000610352</ele>
        <time>2012-03-08T10:54:46.000Z</time>
      </trkpt>
      <trkpt lat="48.68407" lon="1.74609">
        <ele>155.39999389648</ele>
        <time>2012-03-08T10:54:54.000Z</time>
      </trkpt>
      <trkpt lat="48.68397" lon="1.74604">
        <ele>155</ele>
        <time>2012-03-08T10:55:01.000Z</time>
      </trkpt>
      <trkpt lat="48.68389" lon="1.74596">
        <ele>154.80000305176</ele>
        <time>2012-03-08T10:55:08.000Z</time>
      </trkpt>
      <trkpt lat="48.68385" lon="1.74587">
        <ele>154.39999389648</ele>
        <time>2012-03-08T10:55:13.000Z</time>
      </trkpt>
      <trkpt lat="48.68382" lon="1.74585">
        <ele>154.39999389648</ele>
        <time>2012-03-08T10:55:15.000Z</time>
      </trkpt>
      <trkpt lat="48.68373" lon="1.74584">
        <ele>154.60000610352</ele>
        <time>2012-03-08T10:55:21.000Z</time>
      </trkpt>
      <trkpt lat="48.68369" lon="1.74586">
        <ele>154.60000610352</ele>
        <time>2012-03-08T10:55:27.000Z</time>
      </trkpt>
      <trkpt lat="48.68352" lon="1.74555">
        <ele>155.39999389648</ele>
        <time>2012-03-08T10:56:13.000Z</time>
      </trkpt>
      <trkpt lat="48.68349" lon="1.74553">
        <ele>155.39999389648</ele>
        <time>2012-03-08T10:56:14.000Z</time>
      </trkpt>
      <trkpt lat="48.68343" lon="1.74548">
        <ele>155.80000305176</ele>
        <time>2012-03-08T10:56:23.000Z</time>
      </trkpt>
      <trkpt lat="48.68336" lon="1.74538">
        <ele>156.60000610352</ele>
        <time>2012-03-08T10:56:59.000Z</time>
      </trkpt>
      <trkpt lat="48.68332" lon="1.74535">
        <ele>156.80000305176</ele>
        <time>2012-03-08T10:57:01.000Z</time>
      </trkpt>
      <trkpt lat="48.68325" lon="1.74529">
        <ele>157.60000610352</ele>
        <time>2012-03-08T10:57:07.000Z</time>
      </trkpt>
      <trkpt lat="48.68319" lon="1.74524">
        <ele>158.39999389648</ele>
        <time>2012-03-08T10:57:12.000Z</time>
      </trkpt>
      <trkpt lat="48.6831" lon="1.74523">
        <ele>159.19999694824</ele>
        <time>2012-03-08T10:57:17.000Z</time>
      </trkpt>
      <trkpt lat="48.68303" lon="1.74514">
        <ele>160.19999694824</ele>
        <time>2012-03-08T10:57:24.000Z</time>
      </trkpt>
      <trkpt lat="48.68303" lon="1.74512">
        <ele>160.19999694824</ele>
        <time>2012-03-08T10:57:26.000Z</time>
      </trkpt>
      <trkpt lat="48.68302" lon="1.74498">
        <ele>160.60000610352</ele>
        <time>2012-03-08T10:57:34.000Z</time>
      </trkpt>
      <trkpt lat="48.68303" lon="1.74488">
        <ele>160.80000305176</ele>
        <time>2012-03-08T10:57:40.000Z</time>
      </trkpt>
      <trkpt lat="48.68303" lon="1.74485">
        <ele>160.80000305176</ele>
        <time>2012-03-08T10:57:42.000Z</time>
      </trkpt>
      <trkpt lat="48.68302" lon="1.7447">
        <ele>161.19999694824</ele>
        <time>2012-03-08T10:57:50.000Z</time>
      </trkpt>
      <trkpt lat="48.68304" lon="1.74459">
        <ele>161.19999694824</ele>
        <time>2012-03-08T10:57:55.000Z</time>
      </trkpt>
      <trkpt lat="48.68304" lon="1.74457">
        <ele>161.19999694824</ele>
        <time>2012-03-08T10:57:56.000Z</time>
      </trkpt>
      <trkpt lat="48.68302" lon="1.74446">
        <ele>161.60000610352</ele>
        <time>2012-03-08T10:58:02.000Z</time>
      </trkpt>
      <trkpt lat="48.68299" lon="1.74435">
        <ele>162</ele>
        <time>2012-03-08T10:58:08.000Z</time>
      </trkpt>
      <trkpt lat="48.68298" lon="1.74433">
        <ele>162</ele>
        <time>2012-03-08T10:58:09.000Z</time>
      </trkpt>
      <trkpt lat="48.68293" lon="1.7442">
        <ele>162.39999389648</ele>
        <time>2012-03-08T10:58:16.000Z</time>
      </trkpt>
      <trkpt lat="48.68291" lon="1.74409">
        <ele>162.60000610352</ele>
        <time>2012-03-08T10:58:22.000Z</time>
      </trkpt>
      <trkpt lat="48.68288" lon="1.744">
        <ele>162.60000610352</ele>
        <time>2012-03-08T10:58:27.000Z</time>
      </trkpt>
      <trkpt lat="48.68283" lon="1.74385">
        <ele>162.80000305176</ele>
        <time>2012-03-08T10:58:36.000Z</time>
      </trkpt>
      <trkpt lat="48.68282" lon="1.74371">
        <ele>162.80000305176</ele>
        <time>2012-03-08T10:58:44.000Z</time>
      </trkpt>
      <trkpt lat="48.68279" lon="1.74361">
        <ele>163</ele>
        <time>2012-03-08T10:58:50.000Z</time>
      </trkpt>
      <trkpt lat="48.68275" lon="1.74344">
        <ele>163</ele>
        <time>2012-03-08T10:58:59.000Z</time>
      </trkpt>
      <trkpt lat="48.68271" lon="1.74327">
        <ele>163</ele>
        <time>2012-03-08T10:59:08.000Z</time>
      </trkpt>
      <trkpt lat="48.6827" lon="1.74325">
        <ele>163</ele>
        <time>2012-03-08T10:59:09.000Z</time>
      </trkpt>
      <trkpt lat="48.6827" lon="1.74315">
        <ele>163</ele>
        <time>2012-03-08T10:59:14.000Z</time>
      </trkpt>
      <trkpt lat="48.68267" lon="1.74298">
        <ele>162.60000610352</ele>
        <time>2012-03-08T10:59:22.000Z</time>
      </trkpt>
      <trkpt lat="48.68267" lon="1.74288">
        <ele>162.39999389648</ele>
        <time>2012-03-08T10:59:27.000Z</time>
      </trkpt>
      <trkpt lat="48.68264" lon="1.74271">
        <ele>162.19999694824</ele>
        <time>2012-03-08T10:59:35.000Z</time>
      </trkpt>
      <trkpt lat="48.68262" lon="1.74262">
        <ele>162</ele>
        <time>2012-03-08T10:59:40.000Z</time>
      </trkpt>
      <trkpt lat="48.68261" lon="1.74252">
        <ele>161.80000305176</ele>
        <time>2012-03-08T10:59:46.000Z</time>
      </trkpt>
      <trkpt lat="48.68257" lon="1.74236">
        <ele>161.80000305176</ele>
        <time>2012-03-08T10:59:53.000Z</time>
      </trkpt>
      <trkpt lat="48.68257" lon="1.74234">
        <ele>161.80000305176</ele>
        <time>2012-03-08T10:59:54.000Z</time>
      </trkpt>
      <trkpt lat="48.68252" lon="1.74227">
        <ele>162</ele>
        <time>2012-03-08T10:59:58.000Z</time>
      </trkpt>
      <trkpt lat="48.6825" lon="1.74211">
        <ele>162</ele>
        <time>2012-03-08T11:00:05.000Z</time>
      </trkpt>
      <trkpt lat="48.68248" lon="1.74201">
        <ele>162.19999694824</ele>
        <time>2012-03-08T11:00:10.000Z</time>
      </trkpt>
      <trkpt lat="48.68246" lon="1.74194">
        <ele>162.19999694824</ele>
        <time>2012-03-08T11:00:13.000Z</time>
      </trkpt>
      <trkpt lat="48.68242" lon="1.74175">
        <ele>162.39999389648</ele>
        <time>2012-03-08T11:00:21.000Z</time>
      </trkpt>
      <trkpt lat="48.68242" lon="1.74173">
        <ele>162.39999389648</ele>
        <time>2012-03-08T11:00:22.000Z</time>
      </trkpt>
      <trkpt lat="48.68242" lon="1.74157">
        <ele>162.60000610352</ele>
        <time>2012-03-08T11:00:29.000Z</time>
      </trkpt>
      <trkpt lat="48.68241" lon="1.74148">
        <ele>162.80000305176</ele>
        <time>2012-03-08T11:00:34.000Z</time>
      </trkpt>
      <trkpt lat="48.6824" lon="1.74136">
        <ele>163.19999694824</ele>
        <time>2012-03-08T11:00:40.000Z</time>
      </trkpt>
      <trkpt lat="48.6824" lon="1.74134">
        <ele>163.19999694824</ele>
        <time>2012-03-08T11:00:41.000Z</time>
      </trkpt>
      <trkpt lat="48.68239" lon="1.74129">
        <ele>163.39999389648</ele>
        <time>2012-03-08T11:00:44.000Z</time>
      </trkpt>
      <trkpt lat="48.68237" lon="1.74116">
        <ele>163.60000610352</ele>
        <time>2012-03-08T11:00:51.000Z</time>
      </trkpt>
      <trkpt lat="48.68236" lon="1.74111">
        <ele>163.80000305176</ele>
        <time>2012-03-08T11:00:54.000Z</time>
      </trkpt>
      <trkpt lat="48.68234" lon="1.74099">
        <ele>164</ele>
        <time>2012-03-08T11:01:00.000Z</time>
      </trkpt>
      <trkpt lat="48.6823" lon="1.74078">
        <ele>164.60000610352</ele>
        <time>2012-03-08T11:01:09.000Z</time>
      </trkpt>
      <trkpt lat="48.68227" lon="1.74061">
        <ele>164.80000305176</ele>
        <time>2012-03-08T11:01:18.000Z</time>
      </trkpt>
      <trkpt lat="48.68226" lon="1.74046">
        <ele>165</ele>
        <time>2012-03-08T11:01:26.000Z</time>
      </trkpt>
      <trkpt lat="48.68221" lon="1.74027">
        <ele>165.39999389648</ele>
        <time>2012-03-08T11:01:36.000Z</time>
      </trkpt>
      <trkpt lat="48.68218" lon="1.74011">
        <ele>165.60000610352</ele>
        <time>2012-03-08T11:01:44.000Z</time>
      </trkpt>
      <trkpt lat="48.68218" lon="1.74006">
        <ele>165.80000305176</ele>
        <time>2012-03-08T11:01:46.000Z</time>
      </trkpt>
      <trkpt lat="48.68215" lon="1.73991">
        <ele>165.80000305176</ele>
        <time>2012-03-08T11:01:53.000Z</time>
      </trkpt>
      <trkpt lat="48.68214" lon="1.73985">
        <ele>166</ele>
        <time>2012-03-08T11:01:57.000Z</time>
      </trkpt>
      <trkpt lat="48.68212" lon="1.73972">
        <ele>166</ele>
        <time>2012-03-08T11:02:04.000Z</time>
      </trkpt>
      <trkpt lat="48.68209" lon="1.73963">
        <ele>166.19999694824</ele>
        <time>2012-03-08T11:02:10.000Z</time>
      </trkpt>
      <trkpt lat="48.68203" lon="1.73954">
        <ele>166.39999389648</ele>
        <time>2012-03-08T11:02:16.000Z</time>
      </trkpt>
      <trkpt lat="48.68201" lon="1.73949">
        <ele>166.39999389648</ele>
        <time>2012-03-08T11:02:18.000Z</time>
      </trkpt>
      <trkpt lat="48.68187" lon="1.73926">
        <ele>166.80000305176</ele>
        <time>2012-03-08T11:02:27.000Z</time>
      </trkpt>
      <trkpt lat="48.68175" lon="1.73908">
        <ele>167.19999694824</ele>
        <time>2012-03-08T11:02:33.000Z</time>
      </trkpt>
      <trkpt lat="48.68162" lon="1.73889">
        <ele>167.80000305176</ele>
        <time>2012-03-08T11:02:39.000Z</time>
      </trkpt>
      <trkpt lat="48.68153" lon="1.73876">
        <ele>168.39999389648</ele>
        <time>2012-03-08T11:02:43.000Z</time>
      </trkpt>
      <trkpt lat="48.6814" lon="1.73855">
        <ele>169.19999694824</ele>
        <time>2012-03-08T11:02:49.000Z</time>
      </trkpt>
      <trkpt lat="48.68129" lon="1.73839">
        <ele>169.80000305176</ele>
        <time>2012-03-08T11:02:54.000Z</time>
      </trkpt>
      <trkpt lat="48.68116" lon="1.73819">
        <ele>170.60000610352</ele>
        <time>2012-03-08T11:03:00.000Z</time>
      </trkpt>
      <trkpt lat="48.68103" lon="1.73801">
        <ele>171.19999694824</ele>
        <time>2012-03-08T11:03:06.000Z</time>
      </trkpt>
      <trkpt lat="48.6809" lon="1.73785">
        <ele>171.60000610352</ele>
        <time>2012-03-08T11:03:11.000Z</time>
      </trkpt>
      <trkpt lat="48.68078" lon="1.73771">
        <ele>172</ele>
        <time>2012-03-08T11:03:16.000Z</time>
      </trkpt>
      <trkpt lat="48.68061" lon="1.73747">
        <ele>173.39999389648</ele>
        <time>2012-03-08T11:03:23.000Z</time>
      </trkpt>
      <trkpt lat="48.68044" lon="1.7372">
        <ele>175</ele>
        <time>2012-03-08T11:03:30.000Z</time>
      </trkpt>
      <trkpt lat="48.6803" lon="1.73697">
        <ele>175.80000305176</ele>
        <time>2012-03-08T11:03:37.000Z</time>
      </trkpt>
      <trkpt lat="48.68016" lon="1.7368">
        <ele>176.60000610352</ele>
        <time>2012-03-08T11:03:43.000Z</time>
      </trkpt>
      <trkpt lat="48.68001" lon="1.73659">
        <ele>177</ele>
        <time>2012-03-08T11:03:49.000Z</time>
      </trkpt>
      <trkpt lat="48.67985" lon="1.73636">
        <ele>177.39999389648</ele>
        <time>2012-03-08T11:03:56.000Z</time>
      </trkpt>
      <trkpt lat="48.67973" lon="1.73618">
        <ele>177.80000305176</ele>
        <time>2012-03-08T11:04:01.000Z</time>
      </trkpt>
      <trkpt lat="48.67959" lon="1.73598">
        <ele>178</ele>
        <time>2012-03-08T11:04:07.000Z</time>
      </trkpt>
      <trkpt lat="48.67942" lon="1.73572">
        <ele>178.39999389648</ele>
        <time>2012-03-08T11:04:14.000Z</time>
      </trkpt>
      <trkpt lat="48.67928" lon="1.73552">
        <ele>178.39999389648</ele>
        <time>2012-03-08T11:04:20.000Z</time>
      </trkpt>
      <trkpt lat="48.67915" lon="1.7353">
        <ele>178.39999389648</ele>
        <time>2012-03-08T11:04:26.000Z</time>
      </trkpt>
      <trkpt lat="48.67899" lon="1.73505">
        <ele>178.60000610352</ele>
        <time>2012-03-08T11:04:33.000Z</time>
      </trkpt>
      <trkpt lat="48.67888" lon="1.73487">
        <ele>178.80000305176</ele>
        <time>2012-03-08T11:04:38.000Z</time>
      </trkpt>
      <trkpt lat="48.67873" lon="1.73467">
        <ele>178.80000305176</ele>
        <time>2012-03-08T11:04:44.000Z</time>
      </trkpt>
      <trkpt lat="48.6786" lon="1.73454">
        <ele>179</ele>
        <time>2012-03-08T11:04:49.000Z</time>
      </trkpt>
      <trkpt lat="48.67846" lon="1.73442">
        <ele>179.19999694824</ele>
        <time>2012-03-08T11:04:54.000Z</time>
      </trkpt>
      <trkpt lat="48.67832" lon="1.73431">
        <ele>179.39999389648</ele>
        <time>2012-03-08T11:04:59.000Z</time>
      </trkpt>
      <trkpt lat="48.67815" lon="1.73415">
        <ele>179.60000610352</ele>
        <time>2012-03-08T11:05:05.000Z</time>
      </trkpt>
      <trkpt lat="48.67795" lon="1.73401">
        <ele>180</ele>
        <time>2012-03-08T11:05:12.000Z</time>
      </trkpt>
      <trkpt lat="48.67779" lon="1.73389">
        <ele>180</ele>
        <time>2012-03-08T11:05:18.000Z</time>
      </trkpt>
      <trkpt lat="48.67759" lon="1.73369">
        <ele>179.60000610352</ele>
        <time>2012-03-08T11:05:25.000Z</time>
      </trkpt>
      <trkpt lat="48.67738" lon="1.7335">
        <ele>178.39999389648</ele>
        <time>2012-03-08T11:05:32.000Z</time>
      </trkpt>
      <trkpt lat="48.67723" lon="1.7334">
        <ele>177.39999389648</ele>
        <time>2012-03-08T11:05:37.000Z</time>
      </trkpt>
      <trkpt lat="48.67698" lon="1.73331">
        <ele>176</ele>
        <time>2012-03-08T11:05:45.000Z</time>
      </trkpt>
      <trkpt lat="48.67679" lon="1.73329">
        <ele>175.19999694824</ele>
        <time>2012-03-08T11:05:51.000Z</time>
      </trkpt>
      <trkpt lat="48.67652" lon="1.73322">
        <ele>174.19999694824</ele>
        <time>2012-03-08T11:05:59.000Z</time>
      </trkpt>
      <trkpt lat="48.67635" lon="1.73322">
        <ele>174</ele>
        <time>2012-03-08T11:06:04.000Z</time>
      </trkpt>
      <trkpt lat="48.67612" lon="1.7332">
        <ele>173.19999694824</ele>
        <time>2012-03-08T11:06:11.000Z</time>
      </trkpt>
      <trkpt lat="48.6759" lon="1.73318">
        <ele>172.80000305176</ele>
        <time>2012-03-08T11:06:17.000Z</time>
      </trkpt>
      <trkpt lat="48.67569" lon="1.7331">
        <ele>172.19999694824</ele>
        <time>2012-03-08T11:06:23.000Z</time>
      </trkpt>
      <trkpt lat="48.67548" lon="1.7329">
        <ele>171.39999389648</ele>
        <time>2012-03-08T11:06:30.000Z</time>
      </trkpt>
      <trkpt lat="48.6752" lon="1.73253">
        <ele>169.60000610352</ele>
        <time>2012-03-08T11:06:40.000Z</time>
      </trkpt>
      <trkpt lat="48.67502" lon="1.7323">
        <ele>169</ele>
        <time>2012-03-08T11:06:47.000Z</time>
      </trkpt>
      <trkpt lat="48.67487" lon="1.73221">
        <ele>168.80000305176</ele>
        <time>2012-03-08T11:06:52.000Z</time>
      </trkpt>
      <trkpt lat="48.67467" lon="1.7321">
        <ele>168.80000305176</ele>
        <time>2012-03-08T11:06:58.000Z</time>
      </trkpt>
      <trkpt lat="48.67443" lon="1.73195">
        <ele>169</ele>
        <time>2012-03-08T11:07:06.000Z</time>
      </trkpt>
      <trkpt lat="48.67428" lon="1.7318">
        <ele>169.39999389648</ele>
        <time>2012-03-08T11:07:11.000Z</time>
      </trkpt>
      <trkpt lat="48.67413" lon="1.73166">
        <ele>170</ele>
        <time>2012-03-08T11:07:16.000Z</time>
      </trkpt>
      <trkpt lat="48.67396" lon="1.73149">
        <ele>169.60000610352</ele>
        <time>2012-03-08T11:07:22.000Z</time>
      </trkpt>
      <trkpt lat="48.67378" lon="1.73132">
        <ele>169.39999389648</ele>
        <time>2012-03-08T11:07:28.000Z</time>
      </trkpt>
      <trkpt lat="48.67367" lon="1.73127">
        <ele>169.19999694824</ele>
        <time>2012-03-08T11:07:32.000Z</time>
      </trkpt>
      <trkpt lat="48.67351" lon="1.7312">
        <ele>169</ele>
        <time>2012-03-08T11:07:37.000Z</time>
      </trkpt>
      <trkpt lat="48.6734" lon="1.73115">
        <ele>169</ele>
        <time>2012-03-08T11:07:40.000Z</time>
      </trkpt>
      <trkpt lat="48.67337" lon="1.73104">
        <ele>169</ele>
        <time>2012-03-08T11:07:44.000Z</time>
      </trkpt>
      <trkpt lat="48.67339" lon="1.73101">
        <ele>169</ele>
        <time>2012-03-08T11:07:45.000Z</time>
      </trkpt>
      <trkpt lat="48.6735" lon="1.73088">
        <ele>169</ele>
        <time>2012-03-08T11:07:51.000Z</time>
      </trkpt>
      <trkpt lat="48.67359" lon="1.73079">
        <ele>168.60000610352</ele>
        <time>2012-03-08T11:07:58.000Z</time>
      </trkpt>
      <trkpt lat="48.67368" lon="1.7307">
        <ele>168</ele>
        <time>2012-03-08T11:08:05.000Z</time>
      </trkpt>
      <trkpt lat="48.67369" lon="1.73069">
        <ele>168</ele>
        <time>2012-03-08T11:08:06.000Z</time>
      </trkpt>
      <trkpt lat="48.67377" lon="1.73058">
        <ele>167.39999389648</ele>
        <time>2012-03-08T11:08:13.000Z</time>
      </trkpt>
      <trkpt lat="48.67386" lon="1.73047">
        <ele>166.80000305176</ele>
        <time>2012-03-08T11:08:21.000Z</time>
      </trkpt>
      <trkpt lat="48.67386" lon="1.73045">
        <ele>166.60000610352</ele>
        <time>2012-03-08T11:08:24.000Z</time>
      </trkpt>
      <trkpt lat="48.67395" lon="1.73036">
        <ele>166.19999694824</ele>
        <time>2012-03-08T11:08:32.000Z</time>
      </trkpt>
      <trkpt lat="48.67404" lon="1.73023">
        <ele>165.80000305176</ele>
        <time>2012-03-08T11:08:39.000Z</time>
      </trkpt>
      <trkpt lat="48.67405" lon="1.73021">
        <ele>165.80000305176</ele>
        <time>2012-03-08T11:08:40.000Z</time>
      </trkpt>
      <trkpt lat="48.6741" lon="1.73018">
        <ele>165.60000610352</ele>
        <time>2012-03-08T11:08:44.000Z</time>
      </trkpt>
      <trkpt lat="48.67417" lon="1.7301">
        <ele>165.60000610352</ele>
        <time>2012-03-08T11:08:51.000Z</time>
      </trkpt>
      <trkpt lat="48.67424" lon="1.73001">
        <ele>165.60000610352</ele>
        <time>2012-03-08T11:08:58.000Z</time>
      </trkpt>
      <trkpt lat="48.67433" lon="1.72994">
        <ele>166.19999694824</ele>
        <time>2012-03-08T11:09:05.000Z</time>
      </trkpt>
      <trkpt lat="48.67434" lon="1.72992">
        <ele>166.19999694824</ele>
        <time>2012-03-08T11:09:06.000Z</time>
      </trkpt>
      <trkpt lat="48.67441" lon="1.72982">
        <ele>166.80000305176</ele>
        <time>2012-03-08T11:09:12.000Z</time>
      </trkpt>
      <trkpt lat="48.67451" lon="1.72972">
        <ele>167.60000610352</ele>
        <time>2012-03-08T11:09:17.000Z</time>
      </trkpt>
      <trkpt lat="48.67468" lon="1.72954">
        <ele>169.19999694824</ele>
        <time>2012-03-08T11:09:24.000Z</time>
      </trkpt>
      <trkpt lat="48.67474" lon="1.72943">
        <ele>169.80000305176</ele>
        <time>2012-03-08T11:09:27.000Z</time>
      </trkpt>
      <trkpt lat="48.67487" lon="1.72927">
        <ele>171.39999389648</ele>
        <time>2012-03-08T11:09:32.000Z</time>
      </trkpt>
      <trkpt lat="48.67514" lon="1.72899">
        <ele>173.80000305176</ele>
        <time>2012-03-08T11:09:41.000Z</time>
      </trkpt>
      <trkpt lat="48.67538" lon="1.72872">
        <ele>175</ele>
        <time>2012-03-08T11:09:49.000Z</time>
      </trkpt>
      <trkpt lat="48.6756" lon="1.72847">
        <ele>175.60000610352</ele>
        <time>2012-03-08T11:09:56.000Z</time>
      </trkpt>
      <trkpt lat="48.67582" lon="1.72823">
        <ele>175.60000610352</ele>
        <time>2012-03-08T11:10:03.000Z</time>
      </trkpt>
      <trkpt lat="48.67606" lon="1.72794">
        <ele>176</ele>
        <time>2012-03-08T11:10:11.000Z</time>
      </trkpt>
      <trkpt lat="48.67626" lon="1.72773">
        <ele>176.39999389648</ele>
        <time>2012-03-08T11:10:17.000Z</time>
      </trkpt>
      <trkpt lat="48.6764" lon="1.72757">
        <ele>176.60000610352</ele>
        <time>2012-03-08T11:10:22.000Z</time>
      </trkpt>
      <trkpt lat="48.6766" lon="1.72736">
        <ele>176.80000305176</ele>
        <time>2012-03-08T11:10:28.000Z</time>
      </trkpt>
      <trkpt lat="48.67693" lon="1.72708">
        <ele>177</ele>
        <time>2012-03-08T11:10:37.000Z</time>
      </trkpt>
      <trkpt lat="48.67696" lon="1.72705">
        <ele>177</ele>
        <time>2012-03-08T11:10:38.000Z</time>
      </trkpt>
      <trkpt lat="48.67705" lon="1.72694">
        <ele>177</ele>
        <time>2012-03-08T11:10:43.000Z</time>
      </trkpt>
      <trkpt lat="48.6772" lon="1.72681">
        <ele>177</ele>
        <time>2012-03-08T11:10:53.000Z</time>
      </trkpt>
      <trkpt lat="48.67728" lon="1.72676">
        <ele>177.19999694824</ele>
        <time>2012-03-08T11:10:59.000Z</time>
      </trkpt>
      <trkpt lat="48.6774" lon="1.72666">
        <ele>177.39999389648</ele>
        <time>2012-03-08T11:11:08.000Z</time>
      </trkpt>
      <trkpt lat="48.67751" lon="1.7266">
        <ele>177.60000610352</ele>
        <time>2012-03-08T11:11:16.000Z</time>
      </trkpt>
      <trkpt lat="48.67758" lon="1.72654">
        <ele>177.60000610352</ele>
        <time>2012-03-08T11:11:22.000Z</time>
      </trkpt>
      <trkpt lat="48.67767" lon="1.72647">
        <ele>177.80000305176</ele>
        <time>2012-03-08T11:11:29.000Z</time>
      </trkpt>
      <trkpt lat="48.67774" lon="1.72644">
        <ele>178</ele>
        <time>2012-03-08T11:11:34.000Z</time>
      </trkpt>
      <trkpt lat="48.67779" lon="1.72639">
        <ele>177.80000305176</ele>
        <time>2012-03-08T11:11:38.000Z</time>
      </trkpt>
      <trkpt lat="48.67789" lon="1.72628">
        <ele>177.60000610352</ele>
        <time>2012-03-08T11:11:46.000Z</time>
      </trkpt>
      <trkpt lat="48.67796" lon="1.72623">
        <ele>177.60000610352</ele>
        <time>2012-03-08T11:11:51.000Z</time>
      </trkpt>
      <trkpt lat="48.67797" lon="1.7262">
        <ele>177.39999389648</ele>
        <time>2012-03-08T11:11:56.000Z</time>
      </trkpt>
      <trkpt lat="48.678" lon="1.72618">
        <ele>177.39999389648</ele>
        <time>2012-03-08T11:11:58.000Z</time>
      </trkpt>
      <trkpt lat="48.67809" lon="1.72611">
        <ele>177.19999694824</ele>
        <time>2012-03-08T11:12:05.000Z</time>
      </trkpt>
      <trkpt lat="48.67812" lon="1.72609">
        <ele>177.19999694824</ele>
        <time>2012-03-08T11:12:11.000Z</time>
      </trkpt>
      <trkpt lat="48.67822" lon="1.72599">
        <ele>176.80000305176</ele>
        <time>2012-03-08T11:12:32.000Z</time>
      </trkpt>
      <trkpt lat="48.67834" lon="1.72589">
        <ele>176.60000610352</ele>
        <time>2012-03-08T11:12:40.000Z</time>
      </trkpt>
      <trkpt lat="48.67843" lon="1.72582">
        <ele>176.39999389648</ele>
        <time>2012-03-08T11:12:47.000Z</time>
      </trkpt>
      <trkpt lat="48.67853" lon="1.72574">
        <ele>176.39999389648</ele>
        <time>2012-03-08T11:12:54.000Z</time>
      </trkpt>
      <trkpt lat="48.67869" lon="1.72562">
        <ele>176.39999389648</ele>
        <time>2012-03-08T11:13:06.000Z</time>
      </trkpt>
      <trkpt lat="48.67878" lon="1.72552">
        <ele>176.19999694824</ele>
        <time>2012-03-08T11:13:14.000Z</time>
      </trkpt>
      <trkpt lat="48.67887" lon="1.72546">
        <ele>176.39999389648</ele>
        <time>2012-03-08T11:13:21.000Z</time>
      </trkpt>
      <trkpt lat="48.67891" lon="1.72544">
        <ele>176.39999389648</ele>
        <time>2012-03-08T11:13:24.000Z</time>
      </trkpt>
      <trkpt lat="48.67899" lon="1.72537">
        <ele>176.39999389648</ele>
        <time>2012-03-08T11:13:29.000Z</time>
      </trkpt>
      <trkpt lat="48.67912" lon="1.72526">
        <ele>176.39999389648</ele>
        <time>2012-03-08T11:13:38.000Z</time>
      </trkpt>
      <trkpt lat="48.67922" lon="1.72518">
        <ele>176.60000610352</ele>
        <time>2012-03-08T11:13:46.000Z</time>
      </trkpt>
      <trkpt lat="48.67932" lon="1.7251">
        <ele>177.19999694824</ele>
        <time>2012-03-08T11:13:54.000Z</time>
      </trkpt>
      <trkpt lat="48.67938" lon="1.72503">
        <ele>177.60000610352</ele>
        <time>2012-03-08T11:13:59.000Z</time>
      </trkpt>
      <trkpt lat="48.67948" lon="1.72494">
        <ele>178</ele>
        <time>2012-03-08T11:14:07.000Z</time>
      </trkpt>
      <trkpt lat="48.67957" lon="1.72485">
        <ele>178.39999389648</ele>
        <time>2012-03-08T11:14:14.000Z</time>
      </trkpt>
      <trkpt lat="48.67967" lon="1.72477">
        <ele>178.80000305176</ele>
        <time>2012-03-08T11:14:21.000Z</time>
      </trkpt>
      <trkpt lat="48.67975" lon="1.72471">
        <ele>179</ele>
        <time>2012-03-08T11:14:27.000Z</time>
      </trkpt>
      <trkpt lat="48.67985" lon="1.7246">
        <ele>179</ele>
        <time>2012-03-08T11:14:35.000Z</time>
      </trkpt>
      <trkpt lat="48.67995" lon="1.72452">
        <ele>179</ele>
        <time>2012-03-08T11:14:43.000Z</time>
      </trkpt>
      <trkpt lat="48.68006" lon="1.72443">
        <ele>179</ele>
        <time>2012-03-08T11:14:51.000Z</time>
      </trkpt>
      <trkpt lat="48.68017" lon="1.72435">
        <ele>179</ele>
        <time>2012-03-08T11:14:58.000Z</time>
      </trkpt>
      <trkpt lat="48.6803" lon="1.72427">
        <ele>179.39999389648</ele>
        <time>2012-03-08T11:15:07.000Z</time>
      </trkpt>
      <trkpt lat="48.68041" lon="1.72418">
        <ele>179.60000610352</ele>
        <time>2012-03-08T11:15:15.000Z</time>
      </trkpt>
      <trkpt lat="48.68053" lon="1.72408">
        <ele>180.19999694824</ele>
        <time>2012-03-08T11:15:24.000Z</time>
      </trkpt>
      <trkpt lat="48.68065" lon="1.72399">
        <ele>180.80000305176</ele>
        <time>2012-03-08T11:15:33.000Z</time>
      </trkpt>
      <trkpt lat="48.6808" lon="1.72387">
        <ele>181.39999389648</ele>
        <time>2012-03-08T11:15:44.000Z</time>
      </trkpt>
      <trkpt lat="48.68091" lon="1.72378">
        <ele>180.80000305176</ele>
        <time>2012-03-08T11:15:53.000Z</time>
      </trkpt>
      <trkpt lat="48.68107" lon="1.72366">
        <ele>180</ele>
        <time>2012-03-08T11:16:05.000Z</time>
      </trkpt>
      <trkpt lat="48.68119" lon="1.72356">
        <ele>179.60000610352</ele>
        <time>2012-03-08T11:16:14.000Z</time>
      </trkpt>
      <trkpt lat="48.6812" lon="1.72355">
        <ele>179.39999389648</ele>
        <time>2012-03-08T11:16:15.000Z</time>
      </trkpt>
      <trkpt lat="48.68127" lon="1.72344">
        <ele>179.19999694824</ele>
        <time>2012-03-08T11:16:22.000Z</time>
      </trkpt>
      <trkpt lat="48.68136" lon="1.72335">
        <ele>179</ele>
        <time>2012-03-08T11:16:29.000Z</time>
      </trkpt>
      <trkpt lat="48.68139" lon="1.72332">
        <ele>179</ele>
        <time>2012-03-08T11:16:32.000Z</time>
      </trkpt>
      <trkpt lat="48.68144" lon="1.72326">
        <ele>179</ele>
        <time>2012-03-08T11:16:36.000Z</time>
      </trkpt>
      <trkpt lat="48.68152" lon="1.72312">
        <ele>179</ele>
        <time>2012-03-08T11:16:45.000Z</time>
      </trkpt>
      <trkpt lat="48.6816" lon="1.72297">
        <ele>179.39999389648</ele>
        <time>2012-03-08T11:16:53.000Z</time>
      </trkpt>
      <trkpt lat="48.68166" lon="1.72283">
        <ele>179.60000610352</ele>
        <time>2012-03-08T11:17:01.000Z</time>
      </trkpt>
      <trkpt lat="48.68175" lon="1.72269">
        <ele>179.60000610352</ele>
        <time>2012-03-08T11:17:10.000Z</time>
      </trkpt>
      <trkpt lat="48.68179" lon="1.7226">
        <ele>179.80000305176</ele>
        <time>2012-03-08T11:17:16.000Z</time>
      </trkpt>
      <trkpt lat="48.68183" lon="1.72249">
        <ele>179.80000305176</ele>
        <time>2012-03-08T11:17:22.000Z</time>
      </trkpt>
      <trkpt lat="48.68191" lon="1.72234">
        <ele>180.19999694824</ele>
        <time>2012-03-08T11:17:30.000Z</time>
      </trkpt>
      <trkpt lat="48.68201" lon="1.72222">
        <ele>180.39999389648</ele>
        <time>2012-03-08T11:17:39.000Z</time>
      </trkpt>
      <trkpt lat="48.68207" lon="1.72212">
        <ele>180.39999389648</ele>
        <time>2012-03-08T11:17:45.000Z</time>
      </trkpt>
      <trkpt lat="48.6821" lon="1.72204">
        <ele>180.60000610352</ele>
        <time>2012-03-08T11:17:49.000Z</time>
      </trkpt>
      <trkpt lat="48.68218" lon="1.72192">
        <ele>180.60000610352</ele>
        <time>2012-03-08T11:17:56.000Z</time>
      </trkpt>
      <trkpt lat="48.6822" lon="1.72189">
        <ele>180.60000610352</ele>
        <time>2012-03-08T11:17:58.000Z</time>
      </trkpt>
      <trkpt lat="48.68224" lon="1.72181">
        <ele>180.60000610352</ele>
        <time>2012-03-08T11:18:03.000Z</time>
      </trkpt>
      <trkpt lat="48.68233" lon="1.72168">
        <ele>180.60000610352</ele>
        <time>2012-03-08T11:18:12.000Z</time>
      </trkpt>
      <trkpt lat="48.68242" lon="1.72159">
        <ele>180.39999389648</ele>
        <time>2012-03-08T11:18:20.000Z</time>
      </trkpt>
      <trkpt lat="48.6825" lon="1.72148">
        <ele>180.39999389648</ele>
        <time>2012-03-08T11:18:28.000Z</time>
      </trkpt>
      <trkpt lat="48.68254" lon="1.72141">
        <ele>180.60000610352</ele>
        <time>2012-03-08T11:18:33.000Z</time>
      </trkpt>
      <trkpt lat="48.68256" lon="1.72139">
        <ele>180.60000610352</ele>
        <time>2012-03-08T11:18:35.000Z</time>
      </trkpt>
      <trkpt lat="48.68262" lon="1.72123">
        <ele>180.80000305176</ele>
        <time>2012-03-08T11:18:43.000Z</time>
      </trkpt>
      <trkpt lat="48.68268" lon="1.72111">
        <ele>181</ele>
        <time>2012-03-08T11:18:49.000Z</time>
      </trkpt>
      <trkpt lat="48.68275" lon="1.72098">
        <ele>181.19999694824</ele>
        <time>2012-03-08T11:18:57.000Z</time>
      </trkpt>
      <trkpt lat="48.68282" lon="1.72086">
        <ele>181.19999694824</ele>
        <time>2012-03-08T11:19:04.000Z</time>
      </trkpt>
      <trkpt lat="48.6829" lon="1.72073">
        <ele>181.19999694824</ele>
        <time>2012-03-08T11:19:12.000Z</time>
      </trkpt>
      <trkpt lat="48.68293" lon="1.72068">
        <ele>181.19999694824</ele>
        <time>2012-03-08T11:19:15.000Z</time>
      </trkpt>
      <trkpt lat="48.68299" lon="1.72059">
        <ele>181</ele>
        <time>2012-03-08T11:19:21.000Z</time>
      </trkpt>
      <trkpt lat="48.68308" lon="1.72044">
        <ele>181</ele>
        <time>2012-03-08T11:19:29.000Z</time>
      </trkpt>
      <trkpt lat="48.68316" lon="1.72033">
        <ele>180.60000610352</ele>
        <time>2012-03-08T11:19:37.000Z</time>
      </trkpt>
      <trkpt lat="48.68323" lon="1.72026">
        <ele>180.39999389648</ele>
        <time>2012-03-08T11:19:43.000Z</time>
      </trkpt>
      <trkpt lat="48.68329" lon="1.72018">
        <ele>180.19999694824</ele>
        <time>2012-03-08T11:19:49.000Z</time>
      </trkpt>
      <trkpt lat="48.68335" lon="1.72007">
        <ele>180</ele>
        <time>2012-03-08T11:19:56.000Z</time>
      </trkpt>
      <trkpt lat="48.68341" lon="1.71995">
        <ele>180</ele>
        <time>2012-03-08T11:20:02.000Z</time>
      </trkpt>
      <trkpt lat="48.68349" lon="1.71981">
        <ele>180.19999694824</ele>
        <time>2012-03-08T11:20:09.000Z</time>
      </trkpt>
      <trkpt lat="48.68355" lon="1.71965">
        <ele>180.39999389648</ele>
        <time>2012-03-08T11:20:17.000Z</time>
      </trkpt>
      <trkpt lat="48.68364" lon="1.7195">
        <ele>180.60000610352</ele>
        <time>2012-03-08T11:20:26.000Z</time>
      </trkpt>
      <trkpt lat="48.68373" lon="1.71936">
        <ele>180.60000610352</ele>
        <time>2012-03-08T11:20:35.000Z</time>
      </trkpt>
      <trkpt lat="48.68379" lon="1.71923">
        <ele>180.80000305176</ele>
        <time>2012-03-08T11:20:42.000Z</time>
      </trkpt>
      <trkpt lat="48.68387" lon="1.71913">
        <ele>180.80000305176</ele>
        <time>2012-03-08T11:20:49.000Z</time>
      </trkpt>
      <trkpt lat="48.68392" lon="1.71905">
        <ele>180.60000610352</ele>
        <time>2012-03-08T11:20:54.000Z</time>
      </trkpt>
      <trkpt lat="48.68397" lon="1.71896">
        <ele>180.60000610352</ele>
        <time>2012-03-08T11:21:00.000Z</time>
      </trkpt>
      <trkpt lat="48.68402" lon="1.71886">
        <ele>180.60000610352</ele>
        <time>2012-03-08T11:21:05.000Z</time>
      </trkpt>
      <trkpt lat="48.68409" lon="1.71875">
        <ele>180.60000610352</ele>
        <time>2012-03-08T11:21:12.000Z</time>
      </trkpt>
      <trkpt lat="48.6841" lon="1.71873">
        <ele>180.60000610352</ele>
        <time>2012-03-08T11:21:13.000Z</time>
      </trkpt>
      <trkpt lat="48.68414" lon="1.71865">
        <ele>180.60000610352</ele>
        <time>2012-03-08T11:21:18.000Z</time>
      </trkpt>
      <trkpt lat="48.68421" lon="1.71855">
        <ele>180.60000610352</ele>
        <time>2012-03-08T11:21:25.000Z</time>
      </trkpt>
      <trkpt lat="48.68422" lon="1.71853">
        <ele>180.60000610352</ele>
        <time>2012-03-08T11:21:26.000Z</time>
      </trkpt>
      <trkpt lat="48.68428" lon="1.71849">
        <ele>180.39999389648</ele>
        <time>2012-03-08T11:21:31.000Z</time>
      </trkpt>
      <trkpt lat="48.68435" lon="1.71843">
        <ele>180</ele>
        <time>2012-03-08T11:21:37.000Z</time>
      </trkpt>
      <trkpt lat="48.68443" lon="1.71833">
        <ele>179.80000305176</ele>
        <time>2012-03-08T11:21:45.000Z</time>
      </trkpt>
      <trkpt lat="48.68448" lon="1.71833">
        <ele>179.39999389648</ele>
        <time>2012-03-08T11:21:52.000Z</time>
      </trkpt>
      <trkpt lat="48.68448" lon="1.71835">
        <ele>179.39999389648</ele>
        <time>2012-03-08T11:21:53.000Z</time>
      </trkpt>
      <trkpt lat="48.68449" lon="1.71853">
        <ele>179.39999389648</ele>
        <time>2012-03-08T11:22:01.000Z</time>
      </trkpt>
      <trkpt lat="48.68452" lon="1.71869">
        <ele>179.19999694824</ele>
        <time>2012-03-08T11:22:08.000Z</time>
      </trkpt>
      <trkpt lat="48.68453" lon="1.71883">
        <ele>179.19999694824</ele>
        <time>2012-03-08T11:22:14.000Z</time>
      </trkpt>
      <trkpt lat="48.68454" lon="1.71897">
        <ele>179.19999694824</ele>
        <time>2012-03-08T11:22:20.000Z</time>
      </trkpt>
      <trkpt lat="48.68455" lon="1.71915">
        <ele>179</ele>
        <time>2012-03-08T11:22:28.000Z</time>
      </trkpt>
      <trkpt lat="48.68455" lon="1.71922">
        <ele>179</ele>
        <time>2012-03-08T11:22:31.000Z</time>
      </trkpt>
      <trkpt lat="48.68456" lon="1.71941">
        <ele>178.80000305176</ele>
        <time>2012-03-08T11:22:39.000Z</time>
      </trkpt>
      <trkpt lat="48.68457" lon="1.71961">
        <ele>178.80000305176</ele>
        <time>2012-03-08T11:22:48.000Z</time>
      </trkpt>
      <trkpt lat="48.6846" lon="1.71977">
        <ele>178.60000610352</ele>
        <time>2012-03-08T11:22:55.000Z</time>
      </trkpt>
      <trkpt lat="48.6846" lon="1.71994">
        <ele>178.60000610352</ele>
        <time>2012-03-08T11:23:02.000Z</time>
      </trkpt>
      <trkpt lat="48.6846" lon="1.71999">
        <ele>178.39999389648</ele>
        <time>2012-03-08T11:23:04.000Z</time>
      </trkpt>
      <trkpt lat="48.68463" lon="1.72017">
        <ele>178.39999389648</ele>
        <time>2012-03-08T11:23:11.000Z</time>
      </trkpt>
      <trkpt lat="48.68462" lon="1.72033">
        <ele>178.19999694824</ele>
        <time>2012-03-08T11:23:18.000Z</time>
      </trkpt>
      <trkpt lat="48.68462" lon="1.72045">
        <ele>178.19999694824</ele>
        <time>2012-03-08T11:23:24.000Z</time>
      </trkpt>
      <trkpt lat="48.68464" lon="1.72059">
        <ele>178</ele>
        <time>2012-03-08T11:23:30.000Z</time>
      </trkpt>
      <trkpt lat="48.68463" lon="1.72075">
        <ele>178</ele>
        <time>2012-03-08T11:23:37.000Z</time>
      </trkpt>
      <trkpt lat="48.68465" lon="1.72089">
        <ele>178</ele>
        <time>2012-03-08T11:23:43.000Z</time>
      </trkpt>
      <trkpt lat="48.68467" lon="1.72106">
        <ele>178.19999694824</ele>
        <time>2012-03-08T11:23:50.000Z</time>
      </trkpt>
      <trkpt lat="48.68471" lon="1.72124">
        <ele>178.39999389648</ele>
        <time>2012-03-08T11:23:58.000Z</time>
      </trkpt>
      <trkpt lat="48.68471" lon="1.72133">
        <ele>178.39999389648</ele>
        <time>2012-03-08T11:24:02.000Z</time>
      </trkpt>
      <trkpt lat="48.68472" lon="1.7215">
        <ele>178.80000305176</ele>
        <time>2012-03-08T11:24:09.000Z</time>
      </trkpt>
      <trkpt lat="48.68473" lon="1.7217">
        <ele>179</ele>
        <time>2012-03-08T11:24:18.000Z</time>
      </trkpt>
      <trkpt lat="48.68474" lon="1.72172">
        <ele>179</ele>
        <time>2012-03-08T11:24:19.000Z</time>
      </trkpt>
      <trkpt lat="48.68475" lon="1.7219">
        <ele>178.80000305176</ele>
        <time>2012-03-08T11:24:27.000Z</time>
      </trkpt>
      <trkpt lat="48.68475" lon="1.72205">
        <ele>178.60000610352</ele>
        <time>2012-03-08T11:24:33.000Z</time>
      </trkpt>
      <trkpt lat="48.68475" lon="1.72213">
        <ele>178.60000610352</ele>
        <time>2012-03-08T11:24:38.000Z</time>
      </trkpt>
      <trkpt lat="48.68475" lon="1.72213">
        <ele>178.60000610352</ele>
        <time>2012-03-08T11:24:39.000Z</time>
      </trkpt>
      <trkpt lat="48.68475" lon="1.72225">
        <ele>178.60000610352</ele>
        <time>2012-03-08T11:24:52.000Z</time>
      </trkpt>
      <trkpt lat="48.68475" lon="1.7224">
        <ele>178.39999389648</ele>
        <time>2012-03-08T11:24:58.000Z</time>
      </trkpt>
      <trkpt lat="48.68476" lon="1.72256">
        <ele>178.19999694824</ele>
        <time>2012-03-08T11:25:06.000Z</time>
      </trkpt>
      <trkpt lat="48.68478" lon="1.72276">
        <ele>178</ele>
        <time>2012-03-08T11:25:15.000Z</time>
      </trkpt>
      <trkpt lat="48.68477" lon="1.72293">
        <ele>178</ele>
        <time>2012-03-08T11:25:22.000Z</time>
      </trkpt>
      <trkpt lat="48.68479" lon="1.72309">
        <ele>177.80000305176</ele>
        <time>2012-03-08T11:25:29.000Z</time>
      </trkpt>
      <trkpt lat="48.68482" lon="1.72326">
        <ele>177.60000610352</ele>
        <time>2012-03-08T11:25:37.000Z</time>
      </trkpt>
      <trkpt lat="48.68481" lon="1.72335">
        <ele>177.39999389648</ele>
        <time>2012-03-08T11:25:41.000Z</time>
      </trkpt>
      <trkpt lat="48.68481" lon="1.72348">
        <ele>177.60000610352</ele>
        <time>2012-03-08T11:25:47.000Z</time>
      </trkpt>
      <trkpt lat="48.68481" lon="1.72351">
        <ele>177.60000610352</ele>
        <time>2012-03-08T11:25:48.000Z</time>
      </trkpt>
      <trkpt lat="48.6848" lon="1.7236">
        <ele>177.60000610352</ele>
        <time>2012-03-08T11:25:52.000Z</time>
      </trkpt>
      <trkpt lat="48.68481" lon="1.7238">
        <ele>177.80000305176</ele>
        <time>2012-03-08T11:26:01.000Z</time>
      </trkpt>
      <trkpt lat="48.68482" lon="1.72395">
        <ele>177.80000305176</ele>
        <time>2012-03-08T11:26:07.000Z</time>
      </trkpt>
      <trkpt lat="48.68484" lon="1.72411">
        <ele>178</ele>
        <time>2012-03-08T11:26:14.000Z</time>
      </trkpt>
      <trkpt lat="48.68484" lon="1.72413">
        <ele>178</ele>
        <time>2012-03-08T11:26:15.000Z</time>
      </trkpt>
      <trkpt lat="48.68486" lon="1.72429">
        <ele>177.60000610352</ele>
        <time>2012-03-08T11:26:22.000Z</time>
      </trkpt>
      <trkpt lat="48.68485" lon="1.72446">
        <ele>177.19999694824</ele>
        <time>2012-03-08T11:26:29.000Z</time>
      </trkpt>
      <trkpt lat="48.68484" lon="1.72457">
        <ele>176.80000305176</ele>
        <time>2012-03-08T11:26:34.000Z</time>
      </trkpt>
      <trkpt lat="48.68485" lon="1.72459">
        <ele>176.80000305176</ele>
        <time>2012-03-08T11:26:35.000Z</time>
      </trkpt>
      <trkpt lat="48.68488" lon="1.7247">
        <ele>176.39999389648</ele>
        <time>2012-03-08T11:26:40.000Z</time>
      </trkpt>
      <trkpt lat="48.68489" lon="1.72475">
        <ele>176.39999389648</ele>
        <time>2012-03-08T11:26:43.000Z</time>
      </trkpt>
      <trkpt lat="48.68491" lon="1.72488">
        <ele>176</ele>
        <time>2012-03-08T11:26:52.000Z</time>
      </trkpt>
      <trkpt lat="48.68491" lon="1.725">
        <ele>175.60000610352</ele>
        <time>2012-03-08T11:26:59.000Z</time>
      </trkpt>
      <trkpt lat="48.68491" lon="1.72507">
        <ele>175.60000610352</ele>
        <time>2012-03-08T11:27:02.000Z</time>
      </trkpt>
      <trkpt lat="48.6849" lon="1.72518">
        <ele>175.60000610352</ele>
        <time>2012-03-08T11:27:07.000Z</time>
      </trkpt>
      <trkpt lat="48.68491" lon="1.72527">
        <ele>175.60000610352</ele>
        <time>2012-03-08T11:27:12.000Z</time>
      </trkpt>
      <trkpt lat="48.68492" lon="1.72532">
        <ele>175.80000305176</ele>
        <time>2012-03-08T11:27:14.000Z</time>
      </trkpt>
      <trkpt lat="48.68492" lon="1.72538">
        <ele>175.80000305176</ele>
        <time>2012-03-08T11:27:17.000Z</time>
      </trkpt>
      <trkpt lat="48.68492" lon="1.72553">
        <ele>175.80000305176</ele>
        <time>2012-03-08T11:27:24.000Z</time>
      </trkpt>
      <trkpt lat="48.68493" lon="1.72568">
        <ele>175.80000305176</ele>
        <time>2012-03-08T11:27:30.000Z</time>
      </trkpt>
      <trkpt lat="48.68495" lon="1.72577">
        <ele>175.80000305176</ele>
        <time>2012-03-08T11:27:35.000Z</time>
      </trkpt>
      <trkpt lat="48.68497" lon="1.72592">
        <ele>175.80000305176</ele>
        <time>2012-03-08T11:27:42.000Z</time>
      </trkpt>
      <trkpt lat="48.68499" lon="1.72606">
        <ele>175.80000305176</ele>
        <time>2012-03-08T11:27:49.000Z</time>
      </trkpt>
      <trkpt lat="48.685" lon="1.72618">
        <ele>175.60000610352</ele>
        <time>2012-03-08T11:27:55.000Z</time>
      </trkpt>
      <trkpt lat="48.685" lon="1.7263">
        <ele>175.39999389648</ele>
        <time>2012-03-08T11:28:01.000Z</time>
      </trkpt>
      <trkpt lat="48.68501" lon="1.72642">
        <ele>175.19999694824</ele>
        <time>2012-03-08T11:28:07.000Z</time>
      </trkpt>
      <trkpt lat="48.68501" lon="1.72646">
        <ele>175.19999694824</ele>
        <time>2012-03-08T11:28:09.000Z</time>
      </trkpt>
      <trkpt lat="48.68501" lon="1.72655">
        <ele>175.19999694824</ele>
        <time>2012-03-08T11:28:13.000Z</time>
      </trkpt>
      <trkpt lat="48.68503" lon="1.72667">
        <ele>175</ele>
        <time>2012-03-08T11:28:19.000Z</time>
      </trkpt>
      <trkpt lat="48.68501" lon="1.7268">
        <ele>174.80000305176</ele>
        <time>2012-03-08T11:28:26.000Z</time>
      </trkpt>
      <trkpt lat="48.685" lon="1.72689">
        <ele>174.80000305176</ele>
        <time>2012-03-08T11:28:32.000Z</time>
      </trkpt>
      <trkpt lat="48.685" lon="1.72695">
        <ele>174.60000610352</ele>
        <time>2012-03-08T11:28:35.000Z</time>
      </trkpt>
      <trkpt lat="48.68502" lon="1.72711">
        <ele>174.39999389648</ele>
        <time>2012-03-08T11:28:43.000Z</time>
      </trkpt>
      <trkpt lat="48.68502" lon="1.72713">
        <ele>174.39999389648</ele>
        <time>2012-03-08T11:28:44.000Z</time>
      </trkpt>
      <trkpt lat="48.68503" lon="1.72726">
        <ele>174.19999694824</ele>
        <time>2012-03-08T11:28:51.000Z</time>
      </trkpt>
      <trkpt lat="48.68504" lon="1.72731">
        <ele>174.19999694824</ele>
        <time>2012-03-08T11:28:53.000Z</time>
      </trkpt>
      <trkpt lat="48.68505" lon="1.72744">
        <ele>174</ele>
        <time>2012-03-08T11:28:59.000Z</time>
      </trkpt>
      <trkpt lat="48.68507" lon="1.72756">
        <ele>174</ele>
        <time>2012-03-08T11:29:05.000Z</time>
      </trkpt>
      <trkpt lat="48.68509" lon="1.7277">
        <ele>173.80000305176</ele>
        <time>2012-03-08T11:29:12.000Z</time>
      </trkpt>
      <trkpt lat="48.68509" lon="1.72779">
        <ele>173.80000305176</ele>
        <time>2012-03-08T11:29:17.000Z</time>
      </trkpt>
      <trkpt lat="48.68508" lon="1.72783">
        <ele>173.80000305176</ele>
        <time>2012-03-08T11:29:19.000Z</time>
      </trkpt>
      <trkpt lat="48.68509" lon="1.72799">
        <ele>173.80000305176</ele>
        <time>2012-03-08T11:29:27.000Z</time>
      </trkpt>
      <trkpt lat="48.68511" lon="1.72814">
        <ele>173.80000305176</ele>
        <time>2012-03-08T11:29:34.000Z</time>
      </trkpt>
      <trkpt lat="48.68513" lon="1.7283">
        <ele>173.60000610352</ele>
        <time>2012-03-08T11:29:42.000Z</time>
      </trkpt>
      <trkpt lat="48.68512" lon="1.72834">
        <ele>173.60000610352</ele>
        <time>2012-03-08T11:29:45.000Z</time>
      </trkpt>
      <trkpt lat="48.68511" lon="1.72842">
        <ele>173.39999389648</ele>
        <time>2012-03-08T11:29:49.000Z</time>
      </trkpt>
      <trkpt lat="48.6851" lon="1.72852">
        <ele>173.19999694824</ele>
        <time>2012-03-08T11:29:54.000Z</time>
      </trkpt>
      <trkpt lat="48.68513" lon="1.72874">
        <ele>172.39999389648</ele>
        <time>2012-03-08T11:30:05.000Z</time>
      </trkpt>
      <trkpt lat="48.68514" lon="1.72893">
        <ele>171.80000305176</ele>
        <time>2012-03-08T11:30:14.000Z</time>
      </trkpt>
      <trkpt lat="48.68515" lon="1.72909">
        <ele>171.39999389648</ele>
        <time>2012-03-08T11:30:21.000Z</time>
      </trkpt>
      <trkpt lat="48.68516" lon="1.72927">
        <ele>171</ele>
        <time>2012-03-08T11:30:26.000Z</time>
      </trkpt>
      <trkpt lat="48.68518" lon="1.72962">
        <ele>170.19999694824</ele>
        <time>2012-03-08T11:30:33.000Z</time>
      </trkpt>
      <trkpt lat="48.68522" lon="1.73004">
        <ele>169.39999389648</ele>
        <time>2012-03-08T11:30:41.000Z</time>
      </trkpt>
      <trkpt lat="48.68527" lon="1.73041">
        <ele>168.60000610352</ele>
        <time>2012-03-08T11:30:48.000Z</time>
      </trkpt>
      <trkpt lat="48.68534" lon="1.73088">
        <ele>167.80000305176</ele>
        <time>2012-03-08T11:30:57.000Z</time>
      </trkpt>
      <trkpt lat="48.6854" lon="1.73131">
        <ele>168</ele>
        <time>2012-03-08T11:31:05.000Z</time>
      </trkpt>
      <trkpt lat="48.68546" lon="1.73171">
        <ele>168.19999694824</ele>
        <time>2012-03-08T11:31:13.000Z</time>
      </trkpt>
      <trkpt lat="48.68551" lon="1.73206">
        <ele>167.39999389648</ele>
        <time>2012-03-08T11:31:20.000Z</time>
      </trkpt>
      <trkpt lat="48.68556" lon="1.73236">
        <ele>166.80000305176</ele>
        <time>2012-03-08T11:31:26.000Z</time>
      </trkpt>
      <trkpt lat="48.68561" lon="1.73269">
        <ele>166.60000610352</ele>
        <time>2012-03-08T11:31:32.000Z</time>
      </trkpt>
      <trkpt lat="48.68565" lon="1.73293">
        <ele>166.80000305176</ele>
        <time>2012-03-08T11:31:37.000Z</time>
      </trkpt>
      <trkpt lat="48.68567" lon="1.73309">
        <ele>167</ele>
        <time>2012-03-08T11:31:43.000Z</time>
      </trkpt>
      <trkpt lat="48.6857" lon="1.73327">
        <ele>167.19999694824</ele>
        <time>2012-03-08T11:31:50.000Z</time>
      </trkpt>
      <trkpt lat="48.68571" lon="1.73345">
        <ele>167.39999389648</ele>
        <time>2012-03-08T11:31:57.000Z</time>
      </trkpt>
      <trkpt lat="48.68572" lon="1.7335">
        <ele>167.39999389648</ele>
        <time>2012-03-08T11:31:59.000Z</time>
      </trkpt>
      <trkpt lat="48.68572" lon="1.73363">
        <ele>167.39999389648</ele>
        <time>2012-03-08T11:32:05.000Z</time>
      </trkpt>
      <trkpt lat="48.68574" lon="1.73374">
        <ele>167.39999389648</ele>
        <time>2012-03-08T11:32:10.000Z</time>
      </trkpt>
      <trkpt lat="48.68573" lon="1.73381">
        <ele>167.39999389648</ele>
        <time>2012-03-08T11:32:13.000Z</time>
      </trkpt>
      <trkpt lat="48.68575" lon="1.73393">
        <ele>167.39999389648</ele>
        <time>2012-03-08T11:32:18.000Z</time>
      </trkpt>
      <trkpt lat="48.68578" lon="1.73408">
        <ele>167.19999694824</ele>
        <time>2012-03-08T11:32:25.000Z</time>
      </trkpt>
      <trkpt lat="48.68581" lon="1.73423">
        <ele>166.80000305176</ele>
        <time>2012-03-08T11:32:32.000Z</time>
      </trkpt>
      <trkpt lat="48.68583" lon="1.73433">
        <ele>166.39999389648</ele>
        <time>2012-03-08T11:32:37.000Z</time>
      </trkpt>
      <trkpt lat="48.68586" lon="1.73448">
        <ele>165.80000305176</ele>
        <time>2012-03-08T11:32:43.000Z</time>
      </trkpt>
      <trkpt lat="48.68586" lon="1.73453">
        <ele>165.60000610352</ele>
        <time>2012-03-08T11:32:45.000Z</time>
      </trkpt>
      <trkpt lat="48.68591" lon="1.73469">
        <ele>165</ele>
        <time>2012-03-08T11:32:53.000Z</time>
      </trkpt>
      <trkpt lat="48.68592" lon="1.73477">
        <ele>164.60000610352</ele>
        <time>2012-03-08T11:32:56.000Z</time>
      </trkpt>
      <trkpt lat="48.68592" lon="1.7348">
        <ele>164.60000610352</ele>
        <time>2012-03-08T11:33:00.000Z</time>
      </trkpt>
      <trkpt lat="48.68593" lon="1.73488">
        <ele>164.39999389648</ele>
        <time>2012-03-08T11:33:08.000Z</time>
      </trkpt>
      <trkpt lat="48.68598" lon="1.73502">
        <ele>164</ele>
        <time>2012-03-08T11:33:14.000Z</time>
      </trkpt>
      <trkpt lat="48.686" lon="1.73519">
        <ele>163.80000305176</ele>
        <time>2012-03-08T11:33:21.000Z</time>
      </trkpt>
      <trkpt lat="48.68602" lon="1.7353">
        <ele>163.60000610352</ele>
        <time>2012-03-08T11:33:25.000Z</time>
      </trkpt>
      <trkpt lat="48.68604" lon="1.73544">
        <ele>163.39999389648</ele>
        <time>2012-03-08T11:33:31.000Z</time>
      </trkpt>
      <trkpt lat="48.68607" lon="1.73553">
        <ele>163.39999389648</ele>
        <time>2012-03-08T11:33:36.000Z</time>
      </trkpt>
      <trkpt lat="48.68617" lon="1.73554">
        <ele>163.80000305176</ele>
        <time>2012-03-08T11:33:43.000Z</time>
      </trkpt>
      <trkpt lat="48.68622" lon="1.73556">
        <ele>163.80000305176</ele>
        <time>2012-03-08T11:33:47.000Z</time>
      </trkpt>
      <trkpt lat="48.68628" lon="1.73557">
        <ele>164</ele>
        <time>2012-03-08T11:33:51.000Z</time>
      </trkpt>
      <trkpt lat="48.68641" lon="1.73561">
        <ele>164.60000610352</ele>
        <time>2012-03-08T11:33:59.000Z</time>
      </trkpt>
      <trkpt lat="48.68649" lon="1.73562">
        <ele>164.80000305176</ele>
        <time>2012-03-08T11:34:04.000Z</time>
      </trkpt>
      <trkpt lat="48.68661" lon="1.73562">
        <ele>165.19999694824</ele>
        <time>2012-03-08T11:34:11.000Z</time>
      </trkpt>
      <trkpt lat="48.68672" lon="1.73561">
        <ele>165.80000305176</ele>
        <time>2012-03-08T11:34:18.000Z</time>
      </trkpt>
      <trkpt lat="48.68678" lon="1.73561">
        <ele>166</ele>
        <time>2012-03-08T11:34:22.000Z</time>
      </trkpt>
      <trkpt lat="48.68689" lon="1.73562">
        <ele>166.60000610352</ele>
        <time>2012-03-08T11:34:30.000Z</time>
      </trkpt>
      <trkpt lat="48.68698" lon="1.73563">
        <ele>167</ele>
        <time>2012-03-08T11:34:38.000Z</time>
      </trkpt>
      <trkpt lat="48.6871" lon="1.73562">
        <ele>167.80000305176</ele>
        <time>2012-03-08T11:34:46.000Z</time>
      </trkpt>
      <trkpt lat="48.68716" lon="1.73564">
        <ele>168</ele>
        <time>2012-03-08T11:34:51.000Z</time>
      </trkpt>
      <trkpt lat="48.68725" lon="1.73564">
        <ele>168.60000610352</ele>
        <time>2012-03-08T11:34:58.000Z</time>
      </trkpt>
      <trkpt lat="48.68736" lon="1.73565">
        <ele>169</ele>
        <time>2012-03-08T11:35:05.000Z</time>
      </trkpt>
      <trkpt lat="48.68747" lon="1.73567">
        <ele>169.60000610352</ele>
        <time>2012-03-08T11:35:13.000Z</time>
      </trkpt>
      <trkpt lat="48.68758" lon="1.73567">
        <ele>169.80000305176</ele>
        <time>2012-03-08T11:35:19.000Z</time>
      </trkpt>
      <trkpt lat="48.68772" lon="1.73568">
        <ele>170</ele>
        <time>2012-03-08T11:35:27.000Z</time>
      </trkpt>
      <trkpt lat="48.68783" lon="1.73569">
        <ele>170</ele>
        <time>2012-03-08T11:35:34.000Z</time>
      </trkpt>
      <trkpt lat="48.68795" lon="1.73572">
        <ele>170</ele>
        <time>2012-03-08T11:35:42.000Z</time>
      </trkpt>
      <trkpt lat="48.688" lon="1.73574">
        <ele>170</ele>
        <time>2012-03-08T11:35:46.000Z</time>
      </trkpt>
      <trkpt lat="48.68801" lon="1.73576">
        <ele>170</ele>
        <time>2012-03-08T11:35:50.000Z</time>
      </trkpt>
      <trkpt lat="48.68808" lon="1.73575">
        <ele>170.19999694824</ele>
        <time>2012-03-08T11:36:03.000Z</time>
      </trkpt>
      <trkpt lat="48.68821" lon="1.73576">
        <ele>170.19999694824</ele>
        <time>2012-03-08T11:36:09.000Z</time>
      </trkpt>
      <trkpt lat="48.68831" lon="1.73576">
        <ele>170.19999694824</ele>
        <time>2012-03-08T11:36:15.000Z</time>
      </trkpt>
      <trkpt lat="48.68835" lon="1.73576">
        <ele>170.19999694824</ele>
        <time>2012-03-08T11:36:21.000Z</time>
      </trkpt>
      <trkpt lat="48.6884" lon="1.73574">
        <ele>170.19999694824</ele>
        <time>2012-03-08T11:36:27.000Z</time>
      </trkpt>
      <trkpt lat="48.68843" lon="1.73578">
        <ele>170</ele>
        <time>2012-03-08T11:36:30.000Z</time>
      </trkpt>
      <trkpt lat="48.68851" lon="1.73579">
        <ele>169.80000305176</ele>
        <time>2012-03-08T11:36:36.000Z</time>
      </trkpt>
      <trkpt lat="48.68862" lon="1.73579">
        <ele>169.80000305176</ele>
        <time>2012-03-08T11:36:43.000Z</time>
      </trkpt>
      <trkpt lat="48.68871" lon="1.73583">
        <ele>169.60000610352</ele>
        <time>2012-03-08T11:36:49.000Z</time>
      </trkpt>
      <trkpt lat="48.68882" lon="1.73584">
        <ele>169.39999389648</ele>
        <time>2012-03-08T11:36:57.000Z</time>
      </trkpt>
      <trkpt lat="48.68897" lon="1.73585">
        <ele>169.19999694824</ele>
        <time>2012-03-08T11:37:06.000Z</time>
      </trkpt>
      <trkpt lat="48.68905" lon="1.73582">
        <ele>169.19999694824</ele>
        <time>2012-03-08T11:37:12.000Z</time>
      </trkpt>
      <trkpt lat="48.68912" lon="1.73583">
        <ele>169</ele>
        <time>2012-03-08T11:37:19.000Z</time>
      </trkpt>
      <trkpt lat="48.68921" lon="1.73583">
        <ele>169.19999694824</ele>
        <time>2012-03-08T11:37:26.000Z</time>
      </trkpt>
      <trkpt lat="48.68927" lon="1.73584">
        <ele>169.19999694824</ele>
        <time>2012-03-08T11:37:30.000Z</time>
      </trkpt>
      <trkpt lat="48.68938" lon="1.73587">
        <ele>169.60000610352</ele>
        <time>2012-03-08T11:37:38.000Z</time>
      </trkpt>
      <trkpt lat="48.68942" lon="1.73587">
        <ele>169.80000305176</ele>
        <time>2012-03-08T11:37:41.000Z</time>
      </trkpt>
      <trkpt lat="48.68953" lon="1.73589">
        <ele>170</ele>
        <time>2012-03-08T11:37:49.000Z</time>
      </trkpt>
      <trkpt lat="48.68965" lon="1.73592">
        <ele>170.39999389648</ele>
        <time>2012-03-08T11:37:56.000Z</time>
      </trkpt>
      <trkpt lat="48.68977" lon="1.73594">
        <ele>170.60000610352</ele>
        <time>2012-03-08T11:38:04.000Z</time>
      </trkpt>
      <trkpt lat="48.68988" lon="1.73596">
        <ele>171</ele>
        <time>2012-03-08T11:38:12.000Z</time>
      </trkpt>
      <trkpt lat="48.68997" lon="1.73594">
        <ele>171.19999694824</ele>
        <time>2012-03-08T11:38:18.000Z</time>
      </trkpt>
      <trkpt lat="48.69011" lon="1.73594">
        <ele>171.80000305176</ele>
        <time>2012-03-08T11:38:25.000Z</time>
      </trkpt>
      <trkpt lat="48.69025" lon="1.73594">
        <ele>172.60000610352</ele>
        <time>2012-03-08T11:38:33.000Z</time>
      </trkpt>
      <trkpt lat="48.69038" lon="1.73598">
        <ele>173.39999389648</ele>
        <time>2012-03-08T11:38:40.000Z</time>
      </trkpt>
      <trkpt lat="48.69047" lon="1.73599">
        <ele>173.80000305176</ele>
        <time>2012-03-08T11:38:46.000Z</time>
      </trkpt>
      <trkpt lat="48.69058" lon="1.73598">
        <ele>174.39999389648</ele>
        <time>2012-03-08T11:38:54.000Z</time>
      </trkpt>
      <trkpt lat="48.69065" lon="1.736">
        <ele>174.80000305176</ele>
        <time>2012-03-08T11:39:00.000Z</time>
      </trkpt>
      <trkpt lat="48.69071" lon="1.736">
        <ele>175.19999694824</ele>
        <time>2012-03-08T11:39:04.000Z</time>
      </trkpt>
      <trkpt lat="48.69073" lon="1.73601">
        <ele>175.19999694824</ele>
        <time>2012-03-08T11:39:05.000Z</time>
      </trkpt>
      <trkpt lat="48.69081" lon="1.736">
        <ele>175.60000610352</ele>
        <time>2012-03-08T11:39:11.000Z</time>
      </trkpt>
      <trkpt lat="48.69085" lon="1.73601">
        <ele>175.80000305176</ele>
        <time>2012-03-08T11:39:13.000Z</time>
      </trkpt>
      <trkpt lat="48.69095" lon="1.73605">
        <ele>176.39999389648</ele>
        <time>2012-03-08T11:39:19.000Z</time>
      </trkpt>
      <trkpt lat="48.69106" lon="1.73606">
        <ele>177</ele>
        <time>2012-03-08T11:39:25.000Z</time>
      </trkpt>
      <trkpt lat="48.69116" lon="1.73605">
        <ele>177.39999389648</ele>
        <time>2012-03-08T11:39:32.000Z</time>
      </trkpt>
      <trkpt lat="48.69117" lon="1.73608">
        <ele>177.60000610352</ele>
        <time>2012-03-08T11:39:35.000Z</time>
      </trkpt>
      <trkpt lat="48.69129" lon="1.73608">
        <ele>178.19999694824</ele>
        <time>2012-03-08T11:39:41.000Z</time>
      </trkpt>
      <trkpt lat="48.69135" lon="1.73609">
        <ele>178.39999389648</ele>
        <time>2012-03-08T11:39:47.000Z</time>
      </trkpt>
      <trkpt lat="48.69144" lon="1.73608">
        <ele>178.80000305176</ele>
        <time>2012-03-08T11:39:53.000Z</time>
      </trkpt>
      <trkpt lat="48.69155" lon="1.7361">
        <ele>179.39999389648</ele>
        <time>2012-03-08T11:40:00.000Z</time>
      </trkpt>
      <trkpt lat="48.69165" lon="1.73613">
        <ele>179.80000305176</ele>
        <time>2012-03-08T11:40:07.000Z</time>
      </trkpt>
      <trkpt lat="48.69174" lon="1.73614">
        <ele>179.80000305176</ele>
        <time>2012-03-08T11:40:13.000Z</time>
      </trkpt>
      <trkpt lat="48.69181" lon="1.73615">
        <ele>179.60000610352</ele>
        <time>2012-03-08T11:40:18.000Z</time>
      </trkpt>
      <trkpt lat="48.69191" lon="1.73617">
        <ele>179.19999694824</ele>
        <time>2012-03-08T11:40:25.000Z</time>
      </trkpt>
      <trkpt lat="48.69198" lon="1.73617">
        <ele>179</ele>
        <time>2012-03-08T11:40:30.000Z</time>
      </trkpt>
      <trkpt lat="48.69208" lon="1.73616">
        <ele>178.80000305176</ele>
        <time>2012-03-08T11:40:36.000Z</time>
      </trkpt>
      <trkpt lat="48.69218" lon="1.73619">
        <ele>178.39999389648</ele>
        <time>2012-03-08T11:40:42.000Z</time>
      </trkpt>
      <trkpt lat="48.69231" lon="1.7362">
        <ele>178</ele>
        <time>2012-03-08T11:40:49.000Z</time>
      </trkpt>
      <trkpt lat="48.69245" lon="1.73621">
        <ele>177.39999389648</ele>
        <time>2012-03-08T11:40:59.000Z</time>
      </trkpt>
      <trkpt lat="48.69259" lon="1.73621">
        <ele>177</ele>
        <time>2012-03-08T11:41:08.000Z</time>
      </trkpt>
      <trkpt lat="48.69272" lon="1.73623">
        <ele>176.19999694824</ele>
        <time>2012-03-08T11:41:16.000Z</time>
      </trkpt>
      <trkpt lat="48.69292" lon="1.73626">
        <ele>175.19999694824</ele>
        <time>2012-03-08T11:41:28.000Z</time>
      </trkpt>
      <trkpt lat="48.69305" lon="1.73629">
        <ele>174.39999389648</ele>
        <time>2012-03-08T11:41:36.000Z</time>
      </trkpt>
      <trkpt lat="48.69319" lon="1.73629">
        <ele>173.80000305176</ele>
        <time>2012-03-08T11:41:43.000Z</time>
      </trkpt>
      <trkpt lat="48.69331" lon="1.73631">
        <ele>173.19999694824</ele>
        <time>2012-03-08T11:41:50.000Z</time>
      </trkpt>
      <trkpt lat="48.69341" lon="1.73631">
        <ele>173</ele>
        <time>2012-03-08T11:41:57.000Z</time>
      </trkpt>
      <trkpt lat="48.69353" lon="1.73632">
        <ele>172.60000610352</ele>
        <time>2012-03-08T11:42:04.000Z</time>
      </trkpt>
      <trkpt lat="48.69361" lon="1.73634">
        <ele>172.39999389648</ele>
        <time>2012-03-08T11:42:09.000Z</time>
      </trkpt>
      <trkpt lat="48.69375" lon="1.73635">
        <ele>172</ele>
        <time>2012-03-08T11:42:17.000Z</time>
      </trkpt>
      <trkpt lat="48.69383" lon="1.73635">
        <ele>171.80000305176</ele>
        <time>2012-03-08T11:42:21.000Z</time>
      </trkpt>
      <trkpt lat="48.69392" lon="1.73636">
        <ele>171.60000610352</ele>
        <time>2012-03-08T11:42:26.000Z</time>
      </trkpt>
      <trkpt lat="48.69409" lon="1.73636">
        <ele>171.19999694824</ele>
        <time>2012-03-08T11:42:35.000Z</time>
      </trkpt>
      <trkpt lat="48.69423" lon="1.73639">
        <ele>171.19999694824</ele>
        <time>2012-03-08T11:42:42.000Z</time>
      </trkpt>
      <trkpt lat="48.69432" lon="1.73638">
        <ele>171.60000610352</ele>
        <time>2012-03-08T11:42:47.000Z</time>
      </trkpt>
      <trkpt lat="48.69442" lon="1.73641">
        <ele>172</ele>
        <time>2012-03-08T11:42:54.000Z</time>
      </trkpt>
      <trkpt lat="48.69453" lon="1.73641">
        <ele>172.39999389648</ele>
        <time>2012-03-08T11:43:00.000Z</time>
      </trkpt>
      <trkpt lat="48.69461" lon="1.73643">
        <ele>172.80000305176</ele>
        <time>2012-03-08T11:43:05.000Z</time>
      </trkpt>
      <trkpt lat="48.69473" lon="1.73645">
        <ele>173.19999694824</ele>
        <time>2012-03-08T11:43:13.000Z</time>
      </trkpt>
      <trkpt lat="48.69486" lon="1.73644">
        <ele>173.80000305176</ele>
        <time>2012-03-08T11:43:20.000Z</time>
      </trkpt>
      <trkpt lat="48.69498" lon="1.73644">
        <ele>174.19999694824</ele>
        <time>2012-03-08T11:43:28.000Z</time>
      </trkpt>
      <trkpt lat="48.69507" lon="1.73644">
        <ele>174.80000305176</ele>
        <time>2012-03-08T11:43:35.000Z</time>
      </trkpt>
      <trkpt lat="48.69518" lon="1.73646">
        <ele>175.60000610352</ele>
        <time>2012-03-08T11:43:41.000Z</time>
      </trkpt>
      <trkpt lat="48.6953" lon="1.73649">
        <ele>176.39999389648</ele>
        <time>2012-03-08T11:43:48.000Z</time>
      </trkpt>
      <trkpt lat="48.69541" lon="1.73649">
        <ele>177.19999694824</ele>
        <time>2012-03-08T11:43:55.000Z</time>
      </trkpt>
      <trkpt lat="48.69548" lon="1.7365">
        <ele>177.80000305176</ele>
        <time>2012-03-08T11:43:59.000Z</time>
      </trkpt>
      <trkpt lat="48.69559" lon="1.73649">
        <ele>178.60000610352</ele>
        <time>2012-03-08T11:44:07.000Z</time>
      </trkpt>
      <trkpt lat="48.69567" lon="1.73649">
        <ele>179.19999694824</ele>
        <time>2012-03-08T11:44:13.000Z</time>
      </trkpt>
      <trkpt lat="48.69579" lon="1.73649">
        <ele>180.19999694824</ele>
        <time>2012-03-08T11:44:21.000Z</time>
      </trkpt>
      <trkpt lat="48.69593" lon="1.73649">
        <ele>180.39999389648</ele>
        <time>2012-03-08T11:44:30.000Z</time>
      </trkpt>
      <trkpt lat="48.69605" lon="1.73652">
        <ele>180.39999389648</ele>
        <time>2012-03-08T11:44:38.000Z</time>
      </trkpt>
      <trkpt lat="48.69613" lon="1.73653">
        <ele>180.19999694824</ele>
        <time>2012-03-08T11:44:45.000Z</time>
      </trkpt>
      <trkpt lat="48.69621" lon="1.73655">
        <ele>180.19999694824</ele>
        <time>2012-03-08T11:44:53.000Z</time>
      </trkpt>
      <trkpt lat="48.69628" lon="1.73655">
        <ele>180.19999694824</ele>
        <time>2012-03-08T11:44:58.000Z</time>
      </trkpt>
      <trkpt lat="48.69638" lon="1.73657">
        <ele>180.19999694824</ele>
        <time>2012-03-08T11:45:04.000Z</time>
      </trkpt>
      <trkpt lat="48.6964" lon="1.73657">
        <ele>180.19999694824</ele>
        <time>2012-03-08T11:45:06.000Z</time>
      </trkpt>
      <trkpt lat="48.6964" lon="1.73663">
        <ele>180</ele>
        <time>2012-03-08T11:45:10.000Z</time>
      </trkpt>
      <trkpt lat="48.69644" lon="1.73664">
        <ele>180</ele>
        <time>2012-03-08T11:45:14.000Z</time>
      </trkpt>
      <trkpt lat="48.69658" lon="1.73664">
        <ele>180</ele>
        <time>2012-03-08T11:45:25.000Z</time>
      </trkpt>
      <trkpt lat="48.6967" lon="1.73666">
        <ele>180</ele>
        <time>2012-03-08T11:45:33.000Z</time>
      </trkpt>
      <trkpt lat="48.69679" lon="1.73667">
        <ele>180</ele>
        <time>2012-03-08T11:45:40.000Z</time>
      </trkpt>
      <trkpt lat="48.69685" lon="1.73668">
        <ele>180</ele>
        <time>2012-03-08T11:45:44.000Z</time>
      </trkpt>
      <trkpt lat="48.69697" lon="1.73668">
        <ele>180</ele>
        <time>2012-03-08T11:45:53.000Z</time>
      </trkpt>
      <trkpt lat="48.69705" lon="1.73668">
        <ele>180</ele>
        <time>2012-03-08T11:45:59.000Z</time>
      </trkpt>
      <trkpt lat="48.69706" lon="1.73669">
        <ele>180</ele>
        <time>2012-03-08T11:46:00.000Z</time>
      </trkpt>
      <trkpt lat="48.69712" lon="1.73668">
        <ele>180</ele>
        <time>2012-03-08T11:46:05.000Z</time>
      </trkpt>
      <trkpt lat="48.69722" lon="1.73666">
        <ele>180</ele>
        <time>2012-03-08T11:46:12.000Z</time>
      </trkpt>
      <trkpt lat="48.69732" lon="1.73667">
        <ele>180</ele>
        <time>2012-03-08T11:46:18.000Z</time>
      </trkpt>
      <trkpt lat="48.6974" lon="1.73668">
        <ele>180</ele>
        <time>2012-03-08T11:46:25.000Z</time>
      </trkpt>
      <trkpt lat="48.69754" lon="1.73669">
        <ele>179.80000305176</ele>
        <time>2012-03-08T11:46:33.000Z</time>
      </trkpt>
      <trkpt lat="48.6976" lon="1.73669">
        <ele>179.80000305176</ele>
        <time>2012-03-08T11:46:40.000Z</time>
      </trkpt>
      <trkpt lat="48.69765" lon="1.73671">
        <ele>179.60000610352</ele>
        <time>2012-03-08T11:46:44.000Z</time>
      </trkpt>
      <trkpt lat="48.69766" lon="1.73671">
        <ele>179.60000610352</ele>
        <time>2012-03-08T11:46:45.000Z</time>
      </trkpt>
      <trkpt lat="48.69772" lon="1.73668">
        <ele>179.80000305176</ele>
        <time>2012-03-08T11:46:51.000Z</time>
      </trkpt>
      <trkpt lat="48.69776" lon="1.73658">
        <ele>179.60000610352</ele>
        <time>2012-03-08T11:46:56.000Z</time>
      </trkpt>
      <trkpt lat="48.69779" lon="1.73653">
        <ele>179.60000610352</ele>
        <time>2012-03-08T11:47:00.000Z</time>
      </trkpt>
      <trkpt lat="48.69782" lon="1.73651">
        <ele>179.60000610352</ele>
        <time>2012-03-08T11:47:03.000Z</time>
      </trkpt>
      <trkpt lat="48.69783" lon="1.73642">
        <ele>179.39999389648</ele>
        <time>2012-03-08T11:47:08.000Z</time>
      </trkpt>
      <trkpt lat="48.69783" lon="1.7364">
        <ele>179.39999389648</ele>
        <time>2012-03-08T11:47:09.000Z</time>
      </trkpt>
      <trkpt lat="48.69789" lon="1.73627">
        <ele>179.19999694824</ele>
        <time>2012-03-08T11:47:15.000Z</time>
      </trkpt>
      <trkpt lat="48.69795" lon="1.73617">
        <ele>179.19999694824</ele>
        <time>2012-03-08T11:47:21.000Z</time>
      </trkpt>
      <trkpt lat="48.69797" lon="1.73604">
        <ele>179.19999694824</ele>
        <time>2012-03-08T11:47:27.000Z</time>
      </trkpt>
      <trkpt lat="48.698" lon="1.73595">
        <ele>179</ele>
        <time>2012-03-08T11:47:31.000Z</time>
      </trkpt>
      <trkpt lat="48.69808" lon="1.73582">
        <ele>179</ele>
        <time>2012-03-08T11:47:39.000Z</time>
      </trkpt>
      <trkpt lat="48.69816" lon="1.7357">
        <ele>179</ele>
        <time>2012-03-08T11:47:46.000Z</time>
      </trkpt>
      <trkpt lat="48.69818" lon="1.73559">
        <ele>179.19999694824</ele>
        <time>2012-03-08T11:47:51.000Z</time>
      </trkpt>
      <trkpt lat="48.69824" lon="1.73546">
        <ele>179.19999694824</ele>
        <time>2012-03-08T11:47:58.000Z</time>
      </trkpt>
      <trkpt lat="48.69827" lon="1.73543">
        <ele>179</ele>
        <time>2012-03-08T11:48:01.000Z</time>
      </trkpt>
      <trkpt lat="48.69828" lon="1.73541">
        <ele>179</ele>
        <time>2012-03-08T11:48:03.000Z</time>
      </trkpt>
      <trkpt lat="48.69835" lon="1.73532">
        <ele>179</ele>
        <time>2012-03-08T11:48:10.000Z</time>
      </trkpt>
      <trkpt lat="48.6984" lon="1.73523">
        <ele>178.80000305176</ele>
        <time>2012-03-08T11:48:15.000Z</time>
      </trkpt>
      <trkpt lat="48.6984" lon="1.73521">
        <ele>178.80000305176</ele>
        <time>2012-03-08T11:48:16.000Z</time>
      </trkpt>
      <trkpt lat="48.69842" lon="1.73517">
        <ele>178.60000610352</ele>
        <time>2012-03-08T11:48:18.000Z</time>
      </trkpt>
      <trkpt lat="48.69844" lon="1.73511">
        <ele>178.60000610352</ele>
        <time>2012-03-08T11:48:21.000Z</time>
      </trkpt>
      <trkpt lat="48.69852" lon="1.73498">
        <ele>178.39999389648</ele>
        <time>2012-03-08T11:48:28.000Z</time>
      </trkpt>
      <trkpt lat="48.69857" lon="1.73489">
        <ele>178.19999694824</ele>
        <time>2012-03-08T11:48:33.000Z</time>
      </trkpt>
      <trkpt lat="48.69864" lon="1.73475">
        <ele>178.19999694824</ele>
        <time>2012-03-08T11:48:40.000Z</time>
      </trkpt>
      <trkpt lat="48.69871" lon="1.73464">
        <ele>178.19999694824</ele>
        <time>2012-03-08T11:48:47.000Z</time>
      </trkpt>
      <trkpt lat="48.69877" lon="1.73464">
        <ele>178.19999694824</ele>
        <time>2012-03-08T11:48:53.000Z</time>
      </trkpt>
      <trkpt lat="48.69885" lon="1.73461">
        <ele>178</ele>
        <time>2012-03-08T11:48:58.000Z</time>
      </trkpt>
      <trkpt lat="48.69893" lon="1.7346">
        <ele>177.80000305176</ele>
        <time>2012-03-08T11:49:04.000Z</time>
      </trkpt>
      <trkpt lat="48.69904" lon="1.73458">
        <ele>177.80000305176</ele>
        <time>2012-03-08T11:49:10.000Z</time>
      </trkpt>
      <trkpt lat="48.69906" lon="1.73459">
        <ele>177.60000610352</ele>
        <time>2012-03-08T11:49:11.000Z</time>
      </trkpt>
      <trkpt lat="48.69915" lon="1.73458">
        <ele>177.60000610352</ele>
        <time>2012-03-08T11:49:18.000Z</time>
      </trkpt>
      <trkpt lat="48.69924" lon="1.73457">
        <ele>177.39999389648</ele>
        <time>2012-03-08T11:49:24.000Z</time>
      </trkpt>
      <trkpt lat="48.69928" lon="1.73455">
        <ele>177.39999389648</ele>
        <time>2012-03-08T11:49:28.000Z</time>
      </trkpt>
      <trkpt lat="48.69937" lon="1.7345">
        <ele>177.60000610352</ele>
        <time>2012-03-08T11:49:34.000Z</time>
      </trkpt>
      <trkpt lat="48.69947" lon="1.73448">
        <ele>177.39999389648</ele>
        <time>2012-03-08T11:49:40.000Z</time>
      </trkpt>
      <trkpt lat="48.69948" lon="1.73448">
        <ele>177.39999389648</ele>
        <time>2012-03-08T11:49:41.000Z</time>
      </trkpt>
      <trkpt lat="48.69949" lon="1.73449">
        <ele>177.39999389648</ele>
        <time>2012-03-08T11:49:44.000Z</time>
      </trkpt>
      <trkpt lat="48.69954" lon="1.73447">
        <ele>177.39999389648</ele>
        <time>2012-03-08T11:49:51.000Z</time>
      </trkpt>
      <trkpt lat="48.69965" lon="1.73445">
        <ele>177.39999389648</ele>
        <time>2012-03-08T11:49:57.000Z</time>
      </trkpt>
      <trkpt lat="48.69977" lon="1.73444">
        <ele>177.19999694824</ele>
        <time>2012-03-08T11:50:05.000Z</time>
      </trkpt>
      <trkpt lat="48.6998" lon="1.73444">
        <ele>177.19999694824</ele>
        <time>2012-03-08T11:50:06.000Z</time>
      </trkpt>
      <trkpt lat="48.69986" lon="1.73441">
        <ele>177.39999389648</ele>
        <time>2012-03-08T11:50:10.000Z</time>
      </trkpt>
      <trkpt lat="48.69994" lon="1.73435">
        <ele>177.39999389648</ele>
        <time>2012-03-08T11:50:17.000Z</time>
      </trkpt>
      <trkpt lat="48.70003" lon="1.73432">
        <ele>177.60000610352</ele>
        <time>2012-03-08T11:50:23.000Z</time>
      </trkpt>
      <trkpt lat="48.70009" lon="1.73432">
        <ele>177.80000305176</ele>
        <time>2012-03-08T11:50:27.000Z</time>
      </trkpt>
      <trkpt lat="48.70016" lon="1.73431">
        <ele>178</ele>
        <time>2012-03-08T11:50:33.000Z</time>
      </trkpt>
      <trkpt lat="48.70026" lon="1.73428">
        <ele>178.60000610352</ele>
        <time>2012-03-08T11:50:40.000Z</time>
      </trkpt>
      <trkpt lat="48.70039" lon="1.73425">
        <ele>179.19999694824</ele>
        <time>2012-03-08T11:50:45.000Z</time>
      </trkpt>
      <trkpt lat="48.70052" lon="1.73422">
        <ele>179.80000305176</ele>
        <time>2012-03-08T11:50:49.000Z</time>
      </trkpt>
      <trkpt lat="48.70065" lon="1.73419">
        <ele>180.19999694824</ele>
        <time>2012-03-08T11:50:53.000Z</time>
      </trkpt>
      <trkpt lat="48.70082" lon="1.73414">
        <ele>181</ele>
        <time>2012-03-08T11:50:58.000Z</time>
      </trkpt>
      <trkpt lat="48.70094" lon="1.73411">
        <ele>181</ele>
        <time>2012-03-08T11:51:03.000Z</time>
      </trkpt>
      <trkpt lat="48.70106" lon="1.73406">
        <ele>181.19999694824</ele>
        <time>2012-03-08T11:51:11.000Z</time>
      </trkpt>
      <trkpt lat="48.7011" lon="1.73405">
        <ele>181.19999694824</ele>
        <time>2012-03-08T11:51:17.000Z</time>
      </trkpt>
      <trkpt lat="48.7012" lon="1.73403">
        <ele>181.19999694824</ele>
        <time>2012-03-08T11:51:23.000Z</time>
      </trkpt>
      <trkpt lat="48.70134" lon="1.734">
        <ele>181.19999694824</ele>
        <time>2012-03-08T11:51:28.000Z</time>
      </trkpt>
      <trkpt lat="48.70156" lon="1.73395">
        <ele>181.19999694824</ele>
        <time>2012-03-08T11:51:34.000Z</time>
      </trkpt>
      <trkpt lat="48.70178" lon="1.73389">
        <ele>181.19999694824</ele>
        <time>2012-03-08T11:51:41.000Z</time>
      </trkpt>
      <trkpt lat="48.70179" lon="1.73388">
        <ele>181.19999694824</ele>
        <time>2012-03-08T11:51:44.000Z</time>
      </trkpt>
      <trkpt lat="48.70182" lon="1.73387">
        <ele>181.19999694824</ele>
        <time>2012-03-08T11:52:24.000Z</time>
      </trkpt>
      <trkpt lat="48.70195" lon="1.73382">
        <ele>181.19999694824</ele>
        <time>2012-03-08T11:52:30.000Z</time>
      </trkpt>
      <trkpt lat="48.70205" lon="1.73379">
        <ele>181</ele>
        <time>2012-03-08T11:52:36.000Z</time>
      </trkpt>
      <trkpt lat="48.7021" lon="1.73378">
        <ele>181</ele>
        <time>2012-03-08T11:52:40.000Z</time>
      </trkpt>
      <trkpt lat="48.70221" lon="1.73377">
        <ele>180.80000305176</ele>
        <time>2012-03-08T11:52:47.000Z</time>
      </trkpt>
      <trkpt lat="48.70229" lon="1.73372">
        <ele>180.80000305176</ele>
        <time>2012-03-08T11:52:53.000Z</time>
      </trkpt>
      <trkpt lat="48.70237" lon="1.73371">
        <ele>180.60000610352</ele>
        <time>2012-03-08T11:52:58.000Z</time>
      </trkpt>
      <trkpt lat="48.70243" lon="1.73369">
        <ele>180.60000610352</ele>
        <time>2012-03-08T11:53:02.000Z</time>
      </trkpt>
      <trkpt lat="48.70254" lon="1.73366">
        <ele>180.39999389648</ele>
        <time>2012-03-08T11:53:09.000Z</time>
      </trkpt>
      <trkpt lat="48.70262" lon="1.73366">
        <ele>180.60000610352</ele>
        <time>2012-03-08T11:53:14.000Z</time>
      </trkpt>
      <trkpt lat="48.70279" lon="1.73362">
        <ele>180.80000305176</ele>
        <time>2012-03-08T11:53:20.000Z</time>
      </trkpt>
      <trkpt lat="48.70297" lon="1.73356">
        <ele>181</ele>
        <time>2012-03-08T11:53:25.000Z</time>
      </trkpt>
      <trkpt lat="48.70318" lon="1.73351">
        <ele>181.19999694824</ele>
        <time>2012-03-08T11:53:30.000Z</time>
      </trkpt>
      <trkpt lat="48.70323" lon="1.73349">
        <ele>181.19999694824</ele>
        <time>2012-03-08T11:53:31.000Z</time>
      </trkpt>
      <trkpt lat="48.7034" lon="1.73345">
        <ele>181.60000610352</ele>
        <time>2012-03-08T11:53:35.000Z</time>
      </trkpt>
      <trkpt lat="48.70355" lon="1.7334">
        <ele>181.80000305176</ele>
        <time>2012-03-08T11:53:39.000Z</time>
      </trkpt>
      <trkpt lat="48.70376" lon="1.73333">
        <ele>182.60000610352</ele>
        <time>2012-03-08T11:53:45.000Z</time>
      </trkpt>
      <trkpt lat="48.70399" lon="1.73326">
        <ele>183.39999389648</ele>
        <time>2012-03-08T11:53:51.000Z</time>
      </trkpt>
      <trkpt lat="48.7042" lon="1.73321">
        <ele>183.80000305176</ele>
        <time>2012-03-08T11:53:56.000Z</time>
      </trkpt>
      <trkpt lat="48.70438" lon="1.73315">
        <ele>183.39999389648</ele>
        <time>2012-03-08T11:54:01.000Z</time>
      </trkpt>
      <trkpt lat="48.70449" lon="1.73313">
        <ele>183</ele>
        <time>2012-03-08T11:54:05.000Z</time>
      </trkpt>
      <trkpt lat="48.70468" lon="1.7331">
        <ele>182.39999389648</ele>
        <time>2012-03-08T11:54:10.000Z</time>
      </trkpt>
      <trkpt lat="48.70491" lon="1.73303">
        <ele>182</ele>
        <time>2012-03-08T11:54:16.000Z</time>
      </trkpt>
      <trkpt lat="48.70504" lon="1.73301">
        <ele>181.60000610352</ele>
        <time>2012-03-08T11:54:22.000Z</time>
      </trkpt>
      <trkpt lat="48.70513" lon="1.733">
        <ele>181</ele>
        <time>2012-03-08T11:54:28.000Z</time>
      </trkpt>
      <trkpt lat="48.70526" lon="1.73296">
        <ele>180.39999389648</ele>
        <time>2012-03-08T11:54:32.000Z</time>
      </trkpt>
      <trkpt lat="48.70545" lon="1.73291">
        <ele>179.19999694824</ele>
        <time>2012-03-08T11:54:37.000Z</time>
      </trkpt>
      <trkpt lat="48.70564" lon="1.73285">
        <ele>178</ele>
        <time>2012-03-08T11:54:42.000Z</time>
      </trkpt>
      <trkpt lat="48.70584" lon="1.73279">
        <ele>176.60000610352</ele>
        <time>2012-03-08T11:54:48.000Z</time>
      </trkpt>
      <trkpt lat="48.70611" lon="1.73273">
        <ele>176</ele>
        <time>2012-03-08T11:54:56.000Z</time>
      </trkpt>
      <trkpt lat="48.70636" lon="1.73265">
        <ele>175.39999389648</ele>
        <time>2012-03-08T11:55:03.000Z</time>
      </trkpt>
      <trkpt lat="48.70662" lon="1.73257">
        <ele>174.39999389648</ele>
        <time>2012-03-08T11:55:10.000Z</time>
      </trkpt>
      <trkpt lat="48.70679" lon="1.73253">
        <ele>174.80000305176</ele>
        <time>2012-03-08T11:55:14.000Z</time>
      </trkpt>
      <trkpt lat="48.70709" lon="1.73245">
        <ele>176</ele>
        <time>2012-03-08T11:55:21.000Z</time>
      </trkpt>
      <trkpt lat="48.70729" lon="1.7324">
        <ele>176.60000610352</ele>
        <time>2012-03-08T11:55:26.000Z</time>
      </trkpt>
      <trkpt lat="48.70762" lon="1.73231">
        <ele>177.19999694824</ele>
        <time>2012-03-08T11:55:34.000Z</time>
      </trkpt>
      <trkpt lat="48.70776" lon="1.73227">
        <ele>177.19999694824</ele>
        <time>2012-03-08T11:55:38.000Z</time>
      </trkpt>
      <trkpt lat="48.70804" lon="1.73219">
        <ele>177</ele>
        <time>2012-03-08T11:55:45.000Z</time>
      </trkpt>
      <trkpt lat="48.70819" lon="1.73215">
        <ele>177</ele>
        <time>2012-03-08T11:55:49.000Z</time>
      </trkpt>
      <trkpt lat="48.70845" lon="1.73208">
        <ele>176.60000610352</ele>
        <time>2012-03-08T11:55:55.000Z</time>
      </trkpt>
      <trkpt lat="48.70852" lon="1.73204">
        <ele>176.19999694824</ele>
        <time>2012-03-08T11:55:57.000Z</time>
      </trkpt>
      <trkpt lat="48.70875" lon="1.73197">
        <ele>175.39999389648</ele>
        <time>2012-03-08T11:56:03.000Z</time>
      </trkpt>
      <trkpt lat="48.70903" lon="1.7319">
        <ele>174.19999694824</ele>
        <time>2012-03-08T11:56:10.000Z</time>
      </trkpt>
      <trkpt lat="48.70926" lon="1.73182">
        <ele>173.80000305176</ele>
        <time>2012-03-08T11:56:16.000Z</time>
      </trkpt>
      <trkpt lat="48.70951" lon="1.73177">
        <ele>174</ele>
        <time>2012-03-08T11:56:22.000Z</time>
      </trkpt>
      <trkpt lat="48.70967" lon="1.73173">
        <ele>174</ele>
        <time>2012-03-08T11:56:28.000Z</time>
      </trkpt>
      <trkpt lat="48.70975" lon="1.73172">
        <ele>174</ele>
        <time>2012-03-08T11:56:34.000Z</time>
      </trkpt>
      <trkpt lat="48.70985" lon="1.7317">
        <ele>174</ele>
        <time>2012-03-08T11:56:40.000Z</time>
      </trkpt>
      <trkpt lat="48.70989" lon="1.73169">
        <ele>174</ele>
        <time>2012-03-08T11:56:43.000Z</time>
      </trkpt>
      <trkpt lat="48.70997" lon="1.73167">
        <ele>174</ele>
        <time>2012-03-08T11:56:49.000Z</time>
      </trkpt>
      <trkpt lat="48.71007" lon="1.73163">
        <ele>174.60000610352</ele>
        <time>2012-03-08T11:56:56.000Z</time>
      </trkpt>
      <trkpt lat="48.71021" lon="1.7316">
        <ele>175.60000610352</ele>
        <time>2012-03-08T11:57:06.000Z</time>
      </trkpt>
      <trkpt lat="48.71031" lon="1.73157">
        <ele>176.19999694824</ele>
        <time>2012-03-08T11:57:13.000Z</time>
      </trkpt>
      <trkpt lat="48.7104" lon="1.73155">
        <ele>177</ele>
        <time>2012-03-08T11:57:19.000Z</time>
      </trkpt>
      <trkpt lat="48.71049" lon="1.73151">
        <ele>177.60000610352</ele>
        <time>2012-03-08T11:57:26.000Z</time>
      </trkpt>
      <trkpt lat="48.71061" lon="1.73148">
        <ele>178.19999694824</ele>
        <time>2012-03-08T11:57:34.000Z</time>
      </trkpt>
      <trkpt lat="48.71064" lon="1.7315">
        <ele>178.60000610352</ele>
        <time>2012-03-08T11:57:39.000Z</time>
      </trkpt>
      <trkpt lat="48.71072" lon="1.73154">
        <ele>179</ele>
        <time>2012-03-08T11:57:52.000Z</time>
      </trkpt>
      <trkpt lat="48.71077" lon="1.73151">
        <ele>179.39999389648</ele>
        <time>2012-03-08T11:57:55.000Z</time>
      </trkpt>
      <trkpt lat="48.71092" lon="1.73143">
        <ele>180.19999694824</ele>
        <time>2012-03-08T11:58:05.000Z</time>
      </trkpt>
      <trkpt lat="48.71106" lon="1.73135">
        <ele>180.80000305176</ele>
        <time>2012-03-08T11:58:15.000Z</time>
      </trkpt>
      <trkpt lat="48.71117" lon="1.73129">
        <ele>181.19999694824</ele>
        <time>2012-03-08T11:58:23.000Z</time>
      </trkpt>
      <trkpt lat="48.71127" lon="1.73123">
        <ele>181.60000610352</ele>
        <time>2012-03-08T11:58:30.000Z</time>
      </trkpt>
      <trkpt lat="48.71138" lon="1.73118">
        <ele>182</ele>
        <time>2012-03-08T11:58:37.000Z</time>
      </trkpt>
      <trkpt lat="48.71147" lon="1.73111">
        <ele>182.19999694824</ele>
        <time>2012-03-08T11:58:44.000Z</time>
      </trkpt>
      <trkpt lat="48.71158" lon="1.73104">
        <ele>182.39999389648</ele>
        <time>2012-03-08T11:58:52.000Z</time>
      </trkpt>
      <trkpt lat="48.71164" lon="1.73101">
        <ele>182.60000610352</ele>
        <time>2012-03-08T11:58:56.000Z</time>
      </trkpt>
      <trkpt lat="48.71173" lon="1.73094">
        <ele>182.39999389648</ele>
        <time>2012-03-08T11:59:03.000Z</time>
      </trkpt>
      <trkpt lat="48.71186" lon="1.73088">
        <ele>182.39999389648</ele>
        <time>2012-03-08T11:59:11.000Z</time>
      </trkpt>
      <trkpt lat="48.71194" lon="1.73085">
        <ele>182.39999389648</ele>
        <time>2012-03-08T11:59:17.000Z</time>
      </trkpt>
      <trkpt lat="48.71204" lon="1.73079">
        <ele>182.39999389648</ele>
        <time>2012-03-08T11:59:24.000Z</time>
      </trkpt>
      <trkpt lat="48.71211" lon="1.73071">
        <ele>182.39999389648</ele>
        <time>2012-03-08T11:59:30.000Z</time>
      </trkpt>
      <trkpt lat="48.71219" lon="1.73066">
        <ele>182.39999389648</ele>
        <time>2012-03-08T11:59:35.000Z</time>
      </trkpt>
      <trkpt lat="48.7123" lon="1.7306">
        <ele>182.39999389648</ele>
        <time>2012-03-08T11:59:43.000Z</time>
      </trkpt>
      <trkpt lat="48.71239" lon="1.73055">
        <ele>182.39999389648</ele>
        <time>2012-03-08T11:59:49.000Z</time>
      </trkpt>
      <trkpt lat="48.71248" lon="1.73053">
        <ele>182.60000610352</ele>
        <time>2012-03-08T11:59:55.000Z</time>
      </trkpt>
      <trkpt lat="48.71257" lon="1.73046">
        <ele>182.19999694824</ele>
        <time>2012-03-08T12:00:00.000Z</time>
      </trkpt>
      <trkpt lat="48.71265" lon="1.73041">
        <ele>181.80000305176</ele>
        <time>2012-03-08T12:00:06.000Z</time>
      </trkpt>
      <trkpt lat="48.71267" lon="1.73039">
        <ele>181.60000610352</ele>
        <time>2012-03-08T12:00:08.000Z</time>
      </trkpt>
      <trkpt lat="48.71272" lon="1.73036">
        <ele>181.39999389648</ele>
        <time>2012-03-08T12:00:13.000Z</time>
      </trkpt>
      <trkpt lat="48.71277" lon="1.73033">
        <ele>181.19999694824</ele>
        <time>2012-03-08T12:00:18.000Z</time>
      </trkpt>
      <trkpt lat="48.71285" lon="1.73028">
        <ele>180.80000305176</ele>
        <time>2012-03-08T12:00:26.000Z</time>
      </trkpt>
      <trkpt lat="48.71293" lon="1.73023">
        <ele>180.60000610352</ele>
        <time>2012-03-08T12:00:32.000Z</time>
      </trkpt>
      <trkpt lat="48.71303" lon="1.73018">
        <ele>180.19999694824</ele>
        <time>2012-03-08T12:00:39.000Z</time>
      </trkpt>
      <trkpt lat="48.71315" lon="1.73013">
        <ele>180</ele>
        <time>2012-03-08T12:00:48.000Z</time>
      </trkpt>
      <trkpt lat="48.71321" lon="1.7301">
        <ele>180</ele>
        <time>2012-03-08T12:00:53.000Z</time>
      </trkpt>
      <trkpt lat="48.71322" lon="1.73009">
        <ele>180</ele>
        <time>2012-03-08T12:00:54.000Z</time>
      </trkpt>
      <trkpt lat="48.71332" lon="1.73003">
        <ele>179.80000305176</ele>
        <time>2012-03-08T12:01:01.000Z</time>
      </trkpt>
      <trkpt lat="48.71339" lon="1.73">
        <ele>178.39999389648</ele>
        <time>2012-03-08T12:01:07.000Z</time>
      </trkpt>
      <trkpt lat="48.7134" lon="1.73006">
        <ele>177.80000305176</ele>
        <time>2012-03-08T12:01:12.000Z</time>
      </trkpt>
      <trkpt lat="48.7134" lon="1.73008">
        <ele>177.80000305176</ele>
        <time>2012-03-08T12:01:13.000Z</time>
      </trkpt>
      <trkpt lat="48.71339" lon="1.73026">
        <ele>177.39999389648</ele>
        <time>2012-03-08T12:01:21.000Z</time>
      </trkpt>
      <trkpt lat="48.71337" lon="1.73041">
        <ele>177.19999694824</ele>
        <time>2012-03-08T12:01:28.000Z</time>
      </trkpt>
      <trkpt lat="48.71337" lon="1.7305">
        <ele>176.80000305176</ele>
        <time>2012-03-08T12:01:32.000Z</time>
      </trkpt>
      <trkpt lat="48.71334" lon="1.73059">
        <ele>177</ele>
        <time>2012-03-08T12:01:39.000Z</time>
      </trkpt>
      <trkpt lat="48.71333" lon="1.73066">
        <ele>176.80000305176</ele>
        <time>2012-03-08T12:01:46.000Z</time>
      </trkpt>
      <trkpt lat="48.71331" lon="1.7307">
        <ele>176.80000305176</ele>
        <time>2012-03-08T12:01:51.000Z</time>
      </trkpt>
      <trkpt lat="48.71327" lon="1.73082">
        <ele>176.60000610352</ele>
        <time>2012-03-08T12:02:06.000Z</time>
      </trkpt>
      <trkpt lat="48.71326" lon="1.73087">
        <ele>176.39999389648</ele>
        <time>2012-03-08T12:02:08.000Z</time>
      </trkpt>
      <trkpt lat="48.71321" lon="1.73091">
        <ele>176.39999389648</ele>
        <time>2012-03-08T12:02:14.000Z</time>
      </trkpt>
      <trkpt lat="48.71321" lon="1.73096">
        <ele>176</ele>
        <time>2012-03-08T12:02:19.000Z</time>
      </trkpt>
      <trkpt lat="48.71315" lon="1.73107">
        <ele>175.60000610352</ele>
        <time>2012-03-08T12:02:27.000Z</time>
      </trkpt>
      <trkpt lat="48.71315" lon="1.73108">
        <ele>175.60000610352</ele>
        <time>2012-03-08T12:02:28.000Z</time>
      </trkpt>
      <trkpt lat="48.71311" lon="1.7312">
        <ele>175.19999694824</ele>
        <time>2012-03-08T12:02:34.000Z</time>
      </trkpt>
      <trkpt lat="48.71311" lon="1.73122">
        <ele>175</ele>
        <time>2012-03-08T12:02:36.000Z</time>
      </trkpt>
      <trkpt lat="48.71311" lon="1.73133">
        <ele>174.19999694824</ele>
        <time>2012-03-08T12:02:44.000Z</time>
      </trkpt>
      <trkpt lat="48.7131" lon="1.73144">
        <ele>173.60000610352</ele>
        <time>2012-03-08T12:02:50.000Z</time>
      </trkpt>
      <trkpt lat="48.71309" lon="1.73159">
        <ele>172.60000610352</ele>
        <time>2012-03-08T12:02:57.000Z</time>
      </trkpt>
      <trkpt lat="48.71309" lon="1.73171">
        <ele>172</ele>
        <time>2012-03-08T12:03:02.000Z</time>
      </trkpt>
      <trkpt lat="48.71309" lon="1.73183">
        <ele>171.60000610352</ele>
        <time>2012-03-08T12:03:07.000Z</time>
      </trkpt>
      <trkpt lat="48.71311" lon="1.73192">
        <ele>171</ele>
        <time>2012-03-08T12:03:14.000Z</time>
      </trkpt>
      <trkpt lat="48.71314" lon="1.73201">
        <ele>170.19999694824</ele>
        <time>2012-03-08T12:03:19.000Z</time>
      </trkpt>
      <trkpt lat="48.71317" lon="1.73209">
        <ele>169.39999389648</ele>
        <time>2012-03-08T12:03:23.000Z</time>
      </trkpt>
      <trkpt lat="48.71324" lon="1.73223">
        <ele>167.60000610352</ele>
        <time>2012-03-08T12:03:31.000Z</time>
      </trkpt>
      <trkpt lat="48.71328" lon="1.73237">
        <ele>166.39999389648</ele>
        <time>2012-03-08T12:03:38.000Z</time>
      </trkpt>
      <trkpt lat="48.71331" lon="1.73249">
        <ele>165.39999389648</ele>
        <time>2012-03-08T12:03:45.000Z</time>
      </trkpt>
      <trkpt lat="48.71333" lon="1.7326">
        <ele>165.19999694824</ele>
        <time>2012-03-08T12:03:50.000Z</time>
      </trkpt>
      <trkpt lat="48.71334" lon="1.73268">
        <ele>165.19999694824</ele>
        <time>2012-03-08T12:03:54.000Z</time>
      </trkpt>
      <trkpt lat="48.71333" lon="1.73279">
        <ele>165.39999389648</ele>
        <time>2012-03-08T12:03:59.000Z</time>
      </trkpt>
      <trkpt lat="48.71335" lon="1.73287">
        <ele>165.19999694824</ele>
        <time>2012-03-08T12:04:04.000Z</time>
      </trkpt>
      <trkpt lat="48.71342" lon="1.73298">
        <ele>164</ele>
        <time>2012-03-08T12:04:11.000Z</time>
      </trkpt>
      <trkpt lat="48.71348" lon="1.73306">
        <ele>163</ele>
        <time>2012-03-08T12:04:17.000Z</time>
      </trkpt>
      <trkpt lat="48.71353" lon="1.73311">
        <ele>162.19999694824</ele>
        <time>2012-03-08T12:04:21.000Z</time>
      </trkpt>
      <trkpt lat="48.71359" lon="1.73329">
        <ele>161.39999389648</ele>
        <time>2012-03-08T12:04:30.000Z</time>
      </trkpt>
      <trkpt lat="48.71359" lon="1.73332">
        <ele>161.39999389648</ele>
        <time>2012-03-08T12:04:32.000Z</time>
      </trkpt>
      <trkpt lat="48.71367" lon="1.73341">
        <ele>160.60000610352</ele>
        <time>2012-03-08T12:04:38.000Z</time>
      </trkpt>
      <trkpt lat="48.71371" lon="1.73352">
        <ele>161</ele>
        <time>2012-03-08T12:04:44.000Z</time>
      </trkpt>
      <trkpt lat="48.71377" lon="1.73361">
        <ele>160.60000610352</ele>
        <time>2012-03-08T12:04:49.000Z</time>
      </trkpt>
      <trkpt lat="48.71389" lon="1.73369">
        <ele>159</ele>
        <time>2012-03-08T12:04:57.000Z</time>
      </trkpt>
      <trkpt lat="48.71392" lon="1.73373">
        <ele>158.80000305176</ele>
        <time>2012-03-08T12:05:00.000Z</time>
      </trkpt>
      <trkpt lat="48.71397" lon="1.73381">
        <ele>158.80000305176</ele>
        <time>2012-03-08T12:05:08.000Z</time>
      </trkpt>
      <trkpt lat="48.71402" lon="1.7339">
        <ele>158.60000610352</ele>
        <time>2012-03-08T12:05:14.000Z</time>
      </trkpt>
      <trkpt lat="48.71411" lon="1.73392">
        <ele>157</ele>
        <time>2012-03-08T12:05:20.000Z</time>
      </trkpt>
      <trkpt lat="48.71417" lon="1.73393">
        <ele>156</ele>
        <time>2012-03-08T12:05:25.000Z</time>
      </trkpt>
      <trkpt lat="48.71425" lon="1.734">
        <ele>155.60000610352</ele>
        <time>2012-03-08T12:05:32.000Z</time>
      </trkpt>
      <trkpt lat="48.71426" lon="1.73401">
        <ele>155.60000610352</ele>
        <time>2012-03-08T12:05:35.000Z</time>
      </trkpt>
      <trkpt lat="48.71429" lon="1.73391">
        <ele>154.60000610352</ele>
        <time>2012-03-08T12:05:49.000Z</time>
      </trkpt>
      <trkpt lat="48.71436" lon="1.73382">
        <ele>153.19999694824</ele>
        <time>2012-03-08T12:05:55.000Z</time>
      </trkpt>
      <trkpt lat="48.71439" lon="1.73377">
        <ele>152.60000610352</ele>
        <time>2012-03-08T12:05:58.000Z</time>
      </trkpt>
      <trkpt lat="48.7145" lon="1.73367">
        <ele>151</ele>
        <time>2012-03-08T12:06:06.000Z</time>
      </trkpt>
      <trkpt lat="48.7146" lon="1.73364">
        <ele>150</ele>
        <time>2012-03-08T12:06:14.000Z</time>
      </trkpt>
      <trkpt lat="48.71471" lon="1.73362">
        <ele>149</ele>
        <time>2012-03-08T12:06:21.000Z</time>
      </trkpt>
      <trkpt lat="48.71478" lon="1.73357">
        <ele>148.19999694824</ele>
        <time>2012-03-08T12:06:28.000Z</time>
      </trkpt>
      <trkpt lat="48.71483" lon="1.73345">
        <ele>147.39999389648</ele>
        <time>2012-03-08T12:06:35.000Z</time>
      </trkpt>
      <trkpt lat="48.71487" lon="1.73333">
        <ele>146.80000305176</ele>
        <time>2012-03-08T12:06:42.000Z</time>
      </trkpt>
      <trkpt lat="48.71494" lon="1.7332">
        <ele>146</ele>
        <time>2012-03-08T12:06:50.000Z</time>
      </trkpt>
      <trkpt lat="48.71499" lon="1.73305">
        <ele>145</ele>
        <time>2012-03-08T12:06:58.000Z</time>
      </trkpt>
      <trkpt lat="48.71505" lon="1.73293">
        <ele>144.39999389648</ele>
        <time>2012-03-08T12:07:05.000Z</time>
      </trkpt>
      <trkpt lat="48.71513" lon="1.73285">
        <ele>143.80000305176</ele>
        <time>2012-03-08T12:07:11.000Z</time>
      </trkpt>
      <trkpt lat="48.71517" lon="1.73274">
        <ele>143.39999389648</ele>
        <time>2012-03-08T12:07:16.000Z</time>
      </trkpt>
      <trkpt lat="48.71519" lon="1.73261">
        <ele>142.80000305176</ele>
        <time>2012-03-08T12:07:22.000Z</time>
      </trkpt>
      <trkpt lat="48.71522" lon="1.73255">
        <ele>142.39999389648</ele>
        <time>2012-03-08T12:07:25.000Z</time>
      </trkpt>
      <trkpt lat="48.71529" lon="1.73242">
        <ele>142</ele>
        <time>2012-03-08T12:07:33.000Z</time>
      </trkpt>
      <trkpt lat="48.71534" lon="1.73232">
        <ele>141.60000610352</ele>
        <time>2012-03-08T12:07:39.000Z</time>
      </trkpt>
      <trkpt lat="48.71541" lon="1.7322">
        <ele>141.39999389648</ele>
        <time>2012-03-08T12:07:46.000Z</time>
      </trkpt>
      <trkpt lat="48.71548" lon="1.73206">
        <ele>141</ele>
        <time>2012-03-08T12:07:54.000Z</time>
      </trkpt>
      <trkpt lat="48.71557" lon="1.7319">
        <ele>140.39999389648</ele>
        <time>2012-03-08T12:08:03.000Z</time>
      </trkpt>
      <trkpt lat="48.71562" lon="1.7318">
        <ele>140.19999694824</ele>
        <time>2012-03-08T12:08:09.000Z</time>
      </trkpt>
      <trkpt lat="48.71569" lon="1.73164">
        <ele>139.80000305176</ele>
        <time>2012-03-08T12:08:18.000Z</time>
      </trkpt>
      <trkpt lat="48.71573" lon="1.73154">
        <ele>139.80000305176</ele>
        <time>2012-03-08T12:08:24.000Z</time>
      </trkpt>
      <trkpt lat="48.71579" lon="1.73139">
        <ele>139.80000305176</ele>
        <time>2012-03-08T12:08:32.000Z</time>
      </trkpt>
      <trkpt lat="48.71586" lon="1.73124">
        <ele>140</ele>
        <time>2012-03-08T12:08:41.000Z</time>
      </trkpt>
      <trkpt lat="48.71592" lon="1.7311">
        <ele>140.19999694824</ele>
        <time>2012-03-08T12:08:49.000Z</time>
      </trkpt>
      <trkpt lat="48.716" lon="1.73092">
        <ele>140.39999389648</ele>
        <time>2012-03-08T12:08:59.000Z</time>
      </trkpt>
      <trkpt lat="48.7161" lon="1.73072">
        <ele>140.39999389648</ele>
        <time>2012-03-08T12:09:10.000Z</time>
      </trkpt>
      <trkpt lat="48.71612" lon="1.73068">
        <ele>140.39999389648</ele>
        <time>2012-03-08T12:09:13.000Z</time>
      </trkpt>
      <trkpt lat="48.71614" lon="1.73065">
        <ele>140.39999389648</ele>
        <time>2012-03-08T12:09:15.000Z</time>
      </trkpt>
      <trkpt lat="48.71622" lon="1.73054">
        <ele>140.19999694824</ele>
        <time>2012-03-08T12:09:22.000Z</time>
      </trkpt>
      <trkpt lat="48.71626" lon="1.73042">
        <ele>140</ele>
        <time>2012-03-08T12:09:28.000Z</time>
      </trkpt>
      <trkpt lat="48.71634" lon="1.73024">
        <ele>139.60000610352</ele>
        <time>2012-03-08T12:09:38.000Z</time>
      </trkpt>
      <trkpt lat="48.71642" lon="1.73005">
        <ele>139.19999694824</ele>
        <time>2012-03-08T12:09:48.000Z</time>
      </trkpt>
      <trkpt lat="48.7165" lon="1.72989">
        <ele>138.60000610352</ele>
        <time>2012-03-08T12:09:56.000Z</time>
      </trkpt>
      <trkpt lat="48.7166" lon="1.72983">
        <ele>138.19999694824</ele>
        <time>2012-03-08T12:10:03.000Z</time>
      </trkpt>
      <trkpt lat="48.71668" lon="1.72992">
        <ele>137.80000305176</ele>
        <time>2012-03-08T12:10:08.000Z</time>
      </trkpt>
      <trkpt lat="48.71673" lon="1.73007">
        <ele>137.80000305176</ele>
        <time>2012-03-08T12:10:13.000Z</time>
      </trkpt>
      <trkpt lat="48.71674" lon="1.73023">
        <ele>137.80000305176</ele>
        <time>2012-03-08T12:10:19.000Z</time>
      </trkpt>
      <trkpt lat="48.71676" lon="1.7304">
        <ele>138</ele>
        <time>2012-03-08T12:10:26.000Z</time>
      </trkpt>
      <trkpt lat="48.71679" lon="1.73057">
        <ele>138</ele>
        <time>2012-03-08T12:10:34.000Z</time>
      </trkpt>
      <trkpt lat="48.71681" lon="1.73074">
        <ele>138.19999694824</ele>
        <time>2012-03-08T12:10:42.000Z</time>
      </trkpt>
      <trkpt lat="48.71684" lon="1.73092">
        <ele>138</ele>
        <time>2012-03-08T12:10:50.000Z</time>
      </trkpt>
      <trkpt lat="48.71688" lon="1.73114">
        <ele>137.39999389648</ele>
        <time>2012-03-08T12:10:59.000Z</time>
      </trkpt>
      <trkpt lat="48.71688" lon="1.73124">
        <ele>137.19999694824</ele>
        <time>2012-03-08T12:11:04.000Z</time>
      </trkpt>
      <trkpt lat="48.7169" lon="1.7314">
        <ele>136.60000610352</ele>
        <time>2012-03-08T12:11:11.000Z</time>
      </trkpt>
      <trkpt lat="48.71692" lon="1.73158">
        <ele>136.19999694824</ele>
        <time>2012-03-08T12:11:19.000Z</time>
      </trkpt>
      <trkpt lat="48.71696" lon="1.73173">
        <ele>136</ele>
        <time>2012-03-08T12:11:26.000Z</time>
      </trkpt>
      <trkpt lat="48.71699" lon="1.73193">
        <ele>136</ele>
        <time>2012-03-08T12:11:35.000Z</time>
      </trkpt>
      <trkpt lat="48.71703" lon="1.7321">
        <ele>136</ele>
        <time>2012-03-08T12:11:43.000Z</time>
      </trkpt>
      <trkpt lat="48.71705" lon="1.73226">
        <ele>136</ele>
        <time>2012-03-08T12:11:50.000Z</time>
      </trkpt>
      <trkpt lat="48.71708" lon="1.73253">
        <ele>136</ele>
        <time>2012-03-08T12:12:02.000Z</time>
      </trkpt>
      <trkpt lat="48.71711" lon="1.73274">
        <ele>136</ele>
        <time>2012-03-08T12:12:11.000Z</time>
      </trkpt>
      <trkpt lat="48.71713" lon="1.73289">
        <ele>136</ele>
        <time>2012-03-08T12:12:18.000Z</time>
      </trkpt>
      <trkpt lat="48.71716" lon="1.73308">
        <ele>136</ele>
        <time>2012-03-08T12:12:26.000Z</time>
      </trkpt>
      <trkpt lat="48.71719" lon="1.73324">
        <ele>136</ele>
        <time>2012-03-08T12:12:33.000Z</time>
      </trkpt>
      <trkpt lat="48.71724" lon="1.73345">
        <ele>136.19999694824</ele>
        <time>2012-03-08T12:12:42.000Z</time>
      </trkpt>
      <trkpt lat="48.7173" lon="1.73366">
        <ele>136.39999389648</ele>
        <time>2012-03-08T12:12:51.000Z</time>
      </trkpt>
      <trkpt lat="48.71734" lon="1.73383">
        <ele>136.80000305176</ele>
        <time>2012-03-08T12:12:59.000Z</time>
      </trkpt>
      <trkpt lat="48.71738" lon="1.73399">
        <ele>137</ele>
        <time>2012-03-08T12:13:06.000Z</time>
      </trkpt>
      <trkpt lat="48.71741" lon="1.73413">
        <ele>137.19999694824</ele>
        <time>2012-03-08T12:13:12.000Z</time>
      </trkpt>
      <trkpt lat="48.71741" lon="1.73416">
        <ele>137.19999694824</ele>
        <time>2012-03-08T12:13:13.000Z</time>
      </trkpt>
      <trkpt lat="48.71745" lon="1.73431">
        <ele>137.19999694824</ele>
        <time>2012-03-08T12:13:20.000Z</time>
      </trkpt>
      <trkpt lat="48.71745" lon="1.73433">
        <ele>137.19999694824</ele>
        <time>2012-03-08T12:13:21.000Z</time>
      </trkpt>
      <trkpt lat="48.71747" lon="1.73444">
        <ele>137.19999694824</ele>
        <time>2012-03-08T12:13:26.000Z</time>
      </trkpt>
      <trkpt lat="48.71753" lon="1.73467">
        <ele>136.80000305176</ele>
        <time>2012-03-08T12:13:36.000Z</time>
      </trkpt>
      <trkpt lat="48.71756" lon="1.73484">
        <ele>136.80000305176</ele>
        <time>2012-03-08T12:13:44.000Z</time>
      </trkpt>
      <trkpt lat="48.71762" lon="1.73499">
        <ele>136.60000610352</ele>
        <time>2012-03-08T12:13:51.000Z</time>
      </trkpt>
      <trkpt lat="48.71768" lon="1.73519">
        <ele>137</ele>
        <time>2012-03-08T12:14:00.000Z</time>
      </trkpt>
      <trkpt lat="48.71769" lon="1.73536">
        <ele>137.60000610352</ele>
        <time>2012-03-08T12:14:07.000Z</time>
      </trkpt>
      <trkpt lat="48.71771" lon="1.7355">
        <ele>138</ele>
        <time>2012-03-08T12:14:13.000Z</time>
      </trkpt>
      <trkpt lat="48.71774" lon="1.73566">
        <ele>138.19999694824</ele>
        <time>2012-03-08T12:14:21.000Z</time>
      </trkpt>
      <trkpt lat="48.71776" lon="1.73587">
        <ele>138.80000305176</ele>
        <time>2012-03-08T12:14:30.000Z</time>
      </trkpt>
      <trkpt lat="48.71777" lon="1.73596">
        <ele>138.80000305176</ele>
        <time>2012-03-08T12:14:34.000Z</time>
      </trkpt>
      <trkpt lat="48.71777" lon="1.73609">
        <ele>139</ele>
        <time>2012-03-08T12:14:40.000Z</time>
      </trkpt>
      <trkpt lat="48.71777" lon="1.73622">
        <ele>139</ele>
        <time>2012-03-08T12:14:46.000Z</time>
      </trkpt>
      <trkpt lat="48.71778" lon="1.73636">
        <ele>139</ele>
        <time>2012-03-08T12:14:54.000Z</time>
      </trkpt>
      <trkpt lat="48.71779" lon="1.73636">
        <ele>139</ele>
        <time>2012-03-08T12:14:55.000Z</time>
      </trkpt>
      <trkpt lat="48.71785" lon="1.73655">
        <ele>139</ele>
        <time>2012-03-08T12:15:30.000Z</time>
      </trkpt>
      <trkpt lat="48.71788" lon="1.73673">
        <ele>139</ele>
        <time>2012-03-08T12:15:38.000Z</time>
      </trkpt>
      <trkpt lat="48.71791" lon="1.73693">
        <ele>138.39999389648</ele>
        <time>2012-03-08T12:15:47.000Z</time>
      </trkpt>
      <trkpt lat="48.71794" lon="1.73711">
        <ele>138</ele>
        <time>2012-03-08T12:15:55.000Z</time>
      </trkpt>
      <trkpt lat="48.71795" lon="1.73725">
        <ele>137.60000610352</ele>
        <time>2012-03-08T12:16:01.000Z</time>
      </trkpt>
      <trkpt lat="48.71796" lon="1.73738">
        <ele>137.19999694824</ele>
        <time>2012-03-08T12:16:07.000Z</time>
      </trkpt>
      <trkpt lat="48.71798" lon="1.73748">
        <ele>137</ele>
        <time>2012-03-08T12:16:11.000Z</time>
      </trkpt>
      <trkpt lat="48.71804" lon="1.73761">
        <ele>137</ele>
        <time>2012-03-08T12:16:18.000Z</time>
      </trkpt>
      <trkpt lat="48.71807" lon="1.73775">
        <ele>137</ele>
        <time>2012-03-08T12:16:23.000Z</time>
      </trkpt>
      <trkpt lat="48.71812" lon="1.73789">
        <ele>136.80000305176</ele>
        <time>2012-03-08T12:16:30.000Z</time>
      </trkpt>
      <trkpt lat="48.71818" lon="1.73807">
        <ele>136.80000305176</ele>
        <time>2012-03-08T12:16:36.000Z</time>
      </trkpt>
      <trkpt lat="48.71828" lon="1.73838">
        <ele>136.80000305176</ele>
        <time>2012-03-08T12:16:43.000Z</time>
      </trkpt>
      <trkpt lat="48.71837" lon="1.73871">
        <ele>136.39999389648</ele>
        <time>2012-03-08T12:16:50.000Z</time>
      </trkpt>
      <trkpt lat="48.71844" lon="1.73896">
        <ele>136</ele>
        <time>2012-03-08T12:16:55.000Z</time>
      </trkpt>
      <trkpt lat="48.71852" lon="1.73925">
        <ele>135.80000305176</ele>
        <time>2012-03-08T12:17:01.000Z</time>
      </trkpt>
      <trkpt lat="48.71863" lon="1.73959">
        <ele>136.39999389648</ele>
        <time>2012-03-08T12:17:08.000Z</time>
      </trkpt>
      <trkpt lat="48.71875" lon="1.73995">
        <ele>136.80000305176</ele>
        <time>2012-03-08T12:17:15.000Z</time>
      </trkpt>
      <trkpt lat="48.71886" lon="1.74033">
        <ele>137.60000610352</ele>
        <time>2012-03-08T12:17:23.000Z</time>
      </trkpt>
      <trkpt lat="48.71893" lon="1.74057">
        <ele>138</ele>
        <time>2012-03-08T12:17:28.000Z</time>
      </trkpt>
      <trkpt lat="48.71901" lon="1.74086">
        <ele>138.19999694824</ele>
        <time>2012-03-08T12:17:34.000Z</time>
      </trkpt>
      <trkpt lat="48.71912" lon="1.74115">
        <ele>137</ele>
        <time>2012-03-08T12:17:40.000Z</time>
      </trkpt>
      <trkpt lat="48.71922" lon="1.74147">
        <ele>136</ele>
        <time>2012-03-08T12:17:47.000Z</time>
      </trkpt>
      <trkpt lat="48.71936" lon="1.74191">
        <ele>136.80000305176</ele>
        <time>2012-03-08T12:17:56.000Z</time>
      </trkpt>
      <trkpt lat="48.71948" lon="1.74229">
        <ele>138.60000610352</ele>
        <time>2012-03-08T12:18:04.000Z</time>
      </trkpt>
      <trkpt lat="48.71959" lon="1.74263">
        <ele>139.80000305176</ele>
        <time>2012-03-08T12:18:11.000Z</time>
      </trkpt>
      <trkpt lat="48.71964" lon="1.74291">
        <ele>140.19999694824</ele>
        <time>2012-03-08T12:18:17.000Z</time>
      </trkpt>
      <trkpt lat="48.71967" lon="1.74327">
        <ele>140.80000305176</ele>
        <time>2012-03-08T12:18:24.000Z</time>
      </trkpt>
      <trkpt lat="48.71967" lon="1.74362">
        <ele>140.80000305176</ele>
        <time>2012-03-08T12:18:31.000Z</time>
      </trkpt>
      <trkpt lat="48.71969" lon="1.74389">
        <ele>140.39999389648</ele>
        <time>2012-03-08T12:18:36.000Z</time>
      </trkpt>
      <trkpt lat="48.71972" lon="1.74415">
        <ele>140</ele>
        <time>2012-03-08T12:18:41.000Z</time>
      </trkpt>
      <trkpt lat="48.71974" lon="1.74463">
        <ele>139.19999694824</ele>
        <time>2012-03-08T12:18:50.000Z</time>
      </trkpt>
      <trkpt lat="48.71977" lon="1.74514">
        <ele>138.60000610352</ele>
        <time>2012-03-08T12:19:00.000Z</time>
      </trkpt>
      <trkpt lat="48.71979" lon="1.74551">
        <ele>139.39999389648</ele>
        <time>2012-03-08T12:19:07.000Z</time>
      </trkpt>
      <trkpt lat="48.71982" lon="1.74595">
        <ele>140</ele>
        <time>2012-03-08T12:19:15.000Z</time>
      </trkpt>
      <trkpt lat="48.71983" lon="1.74661">
        <ele>141</ele>
        <time>2012-03-08T12:19:27.000Z</time>
      </trkpt>
      <trkpt lat="48.71983" lon="1.74705">
        <ele>141.39999389648</ele>
        <time>2012-03-08T12:19:35.000Z</time>
      </trkpt>
      <trkpt lat="48.71979" lon="1.74753">
        <ele>142.19999694824</ele>
        <time>2012-03-08T12:19:44.000Z</time>
      </trkpt>
      <trkpt lat="48.71975" lon="1.74793">
        <ele>142.60000610352</ele>
        <time>2012-03-08T12:19:51.000Z</time>
      </trkpt>
      <trkpt lat="48.71971" lon="1.74826">
        <ele>142.60000610352</ele>
        <time>2012-03-08T12:19:57.000Z</time>
      </trkpt>
      <trkpt lat="48.71966" lon="1.7487">
        <ele>142.60000610352</ele>
        <time>2012-03-08T12:20:05.000Z</time>
      </trkpt>
      <trkpt lat="48.7196" lon="1.74906">
        <ele>142.39999389648</ele>
        <time>2012-03-08T12:20:12.000Z</time>
      </trkpt>
      <trkpt lat="48.71954" lon="1.74935">
        <ele>142.80000305176</ele>
        <time>2012-03-08T12:20:18.000Z</time>
      </trkpt>
      <trkpt lat="48.71949" lon="1.74954">
        <ele>143.19999694824</ele>
        <time>2012-03-08T12:20:23.000Z</time>
      </trkpt>
      <trkpt lat="48.71943" lon="1.74969">
        <ele>143.60000610352</ele>
        <time>2012-03-08T12:20:28.000Z</time>
      </trkpt>
      <trkpt lat="48.71934" lon="1.74988">
        <ele>144.60000610352</ele>
        <time>2012-03-08T12:20:33.000Z</time>
      </trkpt>
      <trkpt lat="48.71923" lon="1.75015">
        <ele>145.19999694824</ele>
        <time>2012-03-08T12:20:40.000Z</time>
      </trkpt>
      <trkpt lat="48.7191" lon="1.75039">
        <ele>145</ele>
        <time>2012-03-08T12:20:47.000Z</time>
      </trkpt>
      <trkpt lat="48.71901" lon="1.75063">
        <ele>144.39999389648</ele>
        <time>2012-03-08T12:20:53.000Z</time>
      </trkpt>
      <trkpt lat="48.71897" lon="1.75091">
        <ele>143.80000305176</ele>
        <time>2012-03-08T12:20:58.000Z</time>
      </trkpt>
      <trkpt lat="48.71894" lon="1.7513">
        <ele>143</ele>
        <time>2012-03-08T12:21:05.000Z</time>
      </trkpt>
      <trkpt lat="48.71888" lon="1.75161">
        <ele>142.39999389648</ele>
        <time>2012-03-08T12:21:11.000Z</time>
      </trkpt>
      <trkpt lat="48.71883" lon="1.75187">
        <ele>143</ele>
        <time>2012-03-08T12:21:16.000Z</time>
      </trkpt>
      <trkpt lat="48.71876" lon="1.75219">
        <ele>144</ele>
        <time>2012-03-08T12:21:22.000Z</time>
      </trkpt>
      <trkpt lat="48.7187" lon="1.75249">
        <ele>144.60000610352</ele>
        <time>2012-03-08T12:21:28.000Z</time>
      </trkpt>
      <trkpt lat="48.71862" lon="1.75274">
        <ele>144.39999389648</ele>
        <time>2012-03-08T12:21:33.000Z</time>
      </trkpt>
      <trkpt lat="48.71855" lon="1.75306">
        <ele>144</ele>
        <time>2012-03-08T12:21:39.000Z</time>
      </trkpt>
      <trkpt lat="48.7185" lon="1.75334">
        <ele>143.80000305176</ele>
        <time>2012-03-08T12:21:45.000Z</time>
      </trkpt>
      <trkpt lat="48.71852" lon="1.75359">
        <ele>144.19999694824</ele>
        <time>2012-03-08T12:21:50.000Z</time>
      </trkpt>
      <trkpt lat="48.71861" lon="1.75396">
        <ele>145.19999694824</ele>
        <time>2012-03-08T12:21:57.000Z</time>
      </trkpt>
      <trkpt lat="48.71864" lon="1.75415">
        <ele>145.60000610352</ele>
        <time>2012-03-08T12:22:01.000Z</time>
      </trkpt>
      <trkpt lat="48.71872" lon="1.75451">
        <ele>147.60000610352</ele>
        <time>2012-03-08T12:22:08.000Z</time>
      </trkpt>
      <trkpt lat="48.71875" lon="1.75483">
        <ele>149.19999694824</ele>
        <time>2012-03-08T12:22:14.000Z</time>
      </trkpt>
      <trkpt lat="48.71866" lon="1.75504">
        <ele>150.19999694824</ele>
        <time>2012-03-08T12:22:19.000Z</time>
      </trkpt>
      <trkpt lat="48.71856" lon="1.75524">
        <ele>151.19999694824</ele>
        <time>2012-03-08T12:22:24.000Z</time>
      </trkpt>
      <trkpt lat="48.71846" lon="1.75551">
        <ele>152.80000305176</ele>
        <time>2012-03-08T12:22:30.000Z</time>
      </trkpt>
      <trkpt lat="48.71844" lon="1.75556">
        <ele>153</ele>
        <time>2012-03-08T12:22:31.000Z</time>
      </trkpt>
      <trkpt lat="48.7184" lon="1.75603">
        <ele>155.19999694824</ele>
        <time>2012-03-08T12:22:39.000Z</time>
      </trkpt>
      <trkpt lat="48.71837" lon="1.75629">
        <ele>156.39999389648</ele>
        <time>2012-03-08T12:22:44.000Z</time>
      </trkpt>
      <trkpt lat="48.71834" lon="1.75654">
        <ele>157.39999389648</ele>
        <time>2012-03-08T12:22:49.000Z</time>
      </trkpt>
      <trkpt lat="48.71832" lon="1.75675">
        <ele>158.19999694824</ele>
        <time>2012-03-08T12:22:53.000Z</time>
      </trkpt>
      <trkpt lat="48.71827" lon="1.75708">
        <ele>159</ele>
        <time>2012-03-08T12:22:59.000Z</time>
      </trkpt>
      <trkpt lat="48.71824" lon="1.75728">
        <ele>159.19999694824</ele>
        <time>2012-03-08T12:23:04.000Z</time>
      </trkpt>
      <trkpt lat="48.71816" lon="1.75753">
        <ele>160</ele>
        <time>2012-03-08T12:23:10.000Z</time>
      </trkpt>
      <trkpt lat="48.71805" lon="1.75781">
        <ele>161</ele>
        <time>2012-03-08T12:23:16.000Z</time>
      </trkpt>
      <trkpt lat="48.71799" lon="1.75808">
        <ele>161.39999389648</ele>
        <time>2012-03-08T12:23:21.000Z</time>
      </trkpt>
      <trkpt lat="48.71793" lon="1.75839">
        <ele>161.80000305176</ele>
        <time>2012-03-08T12:23:27.000Z</time>
      </trkpt>
      <trkpt lat="48.71788" lon="1.75867">
        <ele>162.60000610352</ele>
        <time>2012-03-08T12:23:32.000Z</time>
      </trkpt>
      <trkpt lat="48.71783" lon="1.75891">
        <ele>163.19999694824</ele>
        <time>2012-03-08T12:23:37.000Z</time>
      </trkpt>
      <trkpt lat="48.71776" lon="1.75926">
        <ele>163.80000305176</ele>
        <time>2012-03-08T12:23:44.000Z</time>
      </trkpt>
      <trkpt lat="48.71769" lon="1.75955">
        <ele>162.80000305176</ele>
        <time>2012-03-08T12:23:50.000Z</time>
      </trkpt>
      <trkpt lat="48.71763" lon="1.75984">
        <ele>161.80000305176</ele>
        <time>2012-03-08T12:23:56.000Z</time>
      </trkpt>
      <trkpt lat="48.7176" lon="1.76003">
        <ele>161.39999389648</ele>
        <time>2012-03-08T12:24:00.000Z</time>
      </trkpt>
      <trkpt lat="48.71747" lon="1.7605">
        <ele>160.39999389648</ele>
        <time>2012-03-08T12:24:10.000Z</time>
      </trkpt>
      <trkpt lat="48.71736" lon="1.7608">
        <ele>159.80000305176</ele>
        <time>2012-03-08T12:24:17.000Z</time>
      </trkpt>
      <trkpt lat="48.71726" lon="1.76075">
        <ele>159.80000305176</ele>
        <time>2012-03-08T12:24:21.000Z</time>
      </trkpt>
      <trkpt lat="48.71725" lon="1.7607">
        <ele>160</ele>
        <time>2012-03-08T12:24:22.000Z</time>
      </trkpt>
      <trkpt lat="48.71711" lon="1.76034">
        <ele>160.39999389648</ele>
        <time>2012-03-08T12:24:30.000Z</time>
      </trkpt>
      <trkpt lat="48.717" lon="1.76006">
        <ele>160.80000305176</ele>
        <time>2012-03-08T12:24:36.000Z</time>
      </trkpt>
      <trkpt lat="48.71686" lon="1.75969">
        <ele>162</ele>
        <time>2012-03-08T12:24:44.000Z</time>
      </trkpt>
      <trkpt lat="48.7167" lon="1.7594">
        <ele>163.19999694824</ele>
        <time>2012-03-08T12:24:51.000Z</time>
      </trkpt>
      <trkpt lat="48.71658" lon="1.75913">
        <ele>164.39999389648</ele>
        <time>2012-03-08T12:24:57.000Z</time>
      </trkpt>
      <trkpt lat="48.71643" lon="1.75882">
        <ele>166</ele>
        <time>2012-03-08T12:25:04.000Z</time>
      </trkpt>
      <trkpt lat="48.71628" lon="1.75848">
        <ele>167.39999389648</ele>
        <time>2012-03-08T12:25:11.000Z</time>
      </trkpt>
      <trkpt lat="48.71615" lon="1.75823">
        <ele>168.60000610352</ele>
        <time>2012-03-08T12:25:17.000Z</time>
      </trkpt>
      <trkpt lat="48.71596" lon="1.75783">
        <ele>170.19999694824</ele>
        <time>2012-03-08T12:25:26.000Z</time>
      </trkpt>
      <trkpt lat="48.71584" lon="1.75754">
        <ele>171</ele>
        <time>2012-03-08T12:25:32.000Z</time>
      </trkpt>
      <trkpt lat="48.71564" lon="1.75708">
        <ele>171.80000305176</ele>
        <time>2012-03-08T12:25:42.000Z</time>
      </trkpt>
      <trkpt lat="48.71545" lon="1.75668">
        <ele>173</ele>
        <time>2012-03-08T12:25:51.000Z</time>
      </trkpt>
      <trkpt lat="48.71525" lon="1.75626">
        <ele>174.39999389648</ele>
        <time>2012-03-08T12:26:00.000Z</time>
      </trkpt>
      <trkpt lat="48.71512" lon="1.75593">
        <ele>175.60000610352</ele>
        <time>2012-03-08T12:26:07.000Z</time>
      </trkpt>
      <trkpt lat="48.715" lon="1.75563">
        <ele>176.19999694824</ele>
        <time>2012-03-08T12:26:14.000Z</time>
      </trkpt>
      <trkpt lat="48.71491" lon="1.75541">
        <ele>176.19999694824</ele>
        <time>2012-03-08T12:26:19.000Z</time>
      </trkpt>
      <trkpt lat="48.71482" lon="1.75517">
        <ele>176</ele>
        <time>2012-03-08T12:26:24.000Z</time>
      </trkpt>
      <trkpt lat="48.71469" lon="1.75478">
        <ele>175.60000610352</ele>
        <time>2012-03-08T12:26:32.000Z</time>
      </trkpt>
      <trkpt lat="48.71458" lon="1.75439">
        <ele>175.39999389648</ele>
        <time>2012-03-08T12:26:40.000Z</time>
      </trkpt>
      <trkpt lat="48.71449" lon="1.75405">
        <ele>175</ele>
        <time>2012-03-08T12:26:47.000Z</time>
      </trkpt>
      <trkpt lat="48.71434" lon="1.75354">
        <ele>173.19999694824</ele>
        <time>2012-03-08T12:26:57.000Z</time>
      </trkpt>
      <trkpt lat="48.71424" lon="1.75318">
        <ele>172.60000610352</ele>
        <time>2012-03-08T12:27:04.000Z</time>
      </trkpt>
      <trkpt lat="48.71407" lon="1.75277">
        <ele>173.60000610352</ele>
        <time>2012-03-08T12:27:13.000Z</time>
      </trkpt>
      <trkpt lat="48.71385" lon="1.75249">
        <ele>174.39999389648</ele>
        <time>2012-03-08T12:27:21.000Z</time>
      </trkpt>
      <trkpt lat="48.71361" lon="1.75226">
        <ele>175</ele>
        <time>2012-03-08T12:27:29.000Z</time>
      </trkpt>
      <trkpt lat="48.7133" lon="1.75199">
        <ele>175.60000610352</ele>
        <time>2012-03-08T12:27:39.000Z</time>
      </trkpt>
      <trkpt lat="48.713" lon="1.75171">
        <ele>175.60000610352</ele>
        <time>2012-03-08T12:27:49.000Z</time>
      </trkpt>
      <trkpt lat="48.71266" lon="1.75141">
        <ele>175.80000305176</ele>
        <time>2012-03-08T12:28:00.000Z</time>
      </trkpt>
      <trkpt lat="48.71245" lon="1.75123">
        <ele>176</ele>
        <time>2012-03-08T12:28:07.000Z</time>
      </trkpt>
      <trkpt lat="48.71218" lon="1.75095">
        <ele>176.39999389648</ele>
        <time>2012-03-08T12:28:16.000Z</time>
      </trkpt>
      <trkpt lat="48.712" lon="1.7507">
        <ele>176.39999389648</ele>
        <time>2012-03-08T12:28:23.000Z</time>
      </trkpt>
      <trkpt lat="48.71187" lon="1.75054">
        <ele>176.19999694824</ele>
        <time>2012-03-08T12:28:29.000Z</time>
      </trkpt>
      <trkpt lat="48.71181" lon="1.75046">
        <ele>176</ele>
        <time>2012-03-08T12:28:34.000Z</time>
      </trkpt>
      <trkpt lat="48.71171" lon="1.75035">
        <ele>176</ele>
        <time>2012-03-08T12:28:43.000Z</time>
      </trkpt>
      <trkpt lat="48.71164" lon="1.75029">
        <ele>176</ele>
        <time>2012-03-08T12:28:49.000Z</time>
      </trkpt>
      <trkpt lat="48.71163" lon="1.75029">
        <ele>176</ele>
        <time>2012-03-08T12:28:52.000Z</time>
      </trkpt>
      <trkpt lat="48.7116" lon="1.7502">
        <ele>176</ele>
        <time>2012-03-08T12:29:12.000Z</time>
      </trkpt>
      <trkpt lat="48.71152" lon="1.75007">
        <ele>176</ele>
        <time>2012-03-08T12:29:19.000Z</time>
      </trkpt>
      <trkpt lat="48.71142" lon="1.74996">
        <ele>176</ele>
        <time>2012-03-08T12:29:27.000Z</time>
      </trkpt>
      <trkpt lat="48.71131" lon="1.74982">
        <ele>175.80000305176</ele>
        <time>2012-03-08T12:29:37.000Z</time>
      </trkpt>
      <trkpt lat="48.7113" lon="1.7498">
        <ele>175.80000305176</ele>
        <time>2012-03-08T12:29:38.000Z</time>
      </trkpt>
      <trkpt lat="48.71123" lon="1.74975">
        <ele>175.80000305176</ele>
        <time>2012-03-08T12:29:43.000Z</time>
      </trkpt>
      <trkpt lat="48.71119" lon="1.74966">
        <ele>175.80000305176</ele>
        <time>2012-03-08T12:29:48.000Z</time>
      </trkpt>
      <trkpt lat="48.71114" lon="1.74958">
        <ele>175.80000305176</ele>
        <time>2012-03-08T12:29:55.000Z</time>
      </trkpt>
      <trkpt lat="48.71112" lon="1.74955">
        <ele>175.80000305176</ele>
        <time>2012-03-08T12:29:57.000Z</time>
      </trkpt>
      <trkpt lat="48.71106" lon="1.74949">
        <ele>175.80000305176</ele>
        <time>2012-03-08T12:30:02.000Z</time>
      </trkpt>
      <trkpt lat="48.71097" lon="1.7494">
        <ele>175.80000305176</ele>
        <time>2012-03-08T12:30:09.000Z</time>
      </trkpt>
      <trkpt lat="48.71086" lon="1.74927">
        <ele>176</ele>
        <time>2012-03-08T12:30:18.000Z</time>
      </trkpt>
      <trkpt lat="48.71078" lon="1.74919">
        <ele>176.19999694824</ele>
        <time>2012-03-08T12:30:25.000Z</time>
      </trkpt>
      <trkpt lat="48.71069" lon="1.74907">
        <ele>176.39999389648</ele>
        <time>2012-03-08T12:30:33.000Z</time>
      </trkpt>
      <trkpt lat="48.71061" lon="1.74896">
        <ele>176.39999389648</ele>
        <time>2012-03-08T12:30:40.000Z</time>
      </trkpt>
      <trkpt lat="48.71053" lon="1.74886">
        <ele>176.60000610352</ele>
        <time>2012-03-08T12:30:47.000Z</time>
      </trkpt>
      <trkpt lat="48.71047" lon="1.74879">
        <ele>176.80000305176</ele>
        <time>2012-03-08T12:30:52.000Z</time>
      </trkpt>
      <trkpt lat="48.71046" lon="1.74874">
        <ele>176.80000305176</ele>
        <time>2012-03-08T12:30:57.000Z</time>
      </trkpt>
      <trkpt lat="48.71039" lon="1.74866">
        <ele>177</ele>
        <time>2012-03-08T12:31:17.000Z</time>
      </trkpt>
      <trkpt lat="48.71036" lon="1.74863">
        <ele>177.19999694824</ele>
        <time>2012-03-08T12:31:19.000Z</time>
      </trkpt>
      <trkpt lat="48.71023" lon="1.74848">
        <ele>177.80000305176</ele>
        <time>2012-03-08T12:31:30.000Z</time>
      </trkpt>
      <trkpt lat="48.71015" lon="1.74847">
        <ele>178.19999694824</ele>
        <time>2012-03-08T12:31:36.000Z</time>
      </trkpt>
      <trkpt lat="48.71007" lon="1.74854">
        <ele>178.60000610352</ele>
        <time>2012-03-08T12:31:42.000Z</time>
      </trkpt>
      <trkpt lat="48.71003" lon="1.74861">
        <ele>178.80000305176</ele>
        <time>2012-03-08T12:31:47.000Z</time>
      </trkpt>
      <trkpt lat="48.70992" lon="1.74876">
        <ele>178.80000305176</ele>
        <time>2012-03-08T12:31:57.000Z</time>
      </trkpt>
      <trkpt lat="48.70982" lon="1.74886">
        <ele>178.39999389648</ele>
        <time>2012-03-08T12:32:05.000Z</time>
      </trkpt>
      <trkpt lat="48.70973" lon="1.74898">
        <ele>178</ele>
        <time>2012-03-08T12:32:13.000Z</time>
      </trkpt>
      <trkpt lat="48.70964" lon="1.74911">
        <ele>177.39999389648</ele>
        <time>2012-03-08T12:32:21.000Z</time>
      </trkpt>
      <trkpt lat="48.70958" lon="1.7492">
        <ele>177</ele>
        <time>2012-03-08T12:32:27.000Z</time>
      </trkpt>
      <trkpt lat="48.70954" lon="1.74928">
        <ele>176.80000305176</ele>
        <time>2012-03-08T12:32:31.000Z</time>
      </trkpt>
      <trkpt lat="48.70946" lon="1.74941">
        <ele>176.19999694824</ele>
        <time>2012-03-08T12:32:38.000Z</time>
      </trkpt>
      <trkpt lat="48.70939" lon="1.74952">
        <ele>176</ele>
        <time>2012-03-08T12:32:45.000Z</time>
      </trkpt>
      <trkpt lat="48.7093" lon="1.74965">
        <ele>175.60000610352</ele>
        <time>2012-03-08T12:32:52.000Z</time>
      </trkpt>
      <trkpt lat="48.70925" lon="1.74969">
        <ele>175.39999389648</ele>
        <time>2012-03-08T12:32:56.000Z</time>
      </trkpt>
      <trkpt lat="48.70917" lon="1.74984">
        <ele>175</ele>
        <time>2012-03-08T12:33:05.000Z</time>
      </trkpt>
      <trkpt lat="48.70916" lon="1.74985">
        <ele>175</ele>
        <time>2012-03-08T12:33:08.000Z</time>
      </trkpt>
      <trkpt lat="48.70887" lon="1.75049">
        <ele>174.39999389648</ele>
        <time>2012-03-08T12:35:56.000Z</time>
      </trkpt>
      <trkpt lat="48.70885" lon="1.75053">
        <ele>174.39999389648</ele>
        <time>2012-03-08T12:35:58.000Z</time>
      </trkpt>
      <trkpt lat="48.7088" lon="1.75064">
        <ele>174.19999694824</ele>
        <time>2012-03-08T12:36:05.000Z</time>
      </trkpt>
      <trkpt lat="48.70878" lon="1.75066">
        <ele>174.19999694824</ele>
        <time>2012-03-08T12:36:09.000Z</time>
      </trkpt>
      <trkpt lat="48.70875" lon="1.75073">
        <ele>174.19999694824</ele>
        <time>2012-03-08T12:36:15.000Z</time>
      </trkpt>
      <trkpt lat="48.70874" lon="1.75073">
        <ele>174.19999694824</ele>
        <time>2012-03-08T12:36:18.000Z</time>
      </trkpt>
      <trkpt lat="48.70867" lon="1.75097">
        <ele>174</ele>
        <time>2012-03-08T12:37:03.000Z</time>
      </trkpt>
      <trkpt lat="48.70866" lon="1.75101">
        <ele>174</ele>
        <time>2012-03-08T12:37:04.000Z</time>
      </trkpt>
      <trkpt lat="48.70866" lon="1.75105">
        <ele>174.19999694824</ele>
        <time>2012-03-08T12:37:07.000Z</time>
      </trkpt>
      <trkpt lat="48.70863" lon="1.75112">
        <ele>174.19999694824</ele>
        <time>2012-03-08T12:37:12.000Z</time>
      </trkpt>
      <trkpt lat="48.70861" lon="1.75116">
        <ele>174.19999694824</ele>
        <time>2012-03-08T12:37:17.000Z</time>
      </trkpt>
      <trkpt lat="48.70855" lon="1.75124">
        <ele>174.19999694824</ele>
        <time>2012-03-08T12:37:27.000Z</time>
      </trkpt>
      <trkpt lat="48.70851" lon="1.75133">
        <ele>174.19999694824</ele>
        <time>2012-03-08T12:37:34.000Z</time>
      </trkpt>
      <trkpt lat="48.70846" lon="1.75144">
        <ele>174.19999694824</ele>
        <time>2012-03-08T12:37:42.000Z</time>
      </trkpt>
      <trkpt lat="48.70841" lon="1.75154">
        <ele>174</ele>
        <time>2012-03-08T12:37:49.000Z</time>
      </trkpt>
      <trkpt lat="48.70839" lon="1.75159">
        <ele>174</ele>
        <time>2012-03-08T12:37:52.000Z</time>
      </trkpt>
      <trkpt lat="48.70836" lon="1.75167">
        <ele>174</ele>
        <time>2012-03-08T12:37:57.000Z</time>
      </trkpt>
      <trkpt lat="48.70832" lon="1.75178">
        <ele>174</ele>
        <time>2012-03-08T12:38:04.000Z</time>
      </trkpt>
      <trkpt lat="48.70831" lon="1.75179">
        <ele>174</ele>
        <time>2012-03-08T12:38:05.000Z</time>
      </trkpt>
      <trkpt lat="48.70825" lon="1.75192">
        <ele>174</ele>
        <time>2012-03-08T12:38:14.000Z</time>
      </trkpt>
      <trkpt lat="48.70825" lon="1.75194">
        <ele>173.80000305176</ele>
        <time>2012-03-08T12:38:15.000Z</time>
      </trkpt>
      <trkpt lat="48.7082" lon="1.75202">
        <ele>173.80000305176</ele>
        <time>2012-03-08T12:38:21.000Z</time>
      </trkpt>
      <trkpt lat="48.70819" lon="1.75205">
        <ele>173.80000305176</ele>
        <time>2012-03-08T12:38:24.000Z</time>
      </trkpt>
      <trkpt lat="48.70814" lon="1.75216">
        <ele>173.80000305176</ele>
        <time>2012-03-08T12:38:31.000Z</time>
      </trkpt>
      <trkpt lat="48.70809" lon="1.75225">
        <ele>173.80000305176</ele>
        <time>2012-03-08T12:38:37.000Z</time>
      </trkpt>
      <trkpt lat="48.70809" lon="1.75227">
        <ele>173.80000305176</ele>
        <time>2012-03-08T12:38:38.000Z</time>
      </trkpt>
      <trkpt lat="48.70809" lon="1.75228">
        <ele>173.80000305176</ele>
        <time>2012-03-08T12:38:41.000Z</time>
      </trkpt>
      <trkpt lat="48.70801" lon="1.75244">
        <ele>173.60000610352</ele>
        <time>2012-03-08T12:38:58.000Z</time>
      </trkpt>
      <trkpt lat="48.70796" lon="1.75256">
        <ele>173.60000610352</ele>
        <time>2012-03-08T12:39:04.000Z</time>
      </trkpt>
      <trkpt lat="48.70791" lon="1.75266">
        <ele>173.39999389648</ele>
        <time>2012-03-08T12:39:11.000Z</time>
      </trkpt>
      <trkpt lat="48.70787" lon="1.75276">
        <ele>173.39999389648</ele>
        <time>2012-03-08T12:39:17.000Z</time>
      </trkpt>
      <trkpt lat="48.70786" lon="1.7528">
        <ele>173.39999389648</ele>
        <time>2012-03-08T12:39:21.000Z</time>
      </trkpt>
      <trkpt lat="48.70782" lon="1.7529">
        <ele>173.39999389648</ele>
        <time>2012-03-08T12:39:38.000Z</time>
      </trkpt>
      <trkpt lat="48.70778" lon="1.75304">
        <ele>173.39999389648</ele>
        <time>2012-03-08T12:39:47.000Z</time>
      </trkpt>
      <trkpt lat="48.70777" lon="1.75306">
        <ele>173.39999389648</ele>
        <time>2012-03-08T12:39:51.000Z</time>
      </trkpt>
      <trkpt lat="48.70766" lon="1.75331">
        <ele>173.19999694824</ele>
        <time>2012-03-08T12:40:11.000Z</time>
      </trkpt>
      <trkpt lat="48.70763" lon="1.75342">
        <ele>173</ele>
        <time>2012-03-08T12:40:17.000Z</time>
      </trkpt>
      <trkpt lat="48.70758" lon="1.75355">
        <ele>172.80000305176</ele>
        <time>2012-03-08T12:40:25.000Z</time>
      </trkpt>
      <trkpt lat="48.70753" lon="1.75367">
        <ele>172.60000610352</ele>
        <time>2012-03-08T12:40:33.000Z</time>
      </trkpt>
      <trkpt lat="48.70751" lon="1.7537">
        <ele>172.60000610352</ele>
        <time>2012-03-08T12:40:37.000Z</time>
      </trkpt>
    </trkseg>
  </trk>
</gpx>